<?xml version="1.0" encoding="UTF-8" standalone="no" ?>
<gpx xmlns="http://www.topografix.com/GPX/1/1" xmlns:xsi="http://www.w3.org/2001/XMLSchema-instance" xsi:schemaLocation="http://www.topografix.com/GPX/1/1 http://www.topografix.com/GPX/1/1/gpx.xsd" version="1.1" creator="VisuGPX - https://www.visugpx.com">
  <metadata>
    <name>VTT XC/AM Grabels </name>
    <desc><![CDATA[Sortie typée xc/AM au départ du parking TRAM Euromédecine.
Boucle en sens inverse des aiguilles d'une montre cette fois-ci. On passe derrière les tennis de la Valsière, sous le plateau du Piquet par le single ludique, puis cote de la Goule (la 1ère de la sortie) on redescend ensuite longer la vigne parallèle à la route de saint Gely. on arrive au pied de la 2ème cote bien raide qui nous remonte sur le plateau (c'est un petit "coup de cul" mais en palier heureusement). La suite est un chemin en descente (ça doit passer sans freiner jusqu'au single à droite, attention c'est très étroit en bas à cause des branches et feuillages des buissons. On va ensuite traverser la Mosson pour se diriger vers les hauts de Massane. Ici on attaque le début de la dernière cote en paliers aussi jusqu'au au sommet, puis un peu loin sur la gauche on redescend un petit single un peu fermé par les végetaux pour longer un lotissement. Retour par le chemin des services techniques puis single jusqu'au carrefour du TRAM.
Faisable pour la pause déjeuner :-)]]></desc>
  </metadata>
  <trk>
    <name><![CDATA[VTT XC/AM Grabels _1]]></name>
    <trkseg>
      <trkpt lat="43.63764" lon="3.82874">
        <ele>109.3</ele>
        <time>2017-09-19T10:12:40Z</time>
      </trkpt>
      <trkpt lat="43.63764" lon="3.82874">
        <ele>109.3</ele>
        <time>2017-09-19T10:12:42Z</time>
      </trkpt>
      <trkpt lat="43.63761" lon="3.82864">
        <ele>115</ele>
        <time>2017-09-19T10:12:43Z</time>
      </trkpt>
      <trkpt lat="43.63768" lon="3.82862">
        <ele>123.5</ele>
        <time>2017-09-19T10:12:47Z</time>
      </trkpt>
      <trkpt lat="43.63781" lon="3.82865">
        <ele>150.9</ele>
        <time>2017-09-19T10:12:49Z</time>
      </trkpt>
      <trkpt lat="43.63776" lon="3.82868">
        <ele>147.8</ele>
        <time>2017-09-19T10:12:56Z</time>
      </trkpt>
      <trkpt lat="43.63769" lon="3.82867">
        <ele>145.1</ele>
        <time>2017-09-19T10:13:00Z</time>
      </trkpt>
      <trkpt lat="43.63763" lon="3.82867">
        <ele>138.2</ele>
        <time>2017-09-19T10:13:07Z</time>
      </trkpt>
      <trkpt lat="43.63763" lon="3.82868">
        <ele>133.1</ele>
        <time>2017-09-19T10:13:14Z</time>
      </trkpt>
      <trkpt lat="43.63763" lon="3.8286">
        <ele>132.2</ele>
        <time>2017-09-19T10:13:31Z</time>
      </trkpt>
      <trkpt lat="43.63762" lon="3.8286">
        <ele>128.5</ele>
        <time>2017-09-19T10:13:27Z</time>
      </trkpt>
      <trkpt lat="43.63761" lon="3.82858">
        <ele>128</ele>
        <time>2017-09-19T10:14:40Z</time>
      </trkpt>
      <trkpt lat="43.63766" lon="3.82857">
        <ele>127.4</ele>
        <time>2017-09-19T10:14:52Z</time>
      </trkpt>
      <trkpt lat="43.63772" lon="3.82859">
        <ele>126.6</ele>
        <time>2017-09-19T10:14:59Z</time>
      </trkpt>
      <trkpt lat="43.63779" lon="3.82854">
        <ele>126.4</ele>
        <time>2017-09-19T10:15:01Z</time>
      </trkpt>
      <trkpt lat="43.63775" lon="3.82841">
        <ele>126.2</ele>
        <time>2017-09-19T10:15:03Z</time>
      </trkpt>
      <trkpt lat="43.6377" lon="3.82831">
        <ele>126.2</ele>
        <time>2017-09-19T10:15:04Z</time>
      </trkpt>
      <trkpt lat="43.63775" lon="3.82818">
        <ele>126.3</ele>
        <time>2017-09-19T10:15:06Z</time>
      </trkpt>
      <trkpt lat="43.63781" lon="3.8281">
        <ele>126.8</ele>
        <time>2017-09-19T10:15:08Z</time>
      </trkpt>
      <trkpt lat="43.6379" lon="3.82807">
        <ele>126.9</ele>
        <time>2017-09-19T10:15:11Z</time>
      </trkpt>
      <trkpt lat="43.63797" lon="3.82803">
        <ele>127</ele>
        <time>2017-09-19T10:15:14Z</time>
      </trkpt>
      <trkpt lat="43.63804" lon="3.82799">
        <ele>127</ele>
        <time>2017-09-19T10:15:16Z</time>
      </trkpt>
      <trkpt lat="43.63812" lon="3.82796">
        <ele>127.1</ele>
        <time>2017-09-19T10:15:18Z</time>
      </trkpt>
      <trkpt lat="43.63819" lon="3.82793">
        <ele>127.2</ele>
        <time>2017-09-19T10:15:20Z</time>
      </trkpt>
      <trkpt lat="43.63829" lon="3.82792">
        <ele>127.4</ele>
        <time>2017-09-19T10:15:23Z</time>
      </trkpt>
      <trkpt lat="43.63839" lon="3.82794">
        <ele>128.3</ele>
        <time>2017-09-19T10:15:25Z</time>
      </trkpt>
      <trkpt lat="43.63848" lon="3.82791">
        <ele>128.4</ele>
        <time>2017-09-19T10:15:27Z</time>
      </trkpt>
      <trkpt lat="43.63858" lon="3.82783">
        <ele>128.3</ele>
        <time>2017-09-19T10:15:30Z</time>
      </trkpt>
      <trkpt lat="43.63868" lon="3.82777">
        <ele>128.9</ele>
        <time>2017-09-19T10:15:32Z</time>
      </trkpt>
      <trkpt lat="43.63876" lon="3.82773">
        <ele>128.8</ele>
        <time>2017-09-19T10:15:34Z</time>
      </trkpt>
      <trkpt lat="43.63884" lon="3.82772">
        <ele>128.8</ele>
        <time>2017-09-19T10:15:36Z</time>
      </trkpt>
      <trkpt lat="43.63888" lon="3.82785">
        <ele>128.8</ele>
        <time>2017-09-19T10:15:39Z</time>
      </trkpt>
      <trkpt lat="43.63892" lon="3.82794">
        <ele>128.9</ele>
        <time>2017-09-19T10:15:42Z</time>
      </trkpt>
      <trkpt lat="43.63899" lon="3.82803">
        <ele>128.9</ele>
        <time>2017-09-19T10:15:46Z</time>
      </trkpt>
      <trkpt lat="43.63911" lon="3.82803">
        <ele>129</ele>
        <time>2017-09-19T10:15:49Z</time>
      </trkpt>
      <trkpt lat="43.63918" lon="3.82811">
        <ele>129.2</ele>
        <time>2017-09-19T10:15:53Z</time>
      </trkpt>
      <trkpt lat="43.63922" lon="3.82824">
        <ele>129.5</ele>
        <time>2017-09-19T10:15:58Z</time>
      </trkpt>
      <trkpt lat="43.63921" lon="3.82822">
        <ele>129.2</ele>
        <time>2017-09-19T10:16:05Z</time>
      </trkpt>
      <trkpt lat="43.63929" lon="3.82813">
        <ele>129.3</ele>
        <time>2017-09-19T10:16:09Z</time>
      </trkpt>
      <trkpt lat="43.63936" lon="3.8281">
        <ele>129.5</ele>
        <time>2017-09-19T10:16:11Z</time>
      </trkpt>
      <trkpt lat="43.63945" lon="3.8281">
        <ele>129.8</ele>
        <time>2017-09-19T10:16:14Z</time>
      </trkpt>
      <trkpt lat="43.63952" lon="3.82805">
        <ele>130.1</ele>
        <time>2017-09-19T10:16:18Z</time>
      </trkpt>
      <trkpt lat="43.63962" lon="3.828">
        <ele>130.3</ele>
        <time>2017-09-19T10:16:21Z</time>
      </trkpt>
      <trkpt lat="43.63972" lon="3.82798">
        <ele>130.5</ele>
        <time>2017-09-19T10:16:23Z</time>
      </trkpt>
      <trkpt lat="43.63981" lon="3.82797">
        <ele>130.9</ele>
        <time>2017-09-19T10:16:25Z</time>
      </trkpt>
      <trkpt lat="43.63992" lon="3.82795">
        <ele>131.2</ele>
        <time>2017-09-19T10:16:27Z</time>
      </trkpt>
      <trkpt lat="43.64004" lon="3.82792">
        <ele>131.4</ele>
        <time>2017-09-19T10:16:29Z</time>
      </trkpt>
      <trkpt lat="43.64011" lon="3.8279">
        <ele>131.7</ele>
        <time>2017-09-19T10:16:31Z</time>
      </trkpt>
      <trkpt lat="43.64019" lon="3.82784">
        <ele>132</ele>
        <time>2017-09-19T10:16:33Z</time>
      </trkpt>
      <trkpt lat="43.64025" lon="3.82778">
        <ele>132.2</ele>
        <time>2017-09-19T10:16:35Z</time>
      </trkpt>
      <trkpt lat="43.64034" lon="3.82771">
        <ele>132.5</ele>
        <time>2017-09-19T10:16:38Z</time>
      </trkpt>
      <trkpt lat="43.64042" lon="3.82765">
        <ele>132.9</ele>
        <time>2017-09-19T10:16:41Z</time>
      </trkpt>
      <trkpt lat="43.64049" lon="3.82758">
        <ele>134.1</ele>
        <time>2017-09-19T10:16:43Z</time>
      </trkpt>
      <trkpt lat="43.64058" lon="3.8275">
        <ele>136.1</ele>
        <time>2017-09-19T10:16:45Z</time>
      </trkpt>
      <trkpt lat="43.64064" lon="3.82744">
        <ele>136.8</ele>
        <time>2017-09-19T10:16:47Z</time>
      </trkpt>
      <trkpt lat="43.64071" lon="3.82739">
        <ele>137</ele>
        <time>2017-09-19T10:16:49Z</time>
      </trkpt>
      <trkpt lat="43.64081" lon="3.82733">
        <ele>137.6</ele>
        <time>2017-09-19T10:16:52Z</time>
      </trkpt>
      <trkpt lat="43.64089" lon="3.82725">
        <ele>137.7</ele>
        <time>2017-09-19T10:16:54Z</time>
      </trkpt>
      <trkpt lat="43.64096" lon="3.82719">
        <ele>137.8</ele>
        <time>2017-09-19T10:16:56Z</time>
      </trkpt>
      <trkpt lat="43.64102" lon="3.82712">
        <ele>139</ele>
        <time>2017-09-19T10:16:58Z</time>
      </trkpt>
      <trkpt lat="43.64109" lon="3.82706">
        <ele>140</ele>
        <time>2017-09-19T10:17:00Z</time>
      </trkpt>
      <trkpt lat="43.64114" lon="3.82698">
        <ele>140.5</ele>
        <time>2017-09-19T10:17:02Z</time>
      </trkpt>
      <trkpt lat="43.6412" lon="3.82692">
        <ele>140.9</ele>
        <time>2017-09-19T10:17:04Z</time>
      </trkpt>
      <trkpt lat="43.64127" lon="3.82684">
        <ele>141.9</ele>
        <time>2017-09-19T10:17:06Z</time>
      </trkpt>
      <trkpt lat="43.64133" lon="3.82676">
        <ele>142.5</ele>
        <time>2017-09-19T10:17:08Z</time>
      </trkpt>
      <trkpt lat="43.64141" lon="3.82668">
        <ele>142.8</ele>
        <time>2017-09-19T10:17:11Z</time>
      </trkpt>
      <trkpt lat="43.64147" lon="3.82661">
        <ele>143.1</ele>
        <time>2017-09-19T10:17:13Z</time>
      </trkpt>
      <trkpt lat="43.64155" lon="3.82652">
        <ele>143.5</ele>
        <time>2017-09-19T10:17:16Z</time>
      </trkpt>
      <trkpt lat="43.64163" lon="3.82646">
        <ele>143.7</ele>
        <time>2017-09-19T10:17:19Z</time>
      </trkpt>
      <trkpt lat="43.64171" lon="3.82642">
        <ele>143.8</ele>
        <time>2017-09-19T10:17:22Z</time>
      </trkpt>
      <trkpt lat="43.6418" lon="3.82641">
        <ele>143.9</ele>
        <time>2017-09-19T10:17:24Z</time>
      </trkpt>
      <trkpt lat="43.6419" lon="3.82639">
        <ele>143.8</ele>
        <time>2017-09-19T10:17:26Z</time>
      </trkpt>
      <trkpt lat="43.64197" lon="3.82642">
        <ele>143.6</ele>
        <time>2017-09-19T10:17:28Z</time>
      </trkpt>
      <trkpt lat="43.64206" lon="3.82647">
        <ele>143.5</ele>
        <time>2017-09-19T10:17:30Z</time>
      </trkpt>
      <trkpt lat="43.64218" lon="3.82654">
        <ele>142.9</ele>
        <time>2017-09-19T10:17:32Z</time>
      </trkpt>
      <trkpt lat="43.64229" lon="3.82659">
        <ele>141.9</ele>
        <time>2017-09-19T10:17:34Z</time>
      </trkpt>
      <trkpt lat="43.64241" lon="3.82667">
        <ele>140.5</ele>
        <time>2017-09-19T10:17:36Z</time>
      </trkpt>
      <trkpt lat="43.64253" lon="3.82676">
        <ele>140.2</ele>
        <time>2017-09-19T10:17:38Z</time>
      </trkpt>
      <trkpt lat="43.64265" lon="3.82683">
        <ele>139.1</ele>
        <time>2017-09-19T10:17:40Z</time>
      </trkpt>
      <trkpt lat="43.64278" lon="3.82686">
        <ele>138.2</ele>
        <time>2017-09-19T10:17:42Z</time>
      </trkpt>
      <trkpt lat="43.64288" lon="3.82688">
        <ele>138.2</ele>
        <time>2017-09-19T10:17:45Z</time>
      </trkpt>
      <trkpt lat="43.64296" lon="3.82689">
        <ele>138.3</ele>
        <time>2017-09-19T10:17:48Z</time>
      </trkpt>
      <trkpt lat="43.64303" lon="3.82691">
        <ele>138.6</ele>
        <time>2017-09-19T10:17:51Z</time>
      </trkpt>
      <trkpt lat="43.64312" lon="3.82695">
        <ele>138.9</ele>
        <time>2017-09-19T10:17:54Z</time>
      </trkpt>
      <trkpt lat="43.64319" lon="3.827">
        <ele>139.3</ele>
        <time>2017-09-19T10:17:57Z</time>
      </trkpt>
      <trkpt lat="43.64326" lon="3.82704">
        <ele>139.8</ele>
        <time>2017-09-19T10:18:01Z</time>
      </trkpt>
      <trkpt lat="43.64334" lon="3.82704">
        <ele>140.4</ele>
        <time>2017-09-19T10:18:06Z</time>
      </trkpt>
      <trkpt lat="43.6434" lon="3.82708">
        <ele>141.1</ele>
        <time>2017-09-19T10:18:12Z</time>
      </trkpt>
      <trkpt lat="43.64347" lon="3.82715">
        <ele>141.5</ele>
        <time>2017-09-19T10:18:15Z</time>
      </trkpt>
      <trkpt lat="43.64354" lon="3.82718">
        <ele>141.9</ele>
        <time>2017-09-19T10:18:18Z</time>
      </trkpt>
      <trkpt lat="43.64361" lon="3.82719">
        <ele>142.4</ele>
        <time>2017-09-19T10:18:21Z</time>
      </trkpt>
      <trkpt lat="43.6437" lon="3.8272">
        <ele>142.8</ele>
        <time>2017-09-19T10:18:24Z</time>
      </trkpt>
      <trkpt lat="43.64378" lon="3.82718">
        <ele>143.4</ele>
        <time>2017-09-19T10:18:27Z</time>
      </trkpt>
      <trkpt lat="43.64387" lon="3.8272">
        <ele>144.1</ele>
        <time>2017-09-19T10:18:31Z</time>
      </trkpt>
      <trkpt lat="43.64394" lon="3.8272">
        <ele>144.7</ele>
        <time>2017-09-19T10:18:34Z</time>
      </trkpt>
      <trkpt lat="43.64402" lon="3.82721">
        <ele>145.3</ele>
        <time>2017-09-19T10:18:37Z</time>
      </trkpt>
      <trkpt lat="43.6441" lon="3.82721">
        <ele>145.9</ele>
        <time>2017-09-19T10:18:40Z</time>
      </trkpt>
      <trkpt lat="43.64418" lon="3.8272">
        <ele>146.5</ele>
        <time>2017-09-19T10:18:43Z</time>
      </trkpt>
      <trkpt lat="43.64426" lon="3.82719">
        <ele>147.2</ele>
        <time>2017-09-19T10:18:47Z</time>
      </trkpt>
      <trkpt lat="43.64434" lon="3.82721">
        <ele>147.7</ele>
        <time>2017-09-19T10:18:50Z</time>
      </trkpt>
      <trkpt lat="43.64441" lon="3.82722">
        <ele>148.2</ele>
        <time>2017-09-19T10:18:53Z</time>
      </trkpt>
      <trkpt lat="43.64451" lon="3.82722">
        <ele>149</ele>
        <time>2017-09-19T10:18:57Z</time>
      </trkpt>
      <trkpt lat="43.64461" lon="3.82722">
        <ele>149.6</ele>
        <time>2017-09-19T10:19:00Z</time>
      </trkpt>
      <trkpt lat="43.64471" lon="3.82721">
        <ele>150.3</ele>
        <time>2017-09-19T10:19:03Z</time>
      </trkpt>
      <trkpt lat="43.64479" lon="3.82718">
        <ele>151</ele>
        <time>2017-09-19T10:19:06Z</time>
      </trkpt>
      <trkpt lat="43.64487" lon="3.82717">
        <ele>151.6</ele>
        <time>2017-09-19T10:19:09Z</time>
      </trkpt>
      <trkpt lat="43.64495" lon="3.82717">
        <ele>152.3</ele>
        <time>2017-09-19T10:19:12Z</time>
      </trkpt>
      <trkpt lat="43.64502" lon="3.82717">
        <ele>153</ele>
        <time>2017-09-19T10:19:15Z</time>
      </trkpt>
      <trkpt lat="43.64509" lon="3.82718">
        <ele>153.5</ele>
        <time>2017-09-19T10:19:18Z</time>
      </trkpt>
      <trkpt lat="43.64518" lon="3.82714">
        <ele>154</ele>
        <time>2017-09-19T10:19:21Z</time>
      </trkpt>
      <trkpt lat="43.64526" lon="3.82709">
        <ele>154.5</ele>
        <time>2017-09-19T10:19:24Z</time>
      </trkpt>
      <trkpt lat="43.64534" lon="3.82705">
        <ele>154.8</ele>
        <time>2017-09-19T10:19:27Z</time>
      </trkpt>
      <trkpt lat="43.64543" lon="3.82703">
        <ele>155.3</ele>
        <time>2017-09-19T10:19:30Z</time>
      </trkpt>
      <trkpt lat="43.64551" lon="3.82698">
        <ele>155.7</ele>
        <time>2017-09-19T10:19:33Z</time>
      </trkpt>
      <trkpt lat="43.64559" lon="3.82694">
        <ele>156.1</ele>
        <time>2017-09-19T10:19:36Z</time>
      </trkpt>
      <trkpt lat="43.64565" lon="3.8269">
        <ele>156.5</ele>
        <time>2017-09-19T10:19:39Z</time>
      </trkpt>
      <trkpt lat="43.64573" lon="3.82686">
        <ele>157</ele>
        <time>2017-09-19T10:19:42Z</time>
      </trkpt>
      <trkpt lat="43.64581" lon="3.8268">
        <ele>157.4</ele>
        <time>2017-09-19T10:19:45Z</time>
      </trkpt>
      <trkpt lat="43.64589" lon="3.82673">
        <ele>157.7</ele>
        <time>2017-09-19T10:19:48Z</time>
      </trkpt>
      <trkpt lat="43.64598" lon="3.82665">
        <ele>158.1</ele>
        <time>2017-09-19T10:19:51Z</time>
      </trkpt>
      <trkpt lat="43.64605" lon="3.82663">
        <ele>160.7</ele>
        <time>2017-09-19T10:19:53Z</time>
      </trkpt>
      <trkpt lat="43.64613" lon="3.82664">
        <ele>160.9</ele>
        <time>2017-09-19T10:19:55Z</time>
      </trkpt>
      <trkpt lat="43.64623" lon="3.82664">
        <ele>161.2</ele>
        <time>2017-09-19T10:19:58Z</time>
      </trkpt>
      <trkpt lat="43.64633" lon="3.82664">
        <ele>161.5</ele>
        <time>2017-09-19T10:20:01Z</time>
      </trkpt>
      <trkpt lat="43.64643" lon="3.82664">
        <ele>161.8</ele>
        <time>2017-09-19T10:20:04Z</time>
      </trkpt>
      <trkpt lat="43.64651" lon="3.82664">
        <ele>162</ele>
        <time>2017-09-19T10:20:07Z</time>
      </trkpt>
      <trkpt lat="43.64661" lon="3.82662">
        <ele>162.2</ele>
        <time>2017-09-19T10:20:10Z</time>
      </trkpt>
      <trkpt lat="43.64669" lon="3.82657">
        <ele>162.4</ele>
        <time>2017-09-19T10:20:13Z</time>
      </trkpt>
      <trkpt lat="43.64675" lon="3.82651">
        <ele>162.6</ele>
        <time>2017-09-19T10:20:16Z</time>
      </trkpt>
      <trkpt lat="43.64683" lon="3.82644">
        <ele>162.8</ele>
        <time>2017-09-19T10:20:19Z</time>
      </trkpt>
      <trkpt lat="43.64693" lon="3.82639">
        <ele>163</ele>
        <time>2017-09-19T10:20:22Z</time>
      </trkpt>
      <trkpt lat="43.647" lon="3.82637">
        <ele>163.1</ele>
        <time>2017-09-19T10:20:24Z</time>
      </trkpt>
      <trkpt lat="43.64707" lon="3.82635">
        <ele>163.9</ele>
        <time>2017-09-19T10:20:26Z</time>
      </trkpt>
      <trkpt lat="43.64715" lon="3.82632">
        <ele>164</ele>
        <time>2017-09-19T10:20:28Z</time>
      </trkpt>
      <trkpt lat="43.64724" lon="3.82629">
        <ele>164.1</ele>
        <time>2017-09-19T10:20:31Z</time>
      </trkpt>
      <trkpt lat="43.64732" lon="3.82626">
        <ele>164.9</ele>
        <time>2017-09-19T10:20:33Z</time>
      </trkpt>
      <trkpt lat="43.64739" lon="3.82623">
        <ele>165.6</ele>
        <time>2017-09-19T10:20:35Z</time>
      </trkpt>
      <trkpt lat="43.64747" lon="3.8262">
        <ele>166.4</ele>
        <time>2017-09-19T10:20:37Z</time>
      </trkpt>
      <trkpt lat="43.64754" lon="3.82618">
        <ele>166.6</ele>
        <time>2017-09-19T10:20:39Z</time>
      </trkpt>
      <trkpt lat="43.64762" lon="3.82617">
        <ele>166.5</ele>
        <time>2017-09-19T10:20:41Z</time>
      </trkpt>
      <trkpt lat="43.64769" lon="3.82614">
        <ele>166.6</ele>
        <time>2017-09-19T10:20:43Z</time>
      </trkpt>
      <trkpt lat="43.64777" lon="3.82612">
        <ele>166.6</ele>
        <time>2017-09-19T10:20:45Z</time>
      </trkpt>
      <trkpt lat="43.64785" lon="3.82609">
        <ele>166.6</ele>
        <time>2017-09-19T10:20:47Z</time>
      </trkpt>
      <trkpt lat="43.64795" lon="3.82603">
        <ele>166.3</ele>
        <time>2017-09-19T10:20:50Z</time>
      </trkpt>
      <trkpt lat="43.64802" lon="3.826">
        <ele>166</ele>
        <time>2017-09-19T10:20:52Z</time>
      </trkpt>
      <trkpt lat="43.6481" lon="3.82597">
        <ele>165.4</ele>
        <time>2017-09-19T10:20:54Z</time>
      </trkpt>
      <trkpt lat="43.64818" lon="3.82596">
        <ele>165.1</ele>
        <time>2017-09-19T10:20:56Z</time>
      </trkpt>
      <trkpt lat="43.64826" lon="3.82592">
        <ele>164.5</ele>
        <time>2017-09-19T10:20:58Z</time>
      </trkpt>
      <trkpt lat="43.64834" lon="3.82591">
        <ele>163.9</ele>
        <time>2017-09-19T10:21:00Z</time>
      </trkpt>
      <trkpt lat="43.64842" lon="3.82591">
        <ele>163.4</ele>
        <time>2017-09-19T10:21:02Z</time>
      </trkpt>
      <trkpt lat="43.64851" lon="3.82589">
        <ele>163</ele>
        <time>2017-09-19T10:21:04Z</time>
      </trkpt>
      <trkpt lat="43.64859" lon="3.82588">
        <ele>162.7</ele>
        <time>2017-09-19T10:21:06Z</time>
      </trkpt>
      <trkpt lat="43.64868" lon="3.8259">
        <ele>162.3</ele>
        <time>2017-09-19T10:21:08Z</time>
      </trkpt>
      <trkpt lat="43.64878" lon="3.82594">
        <ele>162.4</ele>
        <time>2017-09-19T10:21:10Z</time>
      </trkpt>
      <trkpt lat="43.64888" lon="3.82597">
        <ele>162</ele>
        <time>2017-09-19T10:21:12Z</time>
      </trkpt>
      <trkpt lat="43.64896" lon="3.82597">
        <ele>161.9</ele>
        <time>2017-09-19T10:21:14Z</time>
      </trkpt>
      <trkpt lat="43.64905" lon="3.82596">
        <ele>161.8</ele>
        <time>2017-09-19T10:21:16Z</time>
      </trkpt>
      <trkpt lat="43.64914" lon="3.82595">
        <ele>161.7</ele>
        <time>2017-09-19T10:21:18Z</time>
      </trkpt>
      <trkpt lat="43.64923" lon="3.82594">
        <ele>161.7</ele>
        <time>2017-09-19T10:21:20Z</time>
      </trkpt>
      <trkpt lat="43.64931" lon="3.82591">
        <ele>162</ele>
        <time>2017-09-19T10:21:22Z</time>
      </trkpt>
      <trkpt lat="43.64939" lon="3.8259">
        <ele>162.1</ele>
        <time>2017-09-19T10:21:24Z</time>
      </trkpt>
      <trkpt lat="43.64948" lon="3.82591">
        <ele>162.3</ele>
        <time>2017-09-19T10:21:27Z</time>
      </trkpt>
      <trkpt lat="43.64955" lon="3.8259">
        <ele>162.4</ele>
        <time>2017-09-19T10:21:29Z</time>
      </trkpt>
      <trkpt lat="43.64964" lon="3.8259">
        <ele>162.5</ele>
        <time>2017-09-19T10:21:32Z</time>
      </trkpt>
      <trkpt lat="43.64973" lon="3.8259">
        <ele>162.5</ele>
        <time>2017-09-19T10:21:35Z</time>
      </trkpt>
      <trkpt lat="43.64984" lon="3.82587">
        <ele>162.6</ele>
        <time>2017-09-19T10:21:38Z</time>
      </trkpt>
      <trkpt lat="43.64991" lon="3.82585">
        <ele>162.7</ele>
        <time>2017-09-19T10:21:40Z</time>
      </trkpt>
      <trkpt lat="43.65001" lon="3.82584">
        <ele>162.9</ele>
        <time>2017-09-19T10:21:43Z</time>
      </trkpt>
      <trkpt lat="43.65011" lon="3.82583">
        <ele>163.1</ele>
        <time>2017-09-19T10:21:46Z</time>
      </trkpt>
      <trkpt lat="43.6502" lon="3.82582">
        <ele>163.2</ele>
        <time>2017-09-19T10:21:49Z</time>
      </trkpt>
      <trkpt lat="43.65031" lon="3.82581">
        <ele>163.5</ele>
        <time>2017-09-19T10:21:52Z</time>
      </trkpt>
      <trkpt lat="43.65041" lon="3.82579">
        <ele>163.8</ele>
        <time>2017-09-19T10:21:55Z</time>
      </trkpt>
      <trkpt lat="43.65048" lon="3.82579">
        <ele>164</ele>
        <time>2017-09-19T10:21:57Z</time>
      </trkpt>
      <trkpt lat="43.65056" lon="3.82577">
        <ele>164.3</ele>
        <time>2017-09-19T10:21:59Z</time>
      </trkpt>
      <trkpt lat="43.65063" lon="3.82576">
        <ele>164.5</ele>
        <time>2017-09-19T10:22:01Z</time>
      </trkpt>
      <trkpt lat="43.6507" lon="3.82576">
        <ele>164.7</ele>
        <time>2017-09-19T10:22:03Z</time>
      </trkpt>
      <trkpt lat="43.65079" lon="3.82572">
        <ele>165.1</ele>
        <time>2017-09-19T10:22:06Z</time>
      </trkpt>
      <trkpt lat="43.65088" lon="3.8257">
        <ele>165.3</ele>
        <time>2017-09-19T10:22:09Z</time>
      </trkpt>
      <trkpt lat="43.65093" lon="3.82562">
        <ele>165.6</ele>
        <time>2017-09-19T10:22:12Z</time>
      </trkpt>
      <trkpt lat="43.65098" lon="3.82552">
        <ele>165.7</ele>
        <time>2017-09-19T10:22:15Z</time>
      </trkpt>
      <trkpt lat="43.65107" lon="3.82542">
        <ele>165.8</ele>
        <time>2017-09-19T10:22:18Z</time>
      </trkpt>
      <trkpt lat="43.65111" lon="3.82534">
        <ele>165.9</ele>
        <time>2017-09-19T10:22:20Z</time>
      </trkpt>
      <trkpt lat="43.65117" lon="3.82527">
        <ele>166</ele>
        <time>2017-09-19T10:22:22Z</time>
      </trkpt>
      <trkpt lat="43.65122" lon="3.82518">
        <ele>166.1</ele>
        <time>2017-09-19T10:22:24Z</time>
      </trkpt>
      <trkpt lat="43.65129" lon="3.82509">
        <ele>166.9</ele>
        <time>2017-09-19T10:22:27Z</time>
      </trkpt>
      <trkpt lat="43.65136" lon="3.82499">
        <ele>167</ele>
        <time>2017-09-19T10:22:30Z</time>
      </trkpt>
      <trkpt lat="43.65143" lon="3.82495">
        <ele>167.2</ele>
        <time>2017-09-19T10:22:32Z</time>
      </trkpt>
      <trkpt lat="43.65152" lon="3.82505">
        <ele>167.5</ele>
        <time>2017-09-19T10:22:35Z</time>
      </trkpt>
      <trkpt lat="43.65159" lon="3.82511">
        <ele>167.7</ele>
        <time>2017-09-19T10:22:37Z</time>
      </trkpt>
      <trkpt lat="43.65167" lon="3.82517">
        <ele>168.9</ele>
        <time>2017-09-19T10:22:39Z</time>
      </trkpt>
      <trkpt lat="43.65174" lon="3.82523">
        <ele>170.7</ele>
        <time>2017-09-19T10:22:41Z</time>
      </trkpt>
      <trkpt lat="43.65181" lon="3.82529">
        <ele>172.7</ele>
        <time>2017-09-19T10:22:43Z</time>
      </trkpt>
      <trkpt lat="43.65189" lon="3.82537">
        <ele>174.5</ele>
        <time>2017-09-19T10:22:45Z</time>
      </trkpt>
      <trkpt lat="43.65195" lon="3.82545">
        <ele>175.9</ele>
        <time>2017-09-19T10:22:47Z</time>
      </trkpt>
      <trkpt lat="43.65201" lon="3.82552">
        <ele>177.3</ele>
        <time>2017-09-19T10:22:49Z</time>
      </trkpt>
      <trkpt lat="43.65209" lon="3.82559">
        <ele>177.8</ele>
        <time>2017-09-19T10:22:52Z</time>
      </trkpt>
      <trkpt lat="43.65216" lon="3.82566">
        <ele>178.1</ele>
        <time>2017-09-19T10:22:54Z</time>
      </trkpt>
      <trkpt lat="43.65222" lon="3.82571">
        <ele>178.4</ele>
        <time>2017-09-19T10:22:56Z</time>
      </trkpt>
      <trkpt lat="43.6523" lon="3.82576">
        <ele>178.5</ele>
        <time>2017-09-19T10:22:57Z</time>
      </trkpt>
      <trkpt lat="43.65238" lon="3.82581">
        <ele>179</ele>
        <time>2017-09-19T10:23:00Z</time>
      </trkpt>
      <trkpt lat="43.65244" lon="3.82587">
        <ele>179.8</ele>
        <time>2017-09-19T10:23:03Z</time>
      </trkpt>
      <trkpt lat="43.65247" lon="3.82597">
        <ele>180.5</ele>
        <time>2017-09-19T10:23:06Z</time>
      </trkpt>
      <trkpt lat="43.65252" lon="3.82605">
        <ele>181.1</ele>
        <time>2017-09-19T10:23:08Z</time>
      </trkpt>
      <trkpt lat="43.65256" lon="3.82617">
        <ele>181.3</ele>
        <time>2017-09-19T10:23:09Z</time>
      </trkpt>
      <trkpt lat="43.65264" lon="3.82629">
        <ele>181.5</ele>
        <time>2017-09-19T10:23:11Z</time>
      </trkpt>
      <trkpt lat="43.65275" lon="3.82639">
        <ele>181.6</ele>
        <time>2017-09-19T10:23:14Z</time>
      </trkpt>
      <trkpt lat="43.65282" lon="3.82643">
        <ele>181.2</ele>
        <time>2017-09-19T10:23:18Z</time>
      </trkpt>
      <trkpt lat="43.6529" lon="3.82649">
        <ele>180.8</ele>
        <time>2017-09-19T10:23:23Z</time>
      </trkpt>
      <trkpt lat="43.65295" lon="3.82655">
        <ele>180.7</ele>
        <time>2017-09-19T10:23:25Z</time>
      </trkpt>
      <trkpt lat="43.65302" lon="3.82663">
        <ele>180.8</ele>
        <time>2017-09-19T10:23:28Z</time>
      </trkpt>
      <trkpt lat="43.65309" lon="3.82668">
        <ele>181</ele>
        <time>2017-09-19T10:23:31Z</time>
      </trkpt>
      <trkpt lat="43.65317" lon="3.82675">
        <ele>181.4</ele>
        <time>2017-09-19T10:23:35Z</time>
      </trkpt>
      <trkpt lat="43.65324" lon="3.8268">
        <ele>181.3</ele>
        <time>2017-09-19T10:23:37Z</time>
      </trkpt>
      <trkpt lat="43.65335" lon="3.82684">
        <ele>181.3</ele>
        <time>2017-09-19T10:23:39Z</time>
      </trkpt>
      <trkpt lat="43.65345" lon="3.82689">
        <ele>181.3</ele>
        <time>2017-09-19T10:23:42Z</time>
      </trkpt>
      <trkpt lat="43.65352" lon="3.82695">
        <ele>181.3</ele>
        <time>2017-09-19T10:23:44Z</time>
      </trkpt>
      <trkpt lat="43.6536" lon="3.82696">
        <ele>181.4</ele>
        <time>2017-09-19T10:23:47Z</time>
      </trkpt>
      <trkpt lat="43.65369" lon="3.827">
        <ele>181.5</ele>
        <time>2017-09-19T10:23:50Z</time>
      </trkpt>
      <trkpt lat="43.65377" lon="3.82704">
        <ele>181.9</ele>
        <time>2017-09-19T10:23:54Z</time>
      </trkpt>
      <trkpt lat="43.65384" lon="3.8271">
        <ele>182.1</ele>
        <time>2017-09-19T10:23:56Z</time>
      </trkpt>
      <trkpt lat="43.65391" lon="3.82718">
        <ele>182.3</ele>
        <time>2017-09-19T10:23:58Z</time>
      </trkpt>
      <trkpt lat="43.65399" lon="3.82725">
        <ele>183.3</ele>
        <time>2017-09-19T10:24:03Z</time>
      </trkpt>
      <trkpt lat="43.65402" lon="3.82734">
        <ele>183.4</ele>
        <time>2017-09-19T10:24:05Z</time>
      </trkpt>
      <trkpt lat="43.65402" lon="3.82745">
        <ele>183.2</ele>
        <time>2017-09-19T10:24:10Z</time>
      </trkpt>
      <trkpt lat="43.6541" lon="3.82742">
        <ele>182.4</ele>
        <time>2017-09-19T10:24:17Z</time>
      </trkpt>
      <trkpt lat="43.65418" lon="3.82741">
        <ele>182.1</ele>
        <time>2017-09-19T10:24:21Z</time>
      </trkpt>
      <trkpt lat="43.65428" lon="3.82748">
        <ele>182</ele>
        <time>2017-09-19T10:24:26Z</time>
      </trkpt>
      <trkpt lat="43.65437" lon="3.82747">
        <ele>181.9</ele>
        <time>2017-09-19T10:24:29Z</time>
      </trkpt>
      <trkpt lat="43.65448" lon="3.82747">
        <ele>181.9</ele>
        <time>2017-09-19T10:24:32Z</time>
      </trkpt>
      <trkpt lat="43.65455" lon="3.82749">
        <ele>182</ele>
        <time>2017-09-19T10:24:34Z</time>
      </trkpt>
      <trkpt lat="43.65463" lon="3.82754">
        <ele>182.7</ele>
        <time>2017-09-19T10:24:36Z</time>
      </trkpt>
      <trkpt lat="43.65468" lon="3.82763">
        <ele>182.9</ele>
        <time>2017-09-19T10:24:39Z</time>
      </trkpt>
      <trkpt lat="43.65472" lon="3.82776">
        <ele>183</ele>
        <time>2017-09-19T10:24:41Z</time>
      </trkpt>
      <trkpt lat="43.65476" lon="3.82785">
        <ele>183</ele>
        <time>2017-09-19T10:24:43Z</time>
      </trkpt>
      <trkpt lat="43.65485" lon="3.82789">
        <ele>183.3</ele>
        <time>2017-09-19T10:24:45Z</time>
      </trkpt>
      <trkpt lat="43.65489" lon="3.82799">
        <ele>183.3</ele>
        <time>2017-09-19T10:24:47Z</time>
      </trkpt>
      <trkpt lat="43.65491" lon="3.82812">
        <ele>183.4</ele>
        <time>2017-09-19T10:24:49Z</time>
      </trkpt>
      <trkpt lat="43.65495" lon="3.82821">
        <ele>183.2</ele>
        <time>2017-09-19T10:24:53Z</time>
      </trkpt>
      <trkpt lat="43.65503" lon="3.82823">
        <ele>182.7</ele>
        <time>2017-09-19T10:24:57Z</time>
      </trkpt>
      <trkpt lat="43.6551" lon="3.8282">
        <ele>182.3</ele>
        <time>2017-09-19T10:24:59Z</time>
      </trkpt>
      <trkpt lat="43.6552" lon="3.82813">
        <ele>181.7</ele>
        <time>2017-09-19T10:25:02Z</time>
      </trkpt>
      <trkpt lat="43.6553" lon="3.82812">
        <ele>181.2</ele>
        <time>2017-09-19T10:25:05Z</time>
      </trkpt>
      <trkpt lat="43.65542" lon="3.82817">
        <ele>181</ele>
        <time>2017-09-19T10:25:08Z</time>
      </trkpt>
      <trkpt lat="43.6555" lon="3.82825">
        <ele>180.8</ele>
        <time>2017-09-19T10:25:10Z</time>
      </trkpt>
      <trkpt lat="43.65561" lon="3.82834">
        <ele>181</ele>
        <time>2017-09-19T10:25:12Z</time>
      </trkpt>
      <trkpt lat="43.65571" lon="3.8284">
        <ele>180.6</ele>
        <time>2017-09-19T10:25:14Z</time>
      </trkpt>
      <trkpt lat="43.65581" lon="3.82841">
        <ele>180.1</ele>
        <time>2017-09-19T10:25:16Z</time>
      </trkpt>
      <trkpt lat="43.65588" lon="3.82842">
        <ele>180.3</ele>
        <time>2017-09-19T10:25:17Z</time>
      </trkpt>
      <trkpt lat="43.65612" lon="3.82853">
        <ele>180.9</ele>
        <time>2017-09-19T10:25:21Z</time>
      </trkpt>
      <trkpt lat="43.65619" lon="3.82858">
        <ele>180.7</ele>
        <time>2017-09-19T10:25:22Z</time>
      </trkpt>
      <trkpt lat="43.65628" lon="3.82861">
        <ele>180.4</ele>
        <time>2017-09-19T10:25:23Z</time>
      </trkpt>
      <trkpt lat="43.65636" lon="3.82865">
        <ele>180</ele>
        <time>2017-09-19T10:25:24Z</time>
      </trkpt>
      <trkpt lat="43.65647" lon="3.82868">
        <ele>179.7</ele>
        <time>2017-09-19T10:25:25Z</time>
      </trkpt>
      <trkpt lat="43.65656" lon="3.82872">
        <ele>179.6</ele>
        <time>2017-09-19T10:25:26Z</time>
      </trkpt>
      <trkpt lat="43.65663" lon="3.82878">
        <ele>179.5</ele>
        <time>2017-09-19T10:25:27Z</time>
      </trkpt>
      <trkpt lat="43.65676" lon="3.8288">
        <ele>179.6</ele>
        <time>2017-09-19T10:25:29Z</time>
      </trkpt>
      <trkpt lat="43.65688" lon="3.82884">
        <ele>180</ele>
        <time>2017-09-19T10:25:31Z</time>
      </trkpt>
      <trkpt lat="43.65702" lon="3.82889">
        <ele>179.2</ele>
        <time>2017-09-19T10:25:33Z</time>
      </trkpt>
      <trkpt lat="43.65713" lon="3.82899">
        <ele>178.6</ele>
        <time>2017-09-19T10:25:35Z</time>
      </trkpt>
      <trkpt lat="43.65722" lon="3.82902">
        <ele>177.7</ele>
        <time>2017-09-19T10:25:41Z</time>
      </trkpt>
      <trkpt lat="43.65728" lon="3.8291">
        <ele>173.7</ele>
        <time>2017-09-19T10:25:42Z</time>
      </trkpt>
      <trkpt lat="43.65733" lon="3.82919">
        <ele>171.4</ele>
        <time>2017-09-19T10:25:43Z</time>
      </trkpt>
      <trkpt lat="43.65737" lon="3.82929">
        <ele>169.4</ele>
        <time>2017-09-19T10:25:44Z</time>
      </trkpt>
      <trkpt lat="43.6574" lon="3.82939">
        <ele>167.2</ele>
        <time>2017-09-19T10:25:45Z</time>
      </trkpt>
      <trkpt lat="43.65744" lon="3.82949">
        <ele>165.1</ele>
        <time>2017-09-19T10:25:46Z</time>
      </trkpt>
      <trkpt lat="43.65751" lon="3.82963">
        <ele>161.9</ele>
        <time>2017-09-19T10:25:48Z</time>
      </trkpt>
      <trkpt lat="43.65755" lon="3.82973">
        <ele>159.7</ele>
        <time>2017-09-19T10:25:50Z</time>
      </trkpt>
      <trkpt lat="43.65759" lon="3.82988">
        <ele>157.4</ele>
        <time>2017-09-19T10:25:52Z</time>
      </trkpt>
      <trkpt lat="43.65764" lon="3.83004">
        <ele>155.1</ele>
        <time>2017-09-19T10:25:54Z</time>
      </trkpt>
      <trkpt lat="43.65769" lon="3.83013">
        <ele>153.9</ele>
        <time>2017-09-19T10:25:55Z</time>
      </trkpt>
      <trkpt lat="43.65776" lon="3.83027">
        <ele>152.6</ele>
        <time>2017-09-19T10:25:57Z</time>
      </trkpt>
      <trkpt lat="43.65784" lon="3.83029">
        <ele>152.3</ele>
        <time>2017-09-19T10:25:59Z</time>
      </trkpt>
      <trkpt lat="43.65791" lon="3.83018">
        <ele>151.7</ele>
        <time>2017-09-19T10:26:02Z</time>
      </trkpt>
      <trkpt lat="43.65797" lon="3.83014">
        <ele>151.3</ele>
        <time>2017-09-19T10:26:04Z</time>
      </trkpt>
      <trkpt lat="43.65806" lon="3.83008">
        <ele>150.7</ele>
        <time>2017-09-19T10:26:07Z</time>
      </trkpt>
      <trkpt lat="43.65813" lon="3.83">
        <ele>149.8</ele>
        <time>2017-09-19T10:26:11Z</time>
      </trkpt>
      <trkpt lat="43.65821" lon="3.82993">
        <ele>149.1</ele>
        <time>2017-09-19T10:26:14Z</time>
      </trkpt>
      <trkpt lat="43.65826" lon="3.82985">
        <ele>148.6</ele>
        <time>2017-09-19T10:26:16Z</time>
      </trkpt>
      <trkpt lat="43.65831" lon="3.82976">
        <ele>148.1</ele>
        <time>2017-09-19T10:26:18Z</time>
      </trkpt>
      <trkpt lat="43.6583" lon="3.82964">
        <ele>143.7</ele>
        <time>2017-09-19T10:26:20Z</time>
      </trkpt>
      <trkpt lat="43.6583" lon="3.82951">
        <ele>141</ele>
        <time>2017-09-19T10:26:22Z</time>
      </trkpt>
      <trkpt lat="43.65832" lon="3.82939">
        <ele>139.1</ele>
        <time>2017-09-19T10:26:24Z</time>
      </trkpt>
      <trkpt lat="43.65836" lon="3.82928">
        <ele>137.7</ele>
        <time>2017-09-19T10:26:26Z</time>
      </trkpt>
      <trkpt lat="43.65841" lon="3.82918">
        <ele>136.5</ele>
        <time>2017-09-19T10:26:28Z</time>
      </trkpt>
      <trkpt lat="43.65849" lon="3.8291">
        <ele>135.7</ele>
        <time>2017-09-19T10:26:30Z</time>
      </trkpt>
      <trkpt lat="43.65859" lon="3.82901">
        <ele>135.3</ele>
        <time>2017-09-19T10:26:32Z</time>
      </trkpt>
      <trkpt lat="43.65869" lon="3.82896">
        <ele>135.5</ele>
        <time>2017-09-19T10:26:34Z</time>
      </trkpt>
      <trkpt lat="43.65879" lon="3.82891">
        <ele>135.5</ele>
        <time>2017-09-19T10:26:36Z</time>
      </trkpt>
      <trkpt lat="43.65886" lon="3.82888">
        <ele>135.5</ele>
        <time>2017-09-19T10:26:38Z</time>
      </trkpt>
      <trkpt lat="43.65896" lon="3.82882">
        <ele>135.5</ele>
        <time>2017-09-19T10:26:41Z</time>
      </trkpt>
      <trkpt lat="43.65905" lon="3.82876">
        <ele>135.6</ele>
        <time>2017-09-19T10:26:44Z</time>
      </trkpt>
      <trkpt lat="43.65914" lon="3.82872">
        <ele>135.8</ele>
        <time>2017-09-19T10:26:47Z</time>
      </trkpt>
      <trkpt lat="43.65924" lon="3.82868">
        <ele>136</ele>
        <time>2017-09-19T10:26:50Z</time>
      </trkpt>
      <trkpt lat="43.65932" lon="3.82864">
        <ele>136.2</ele>
        <time>2017-09-19T10:26:53Z</time>
      </trkpt>
      <trkpt lat="43.65938" lon="3.82858">
        <ele>136.6</ele>
        <time>2017-09-19T10:26:56Z</time>
      </trkpt>
      <trkpt lat="43.65943" lon="3.82847">
        <ele>137.1</ele>
        <time>2017-09-19T10:27:00Z</time>
      </trkpt>
      <trkpt lat="43.65948" lon="3.82836">
        <ele>137.6</ele>
        <time>2017-09-19T10:27:03Z</time>
      </trkpt>
      <trkpt lat="43.65954" lon="3.82823">
        <ele>138</ele>
        <time>2017-09-19T10:27:06Z</time>
      </trkpt>
      <trkpt lat="43.65957" lon="3.82814">
        <ele>138.4</ele>
        <time>2017-09-19T10:27:08Z</time>
      </trkpt>
      <trkpt lat="43.65961" lon="3.82801">
        <ele>140.5</ele>
        <time>2017-09-19T10:27:11Z</time>
      </trkpt>
      <trkpt lat="43.65965" lon="3.82793">
        <ele>143.1</ele>
        <time>2017-09-19T10:27:13Z</time>
      </trkpt>
      <trkpt lat="43.6597" lon="3.82783">
        <ele>145.1</ele>
        <time>2017-09-19T10:27:15Z</time>
      </trkpt>
      <trkpt lat="43.65974" lon="3.82774">
        <ele>146.5</ele>
        <time>2017-09-19T10:27:17Z</time>
      </trkpt>
      <trkpt lat="43.65979" lon="3.82765">
        <ele>147.6</ele>
        <time>2017-09-19T10:27:19Z</time>
      </trkpt>
      <trkpt lat="43.65984" lon="3.82754">
        <ele>148.2</ele>
        <time>2017-09-19T10:27:21Z</time>
      </trkpt>
      <trkpt lat="43.6599" lon="3.82743">
        <ele>148.6</ele>
        <time>2017-09-19T10:27:23Z</time>
      </trkpt>
      <trkpt lat="43.65996" lon="3.82733">
        <ele>148.8</ele>
        <time>2017-09-19T10:27:25Z</time>
      </trkpt>
      <trkpt lat="43.66001" lon="3.82724">
        <ele>148.7</ele>
        <time>2017-09-19T10:27:27Z</time>
      </trkpt>
      <trkpt lat="43.66006" lon="3.82714">
        <ele>148.5</ele>
        <time>2017-09-19T10:27:29Z</time>
      </trkpt>
      <trkpt lat="43.66011" lon="3.82702">
        <ele>148.3</ele>
        <time>2017-09-19T10:27:31Z</time>
      </trkpt>
      <trkpt lat="43.66016" lon="3.82687">
        <ele>148</ele>
        <time>2017-09-19T10:27:33Z</time>
      </trkpt>
      <trkpt lat="43.66023" lon="3.82674">
        <ele>147.5</ele>
        <time>2017-09-19T10:27:35Z</time>
      </trkpt>
      <trkpt lat="43.66032" lon="3.82667">
        <ele>147.3</ele>
        <time>2017-09-19T10:27:37Z</time>
      </trkpt>
      <trkpt lat="43.66041" lon="3.8267">
        <ele>147.1</ele>
        <time>2017-09-19T10:27:39Z</time>
      </trkpt>
      <trkpt lat="43.66048" lon="3.82677">
        <ele>146.9</ele>
        <time>2017-09-19T10:27:41Z</time>
      </trkpt>
      <trkpt lat="43.66058" lon="3.8268">
        <ele>146.8</ele>
        <time>2017-09-19T10:27:43Z</time>
      </trkpt>
      <trkpt lat="43.66066" lon="3.82684">
        <ele>146.8</ele>
        <time>2017-09-19T10:27:45Z</time>
      </trkpt>
      <trkpt lat="43.66074" lon="3.82686">
        <ele>146.7</ele>
        <time>2017-09-19T10:27:47Z</time>
      </trkpt>
      <trkpt lat="43.66083" lon="3.82685">
        <ele>145.9</ele>
        <time>2017-09-19T10:27:49Z</time>
      </trkpt>
      <trkpt lat="43.66089" lon="3.82678">
        <ele>145.3</ele>
        <time>2017-09-19T10:27:51Z</time>
      </trkpt>
      <trkpt lat="43.66095" lon="3.82673">
        <ele>145.3</ele>
        <time>2017-09-19T10:27:53Z</time>
      </trkpt>
      <trkpt lat="43.66106" lon="3.82677">
        <ele>145.2</ele>
        <time>2017-09-19T10:27:56Z</time>
      </trkpt>
      <trkpt lat="43.66114" lon="3.8268">
        <ele>145.2</ele>
        <time>2017-09-19T10:28:00Z</time>
      </trkpt>
      <trkpt lat="43.66122" lon="3.82682">
        <ele>145.3</ele>
        <time>2017-09-19T10:28:03Z</time>
      </trkpt>
      <trkpt lat="43.66131" lon="3.82683">
        <ele>145.4</ele>
        <time>2017-09-19T10:28:06Z</time>
      </trkpt>
      <trkpt lat="43.66139" lon="3.82683">
        <ele>145.5</ele>
        <time>2017-09-19T10:28:09Z</time>
      </trkpt>
      <trkpt lat="43.66148" lon="3.82683">
        <ele>145.9</ele>
        <time>2017-09-19T10:28:13Z</time>
      </trkpt>
      <trkpt lat="43.66156" lon="3.82689">
        <ele>146.3</ele>
        <time>2017-09-19T10:28:17Z</time>
      </trkpt>
      <trkpt lat="43.66164" lon="3.82694">
        <ele>146.8</ele>
        <time>2017-09-19T10:28:20Z</time>
      </trkpt>
      <trkpt lat="43.66171" lon="3.82701">
        <ele>147.2</ele>
        <time>2017-09-19T10:28:23Z</time>
      </trkpt>
      <trkpt lat="43.66179" lon="3.82701">
        <ele>147.9</ele>
        <time>2017-09-19T10:28:28Z</time>
      </trkpt>
      <trkpt lat="43.66184" lon="3.82689">
        <ele>149</ele>
        <time>2017-09-19T10:28:31Z</time>
      </trkpt>
      <trkpt lat="43.66188" lon="3.82677">
        <ele>150.2</ele>
        <time>2017-09-19T10:28:33Z</time>
      </trkpt>
      <trkpt lat="43.66193" lon="3.82664">
        <ele>150.7</ele>
        <time>2017-09-19T10:28:35Z</time>
      </trkpt>
      <trkpt lat="43.66198" lon="3.82652">
        <ele>151.2</ele>
        <time>2017-09-19T10:28:37Z</time>
      </trkpt>
      <trkpt lat="43.66203" lon="3.82639">
        <ele>151.3</ele>
        <time>2017-09-19T10:28:39Z</time>
      </trkpt>
      <trkpt lat="43.66208" lon="3.82623">
        <ele>151.1</ele>
        <time>2017-09-19T10:28:41Z</time>
      </trkpt>
      <trkpt lat="43.66216" lon="3.82613">
        <ele>150.7</ele>
        <time>2017-09-19T10:28:43Z</time>
      </trkpt>
      <trkpt lat="43.66222" lon="3.82606">
        <ele>150.6</ele>
        <time>2017-09-19T10:28:45Z</time>
      </trkpt>
      <trkpt lat="43.66229" lon="3.82598">
        <ele>150.2</ele>
        <time>2017-09-19T10:28:47Z</time>
      </trkpt>
      <trkpt lat="43.66236" lon="3.82593">
        <ele>150</ele>
        <time>2017-09-19T10:28:49Z</time>
      </trkpt>
      <trkpt lat="43.66244" lon="3.82587">
        <ele>150</ele>
        <time>2017-09-19T10:28:52Z</time>
      </trkpt>
      <trkpt lat="43.66254" lon="3.82583">
        <ele>150</ele>
        <time>2017-09-19T10:28:55Z</time>
      </trkpt>
      <trkpt lat="43.66262" lon="3.82579">
        <ele>150</ele>
        <time>2017-09-19T10:28:58Z</time>
      </trkpt>
      <trkpt lat="43.66271" lon="3.82575">
        <ele>150.1</ele>
        <time>2017-09-19T10:29:01Z</time>
      </trkpt>
      <trkpt lat="43.6628" lon="3.8257">
        <ele>150.2</ele>
        <time>2017-09-19T10:29:05Z</time>
      </trkpt>
      <trkpt lat="43.66288" lon="3.82567">
        <ele>150.4</ele>
        <time>2017-09-19T10:29:08Z</time>
      </trkpt>
      <trkpt lat="43.66295" lon="3.82563">
        <ele>150.7</ele>
        <time>2017-09-19T10:29:11Z</time>
      </trkpt>
      <trkpt lat="43.66298" lon="3.82552">
        <ele>151.5</ele>
        <time>2017-09-19T10:29:17Z</time>
      </trkpt>
      <trkpt lat="43.66296" lon="3.82541">
        <ele>154.1</ele>
        <time>2017-09-19T10:29:20Z</time>
      </trkpt>
      <trkpt lat="43.66296" lon="3.82531">
        <ele>156</ele>
        <time>2017-09-19T10:29:22Z</time>
      </trkpt>
      <trkpt lat="43.66297" lon="3.82518">
        <ele>156.2</ele>
        <time>2017-09-19T10:29:25Z</time>
      </trkpt>
      <trkpt lat="43.66298" lon="3.82503">
        <ele>156.5</ele>
        <time>2017-09-19T10:29:28Z</time>
      </trkpt>
      <trkpt lat="43.66299" lon="3.82491">
        <ele>156.7</ele>
        <time>2017-09-19T10:29:31Z</time>
      </trkpt>
      <trkpt lat="43.663" lon="3.82478">
        <ele>156.9</ele>
        <time>2017-09-19T10:29:34Z</time>
      </trkpt>
      <trkpt lat="43.66301" lon="3.82467">
        <ele>157.3</ele>
        <time>2017-09-19T10:29:36Z</time>
      </trkpt>
      <trkpt lat="43.66305" lon="3.82457">
        <ele>157.4</ele>
        <time>2017-09-19T10:29:38Z</time>
      </trkpt>
      <trkpt lat="43.6631" lon="3.82448">
        <ele>157.6</ele>
        <time>2017-09-19T10:29:41Z</time>
      </trkpt>
      <trkpt lat="43.66317" lon="3.8244">
        <ele>157.7</ele>
        <time>2017-09-19T10:29:44Z</time>
      </trkpt>
      <trkpt lat="43.66323" lon="3.82432">
        <ele>157.9</ele>
        <time>2017-09-19T10:29:47Z</time>
      </trkpt>
      <trkpt lat="43.6633" lon="3.82425">
        <ele>158.1</ele>
        <time>2017-09-19T10:29:50Z</time>
      </trkpt>
      <trkpt lat="43.66336" lon="3.82416">
        <ele>158.5</ele>
        <time>2017-09-19T10:29:54Z</time>
      </trkpt>
      <trkpt lat="43.66343" lon="3.82409">
        <ele>158.9</ele>
        <time>2017-09-19T10:29:58Z</time>
      </trkpt>
      <trkpt lat="43.66349" lon="3.82401">
        <ele>159.5</ele>
        <time>2017-09-19T10:30:02Z</time>
      </trkpt>
      <trkpt lat="43.66354" lon="3.82392">
        <ele>160.5</ele>
        <time>2017-09-19T10:30:09Z</time>
      </trkpt>
      <trkpt lat="43.66349" lon="3.82381">
        <ele>163.8</ele>
        <time>2017-09-19T10:30:12Z</time>
      </trkpt>
      <trkpt lat="43.66345" lon="3.82369">
        <ele>164.4</ele>
        <time>2017-09-19T10:30:15Z</time>
      </trkpt>
      <trkpt lat="43.66338" lon="3.82359">
        <ele>164.6</ele>
        <time>2017-09-19T10:30:18Z</time>
      </trkpt>
      <trkpt lat="43.6633" lon="3.82351">
        <ele>164.4</ele>
        <time>2017-09-19T10:30:21Z</time>
      </trkpt>
      <trkpt lat="43.66325" lon="3.82341">
        <ele>163.9</ele>
        <time>2017-09-19T10:30:23Z</time>
      </trkpt>
      <trkpt lat="43.66321" lon="3.82327">
        <ele>163.9</ele>
        <time>2017-09-19T10:30:25Z</time>
      </trkpt>
      <trkpt lat="43.66316" lon="3.82315">
        <ele>164</ele>
        <time>2017-09-19T10:30:27Z</time>
      </trkpt>
      <trkpt lat="43.66312" lon="3.82306">
        <ele>164.1</ele>
        <time>2017-09-19T10:30:29Z</time>
      </trkpt>
      <trkpt lat="43.6631" lon="3.82296">
        <ele>164.1</ele>
        <time>2017-09-19T10:30:31Z</time>
      </trkpt>
      <trkpt lat="43.66309" lon="3.82283">
        <ele>164</ele>
        <time>2017-09-19T10:30:34Z</time>
      </trkpt>
      <trkpt lat="43.66309" lon="3.82269">
        <ele>164</ele>
        <time>2017-09-19T10:30:37Z</time>
      </trkpt>
      <trkpt lat="43.66308" lon="3.82259">
        <ele>164</ele>
        <time>2017-09-19T10:30:40Z</time>
      </trkpt>
      <trkpt lat="43.66308" lon="3.82246">
        <ele>163.9</ele>
        <time>2017-09-19T10:30:43Z</time>
      </trkpt>
      <trkpt lat="43.66309" lon="3.82234">
        <ele>163.9</ele>
        <time>2017-09-19T10:30:46Z</time>
      </trkpt>
      <trkpt lat="43.66309" lon="3.82223">
        <ele>163.8</ele>
        <time>2017-09-19T10:30:49Z</time>
      </trkpt>
      <trkpt lat="43.66307" lon="3.82211">
        <ele>163.7</ele>
        <time>2017-09-19T10:30:52Z</time>
      </trkpt>
      <trkpt lat="43.66305" lon="3.82197">
        <ele>163.6</ele>
        <time>2017-09-19T10:30:55Z</time>
      </trkpt>
      <trkpt lat="43.66302" lon="3.82183">
        <ele>163.4</ele>
        <time>2017-09-19T10:30:58Z</time>
      </trkpt>
      <trkpt lat="43.66297" lon="3.82172">
        <ele>163.4</ele>
        <time>2017-09-19T10:31:01Z</time>
      </trkpt>
      <trkpt lat="43.66292" lon="3.82164">
        <ele>162.9</ele>
        <time>2017-09-19T10:31:03Z</time>
      </trkpt>
      <trkpt lat="43.66285" lon="3.82154">
        <ele>162.4</ele>
        <time>2017-09-19T10:31:05Z</time>
      </trkpt>
      <trkpt lat="43.66278" lon="3.82139">
        <ele>161.8</ele>
        <time>2017-09-19T10:31:07Z</time>
      </trkpt>
      <trkpt lat="43.66272" lon="3.82122">
        <ele>161.6</ele>
        <time>2017-09-19T10:31:09Z</time>
      </trkpt>
      <trkpt lat="43.6627" lon="3.82106">
        <ele>161.7</ele>
        <time>2017-09-19T10:31:11Z</time>
      </trkpt>
      <trkpt lat="43.66265" lon="3.82093">
        <ele>161.8</ele>
        <time>2017-09-19T10:31:13Z</time>
      </trkpt>
      <trkpt lat="43.66258" lon="3.82076">
        <ele>161.7</ele>
        <time>2017-09-19T10:31:15Z</time>
      </trkpt>
      <trkpt lat="43.66253" lon="3.82068">
        <ele>161.8</ele>
        <time>2017-09-19T10:31:16Z</time>
      </trkpt>
      <trkpt lat="43.66249" lon="3.8206">
        <ele>161.9</ele>
        <time>2017-09-19T10:31:17Z</time>
      </trkpt>
      <trkpt lat="43.66246" lon="3.82044">
        <ele>162</ele>
        <time>2017-09-19T10:31:19Z</time>
      </trkpt>
      <trkpt lat="43.66244" lon="3.82032">
        <ele>161.9</ele>
        <time>2017-09-19T10:31:21Z</time>
      </trkpt>
      <trkpt lat="43.6624" lon="3.82023">
        <ele>161.5</ele>
        <time>2017-09-19T10:31:23Z</time>
      </trkpt>
      <trkpt lat="43.66232" lon="3.82018">
        <ele>160.2</ele>
        <time>2017-09-19T10:31:25Z</time>
      </trkpt>
      <trkpt lat="43.66223" lon="3.8201">
        <ele>159.2</ele>
        <time>2017-09-19T10:31:27Z</time>
      </trkpt>
      <trkpt lat="43.66216" lon="3.82007">
        <ele>158.6</ele>
        <time>2017-09-19T10:31:28Z</time>
      </trkpt>
      <trkpt lat="43.66209" lon="3.82003">
        <ele>158</ele>
        <time>2017-09-19T10:31:29Z</time>
      </trkpt>
      <trkpt lat="43.66201" lon="3.81993">
        <ele>157.1</ele>
        <time>2017-09-19T10:31:31Z</time>
      </trkpt>
      <trkpt lat="43.66206" lon="3.81981">
        <ele>156.9</ele>
        <time>2017-09-19T10:31:34Z</time>
      </trkpt>
      <trkpt lat="43.66208" lon="3.81971">
        <ele>156.8</ele>
        <time>2017-09-19T10:31:37Z</time>
      </trkpt>
      <trkpt lat="43.6621" lon="3.81959">
        <ele>156.4</ele>
        <time>2017-09-19T10:31:41Z</time>
      </trkpt>
      <trkpt lat="43.66211" lon="3.81942">
        <ele>156.1</ele>
        <time>2017-09-19T10:31:44Z</time>
      </trkpt>
      <trkpt lat="43.66214" lon="3.81931">
        <ele>155.9</ele>
        <time>2017-09-19T10:31:46Z</time>
      </trkpt>
      <trkpt lat="43.66216" lon="3.81918">
        <ele>155.6</ele>
        <time>2017-09-19T10:31:49Z</time>
      </trkpt>
      <trkpt lat="43.66217" lon="3.81905">
        <ele>155.4</ele>
        <time>2017-09-19T10:31:52Z</time>
      </trkpt>
      <trkpt lat="43.66217" lon="3.81892">
        <ele>155.1</ele>
        <time>2017-09-19T10:31:55Z</time>
      </trkpt>
      <trkpt lat="43.66216" lon="3.81879">
        <ele>155</ele>
        <time>2017-09-19T10:31:58Z</time>
      </trkpt>
      <trkpt lat="43.66219" lon="3.81864">
        <ele>154.8</ele>
        <time>2017-09-19T10:32:01Z</time>
      </trkpt>
      <trkpt lat="43.66221" lon="3.81854">
        <ele>154.7</ele>
        <time>2017-09-19T10:32:04Z</time>
      </trkpt>
      <trkpt lat="43.66224" lon="3.81843">
        <ele>154.8</ele>
        <time>2017-09-19T10:32:07Z</time>
      </trkpt>
      <trkpt lat="43.6622" lon="3.81831">
        <ele>155.1</ele>
        <time>2017-09-19T10:32:11Z</time>
      </trkpt>
      <trkpt lat="43.6622" lon="3.81818">
        <ele>155.4</ele>
        <time>2017-09-19T10:32:14Z</time>
      </trkpt>
      <trkpt lat="43.66222" lon="3.81807">
        <ele>155.7</ele>
        <time>2017-09-19T10:32:17Z</time>
      </trkpt>
      <trkpt lat="43.66223" lon="3.81792">
        <ele>155.9</ele>
        <time>2017-09-19T10:32:20Z</time>
      </trkpt>
      <trkpt lat="43.66226" lon="3.8178">
        <ele>156.2</ele>
        <time>2017-09-19T10:32:23Z</time>
      </trkpt>
      <trkpt lat="43.66227" lon="3.81768">
        <ele>156.5</ele>
        <time>2017-09-19T10:32:26Z</time>
      </trkpt>
      <trkpt lat="43.66225" lon="3.81756">
        <ele>156.8</ele>
        <time>2017-09-19T10:32:29Z</time>
      </trkpt>
      <trkpt lat="43.66223" lon="3.81743">
        <ele>157.1</ele>
        <time>2017-09-19T10:32:32Z</time>
      </trkpt>
      <trkpt lat="43.66223" lon="3.81733">
        <ele>157.5</ele>
        <time>2017-09-19T10:32:35Z</time>
      </trkpt>
      <trkpt lat="43.66217" lon="3.81723">
        <ele>157.9</ele>
        <time>2017-09-19T10:32:38Z</time>
      </trkpt>
      <trkpt lat="43.66217" lon="3.81709">
        <ele>158.2</ele>
        <time>2017-09-19T10:32:41Z</time>
      </trkpt>
      <trkpt lat="43.66216" lon="3.81694">
        <ele>158.5</ele>
        <time>2017-09-19T10:32:44Z</time>
      </trkpt>
      <trkpt lat="43.66217" lon="3.81683">
        <ele>158.8</ele>
        <time>2017-09-19T10:32:47Z</time>
      </trkpt>
      <trkpt lat="43.66215" lon="3.81672">
        <ele>159</ele>
        <time>2017-09-19T10:32:50Z</time>
      </trkpt>
      <trkpt lat="43.66213" lon="3.81659">
        <ele>159.8</ele>
        <time>2017-09-19T10:32:52Z</time>
      </trkpt>
      <trkpt lat="43.66213" lon="3.81642">
        <ele>160.9</ele>
        <time>2017-09-19T10:32:54Z</time>
      </trkpt>
      <trkpt lat="43.66215" lon="3.8163">
        <ele>161.6</ele>
        <time>2017-09-19T10:32:56Z</time>
      </trkpt>
      <trkpt lat="43.66209" lon="3.81621">
        <ele>162.2</ele>
        <time>2017-09-19T10:32:58Z</time>
      </trkpt>
      <trkpt lat="43.6621" lon="3.81608">
        <ele>162.3</ele>
        <time>2017-09-19T10:33:01Z</time>
      </trkpt>
      <trkpt lat="43.66209" lon="3.81593">
        <ele>162.3</ele>
        <time>2017-09-19T10:33:03Z</time>
      </trkpt>
      <trkpt lat="43.66203" lon="3.81584">
        <ele>161.2</ele>
        <time>2017-09-19T10:33:05Z</time>
      </trkpt>
      <trkpt lat="43.662" lon="3.81574">
        <ele>161.2</ele>
        <time>2017-09-19T10:33:07Z</time>
      </trkpt>
      <trkpt lat="43.66205" lon="3.81564">
        <ele>160.7</ele>
        <time>2017-09-19T10:33:09Z</time>
      </trkpt>
      <trkpt lat="43.66205" lon="3.81552">
        <ele>160.6</ele>
        <time>2017-09-19T10:33:11Z</time>
      </trkpt>
      <trkpt lat="43.662" lon="3.81542">
        <ele>160.5</ele>
        <time>2017-09-19T10:33:14Z</time>
      </trkpt>
      <trkpt lat="43.66194" lon="3.81532">
        <ele>160.2</ele>
        <time>2017-09-19T10:33:16Z</time>
      </trkpt>
      <trkpt lat="43.66191" lon="3.81524">
        <ele>160.2</ele>
        <time>2017-09-19T10:33:18Z</time>
      </trkpt>
      <trkpt lat="43.66186" lon="3.81515">
        <ele>160.2</ele>
        <time>2017-09-19T10:33:20Z</time>
      </trkpt>
      <trkpt lat="43.66185" lon="3.81502">
        <ele>160.1</ele>
        <time>2017-09-19T10:33:22Z</time>
      </trkpt>
      <trkpt lat="43.66179" lon="3.81493">
        <ele>159.2</ele>
        <time>2017-09-19T10:33:24Z</time>
      </trkpt>
      <trkpt lat="43.6617" lon="3.81485">
        <ele>158.2</ele>
        <time>2017-09-19T10:33:26Z</time>
      </trkpt>
      <trkpt lat="43.66161" lon="3.81473">
        <ele>157.2</ele>
        <time>2017-09-19T10:33:28Z</time>
      </trkpt>
      <trkpt lat="43.66157" lon="3.81463">
        <ele>157.1</ele>
        <time>2017-09-19T10:33:30Z</time>
      </trkpt>
      <trkpt lat="43.6616" lon="3.81451">
        <ele>156.3</ele>
        <time>2017-09-19T10:33:32Z</time>
      </trkpt>
      <trkpt lat="43.66164" lon="3.81441">
        <ele>156.1</ele>
        <time>2017-09-19T10:33:34Z</time>
      </trkpt>
      <trkpt lat="43.66162" lon="3.81429">
        <ele>153.6</ele>
        <time>2017-09-19T10:33:36Z</time>
      </trkpt>
      <trkpt lat="43.66155" lon="3.81417">
        <ele>151.8</ele>
        <time>2017-09-19T10:33:38Z</time>
      </trkpt>
      <trkpt lat="43.66149" lon="3.81403">
        <ele>150.4</ele>
        <time>2017-09-19T10:33:40Z</time>
      </trkpt>
      <trkpt lat="43.66145" lon="3.81385">
        <ele>149</ele>
        <time>2017-09-19T10:33:42Z</time>
      </trkpt>
      <trkpt lat="43.66143" lon="3.81375">
        <ele>148.5</ele>
        <time>2017-09-19T10:33:43Z</time>
      </trkpt>
      <trkpt lat="43.66141" lon="3.81356">
        <ele>147.2</ele>
        <time>2017-09-19T10:33:45Z</time>
      </trkpt>
      <trkpt lat="43.66139" lon="3.8134">
        <ele>146.3</ele>
        <time>2017-09-19T10:33:47Z</time>
      </trkpt>
      <trkpt lat="43.66142" lon="3.81327">
        <ele>145.9</ele>
        <time>2017-09-19T10:33:50Z</time>
      </trkpt>
      <trkpt lat="43.66149" lon="3.81321">
        <ele>145.5</ele>
        <time>2017-09-19T10:33:53Z</time>
      </trkpt>
      <trkpt lat="43.66156" lon="3.81316">
        <ele>145</ele>
        <time>2017-09-19T10:33:57Z</time>
      </trkpt>
      <trkpt lat="43.66163" lon="3.8131">
        <ele>144.5</ele>
        <time>2017-09-19T10:34:01Z</time>
      </trkpt>
      <trkpt lat="43.6617" lon="3.81303">
        <ele>144</ele>
        <time>2017-09-19T10:34:05Z</time>
      </trkpt>
      <trkpt lat="43.66178" lon="3.81296">
        <ele>143.6</ele>
        <time>2017-09-19T10:34:09Z</time>
      </trkpt>
      <trkpt lat="43.66185" lon="3.81291">
        <ele>143.3</ele>
        <time>2017-09-19T10:34:13Z</time>
      </trkpt>
      <trkpt lat="43.66193" lon="3.81287">
        <ele>143</ele>
        <time>2017-09-19T10:34:17Z</time>
      </trkpt>
      <trkpt lat="43.66201" lon="3.81282">
        <ele>142.7</ele>
        <time>2017-09-19T10:34:21Z</time>
      </trkpt>
      <trkpt lat="43.66208" lon="3.81278">
        <ele>142.4</ele>
        <time>2017-09-19T10:34:24Z</time>
      </trkpt>
      <trkpt lat="43.66217" lon="3.81274">
        <ele>142.2</ele>
        <time>2017-09-19T10:34:28Z</time>
      </trkpt>
      <trkpt lat="43.66224" lon="3.81271">
        <ele>142.1</ele>
        <time>2017-09-19T10:34:31Z</time>
      </trkpt>
      <trkpt lat="43.66231" lon="3.81269">
        <ele>142.1</ele>
        <time>2017-09-19T10:34:34Z</time>
      </trkpt>
      <trkpt lat="43.66239" lon="3.81267">
        <ele>142.1</ele>
        <time>2017-09-19T10:34:37Z</time>
      </trkpt>
      <trkpt lat="43.66247" lon="3.81265">
        <ele>142.2</ele>
        <time>2017-09-19T10:34:40Z</time>
      </trkpt>
      <trkpt lat="43.66254" lon="3.81262">
        <ele>142.3</ele>
        <time>2017-09-19T10:34:43Z</time>
      </trkpt>
      <trkpt lat="43.66262" lon="3.81259">
        <ele>142.4</ele>
        <time>2017-09-19T10:34:47Z</time>
      </trkpt>
      <trkpt lat="43.66269" lon="3.81253">
        <ele>142.5</ele>
        <time>2017-09-19T10:34:51Z</time>
      </trkpt>
      <trkpt lat="43.66276" lon="3.81244">
        <ele>142.8</ele>
        <time>2017-09-19T10:34:55Z</time>
      </trkpt>
      <trkpt lat="43.66284" lon="3.81238">
        <ele>143.1</ele>
        <time>2017-09-19T10:34:59Z</time>
      </trkpt>
      <trkpt lat="43.66292" lon="3.81233">
        <ele>143.6</ele>
        <time>2017-09-19T10:35:03Z</time>
      </trkpt>
      <trkpt lat="43.66299" lon="3.81231">
        <ele>143.9</ele>
        <time>2017-09-19T10:35:06Z</time>
      </trkpt>
      <trkpt lat="43.66307" lon="3.81227">
        <ele>144.4</ele>
        <time>2017-09-19T10:35:10Z</time>
      </trkpt>
      <trkpt lat="43.66315" lon="3.81227">
        <ele>145</ele>
        <time>2017-09-19T10:35:14Z</time>
      </trkpt>
      <trkpt lat="43.66324" lon="3.81227">
        <ele>145.8</ele>
        <time>2017-09-19T10:35:18Z</time>
      </trkpt>
      <trkpt lat="43.66331" lon="3.81224">
        <ele>146.5</ele>
        <time>2017-09-19T10:35:22Z</time>
      </trkpt>
      <trkpt lat="43.66338" lon="3.81223">
        <ele>147.2</ele>
        <time>2017-09-19T10:35:26Z</time>
      </trkpt>
      <trkpt lat="43.66346" lon="3.81222">
        <ele>148.2</ele>
        <time>2017-09-19T10:35:31Z</time>
      </trkpt>
      <trkpt lat="43.66354" lon="3.81223">
        <ele>149.1</ele>
        <time>2017-09-19T10:35:35Z</time>
      </trkpt>
      <trkpt lat="43.66362" lon="3.81224">
        <ele>150.3</ele>
        <time>2017-09-19T10:35:39Z</time>
      </trkpt>
      <trkpt lat="43.6637" lon="3.81222">
        <ele>151.9</ele>
        <time>2017-09-19T10:35:44Z</time>
      </trkpt>
      <trkpt lat="43.66378" lon="3.8122">
        <ele>153.3</ele>
        <time>2017-09-19T10:35:48Z</time>
      </trkpt>
      <trkpt lat="43.66386" lon="3.81218">
        <ele>155.2</ele>
        <time>2017-09-19T10:35:53Z</time>
      </trkpt>
      <trkpt lat="43.66393" lon="3.81217">
        <ele>156.7</ele>
        <time>2017-09-19T10:35:57Z</time>
      </trkpt>
      <trkpt lat="43.66401" lon="3.81216">
        <ele>158.2</ele>
        <time>2017-09-19T10:36:01Z</time>
      </trkpt>
      <trkpt lat="43.66409" lon="3.81214">
        <ele>159.8</ele>
        <time>2017-09-19T10:36:05Z</time>
      </trkpt>
      <trkpt lat="43.66418" lon="3.81214">
        <ele>161.3</ele>
        <time>2017-09-19T10:36:09Z</time>
      </trkpt>
      <trkpt lat="43.66427" lon="3.81215">
        <ele>162.8</ele>
        <time>2017-09-19T10:36:13Z</time>
      </trkpt>
      <trkpt lat="43.66435" lon="3.81214">
        <ele>164.3</ele>
        <time>2017-09-19T10:36:17Z</time>
      </trkpt>
      <trkpt lat="43.66442" lon="3.81214">
        <ele>165.7</ele>
        <time>2017-09-19T10:36:21Z</time>
      </trkpt>
      <trkpt lat="43.6645" lon="3.81214">
        <ele>167.2</ele>
        <time>2017-09-19T10:36:25Z</time>
      </trkpt>
      <trkpt lat="43.66459" lon="3.81214">
        <ele>168.7</ele>
        <time>2017-09-19T10:36:29Z</time>
      </trkpt>
      <trkpt lat="43.66468" lon="3.81214">
        <ele>170.2</ele>
        <time>2017-09-19T10:36:33Z</time>
      </trkpt>
      <trkpt lat="43.66477" lon="3.81215">
        <ele>171.7</ele>
        <time>2017-09-19T10:36:37Z</time>
      </trkpt>
      <trkpt lat="43.66484" lon="3.81218">
        <ele>172.7</ele>
        <time>2017-09-19T10:36:40Z</time>
      </trkpt>
      <trkpt lat="43.66491" lon="3.8122">
        <ele>173.7</ele>
        <time>2017-09-19T10:36:43Z</time>
      </trkpt>
      <trkpt lat="43.66499" lon="3.81221">
        <ele>174.8</ele>
        <time>2017-09-19T10:36:47Z</time>
      </trkpt>
      <trkpt lat="43.66508" lon="3.81221">
        <ele>175.7</ele>
        <time>2017-09-19T10:36:51Z</time>
      </trkpt>
      <trkpt lat="43.66517" lon="3.81222">
        <ele>176.5</ele>
        <time>2017-09-19T10:36:55Z</time>
      </trkpt>
      <trkpt lat="43.66525" lon="3.81222">
        <ele>177.2</ele>
        <time>2017-09-19T10:36:59Z</time>
      </trkpt>
      <trkpt lat="43.66533" lon="3.81221">
        <ele>178</ele>
        <time>2017-09-19T10:37:03Z</time>
      </trkpt>
      <trkpt lat="43.66542" lon="3.8122">
        <ele>178.6</ele>
        <time>2017-09-19T10:37:07Z</time>
      </trkpt>
      <trkpt lat="43.66549" lon="3.81219">
        <ele>179.2</ele>
        <time>2017-09-19T10:37:11Z</time>
      </trkpt>
      <trkpt lat="43.66558" lon="3.81217">
        <ele>180</ele>
        <time>2017-09-19T10:37:16Z</time>
      </trkpt>
      <trkpt lat="43.66566" lon="3.81218">
        <ele>180.8</ele>
        <time>2017-09-19T10:37:20Z</time>
      </trkpt>
      <trkpt lat="43.66573" lon="3.81221">
        <ele>181.4</ele>
        <time>2017-09-19T10:37:23Z</time>
      </trkpt>
      <trkpt lat="43.66581" lon="3.81226">
        <ele>181.9</ele>
        <time>2017-09-19T10:37:26Z</time>
      </trkpt>
      <trkpt lat="43.6659" lon="3.81228">
        <ele>182.5</ele>
        <time>2017-09-19T10:37:29Z</time>
      </trkpt>
      <trkpt lat="43.66597" lon="3.81227">
        <ele>183.2</ele>
        <time>2017-09-19T10:37:33Z</time>
      </trkpt>
      <trkpt lat="43.66604" lon="3.81223">
        <ele>183.9</ele>
        <time>2017-09-19T10:37:37Z</time>
      </trkpt>
      <trkpt lat="43.66611" lon="3.81217">
        <ele>184.6</ele>
        <time>2017-09-19T10:37:41Z</time>
      </trkpt>
      <trkpt lat="43.66619" lon="3.81214">
        <ele>185.1</ele>
        <time>2017-09-19T10:37:44Z</time>
      </trkpt>
      <trkpt lat="43.66626" lon="3.81212">
        <ele>185.5</ele>
        <time>2017-09-19T10:37:47Z</time>
      </trkpt>
      <trkpt lat="43.66634" lon="3.81213">
        <ele>185.9</ele>
        <time>2017-09-19T10:37:50Z</time>
      </trkpt>
      <trkpt lat="43.66641" lon="3.81213">
        <ele>186.3</ele>
        <time>2017-09-19T10:37:53Z</time>
      </trkpt>
      <trkpt lat="43.66649" lon="3.81212">
        <ele>186.7</ele>
        <time>2017-09-19T10:37:56Z</time>
      </trkpt>
      <trkpt lat="43.66658" lon="3.81207">
        <ele>187.2</ele>
        <time>2017-09-19T10:38:00Z</time>
      </trkpt>
      <trkpt lat="43.66667" lon="3.81205">
        <ele>187.7</ele>
        <time>2017-09-19T10:38:04Z</time>
      </trkpt>
      <trkpt lat="43.66675" lon="3.81205">
        <ele>188.1</ele>
        <time>2017-09-19T10:38:07Z</time>
      </trkpt>
      <trkpt lat="43.66685" lon="3.81205">
        <ele>188.4</ele>
        <time>2017-09-19T10:38:10Z</time>
      </trkpt>
      <trkpt lat="43.66695" lon="3.81206">
        <ele>188.7</ele>
        <time>2017-09-19T10:38:13Z</time>
      </trkpt>
      <trkpt lat="43.66703" lon="3.81208">
        <ele>189.5</ele>
        <time>2017-09-19T10:38:15Z</time>
      </trkpt>
      <trkpt lat="43.66711" lon="3.81208">
        <ele>190.3</ele>
        <time>2017-09-19T10:38:17Z</time>
      </trkpt>
      <trkpt lat="43.66718" lon="3.81208">
        <ele>190.4</ele>
        <time>2017-09-19T10:38:19Z</time>
      </trkpt>
      <trkpt lat="43.66728" lon="3.81208">
        <ele>190.5</ele>
        <time>2017-09-19T10:38:22Z</time>
      </trkpt>
      <trkpt lat="43.66737" lon="3.81211">
        <ele>190.5</ele>
        <time>2017-09-19T10:38:25Z</time>
      </trkpt>
      <trkpt lat="43.66745" lon="3.81213">
        <ele>190.8</ele>
        <time>2017-09-19T10:38:27Z</time>
      </trkpt>
      <trkpt lat="43.66752" lon="3.81211">
        <ele>190.8</ele>
        <time>2017-09-19T10:38:29Z</time>
      </trkpt>
      <trkpt lat="43.66756" lon="3.812">
        <ele>190.8</ele>
        <time>2017-09-19T10:38:33Z</time>
      </trkpt>
      <trkpt lat="43.66757" lon="3.81188">
        <ele>190.8</ele>
        <time>2017-09-19T10:38:37Z</time>
      </trkpt>
      <trkpt lat="43.66759" lon="3.81176">
        <ele>190.7</ele>
        <time>2017-09-19T10:38:40Z</time>
      </trkpt>
      <trkpt lat="43.66759" lon="3.81162">
        <ele>190.2</ele>
        <time>2017-09-19T10:38:43Z</time>
      </trkpt>
      <trkpt lat="43.66759" lon="3.81148">
        <ele>189.2</ele>
        <time>2017-09-19T10:38:45Z</time>
      </trkpt>
      <trkpt lat="43.66759" lon="3.81134">
        <ele>189.2</ele>
        <time>2017-09-19T10:38:47Z</time>
      </trkpt>
      <trkpt lat="43.66762" lon="3.8112">
        <ele>189.2</ele>
        <time>2017-09-19T10:38:49Z</time>
      </trkpt>
      <trkpt lat="43.66762" lon="3.81106">
        <ele>189.1</ele>
        <time>2017-09-19T10:38:52Z</time>
      </trkpt>
      <trkpt lat="43.66761" lon="3.81094">
        <ele>189</ele>
        <time>2017-09-19T10:38:54Z</time>
      </trkpt>
      <trkpt lat="43.66762" lon="3.81079">
        <ele>187.6</ele>
        <time>2017-09-19T10:38:56Z</time>
      </trkpt>
      <trkpt lat="43.66763" lon="3.81069">
        <ele>187.1</ele>
        <time>2017-09-19T10:38:57Z</time>
      </trkpt>
      <trkpt lat="43.66763" lon="3.81054">
        <ele>186.3</ele>
        <time>2017-09-19T10:38:59Z</time>
      </trkpt>
      <trkpt lat="43.66764" lon="3.81036">
        <ele>185.3</ele>
        <time>2017-09-19T10:39:01Z</time>
      </trkpt>
      <trkpt lat="43.66767" lon="3.81018">
        <ele>184</ele>
        <time>2017-09-19T10:39:03Z</time>
      </trkpt>
      <trkpt lat="43.66771" lon="3.81009">
        <ele>183.5</ele>
        <time>2017-09-19T10:39:04Z</time>
      </trkpt>
      <trkpt lat="43.6678" lon="3.81002">
        <ele>183</ele>
        <time>2017-09-19T10:39:06Z</time>
      </trkpt>
      <trkpt lat="43.66789" lon="3.80999">
        <ele>182.6</ele>
        <time>2017-09-19T10:39:08Z</time>
      </trkpt>
      <trkpt lat="43.66797" lon="3.80996">
        <ele>182.3</ele>
        <time>2017-09-19T10:39:10Z</time>
      </trkpt>
      <trkpt lat="43.66805" lon="3.80993">
        <ele>182</ele>
        <time>2017-09-19T10:39:12Z</time>
      </trkpt>
      <trkpt lat="43.66814" lon="3.80989">
        <ele>181.6</ele>
        <time>2017-09-19T10:39:14Z</time>
      </trkpt>
      <trkpt lat="43.66822" lon="3.80983">
        <ele>181.4</ele>
        <time>2017-09-19T10:39:16Z</time>
      </trkpt>
      <trkpt lat="43.66831" lon="3.80978">
        <ele>181.4</ele>
        <time>2017-09-19T10:39:19Z</time>
      </trkpt>
      <trkpt lat="43.66838" lon="3.80973">
        <ele>181.3</ele>
        <time>2017-09-19T10:39:21Z</time>
      </trkpt>
      <trkpt lat="43.66845" lon="3.80967">
        <ele>181.5</ele>
        <time>2017-09-19T10:39:23Z</time>
      </trkpt>
      <trkpt lat="43.66853" lon="3.80958">
        <ele>181.2</ele>
        <time>2017-09-19T10:39:25Z</time>
      </trkpt>
      <trkpt lat="43.66862" lon="3.80949">
        <ele>180.6</ele>
        <time>2017-09-19T10:39:27Z</time>
      </trkpt>
      <trkpt lat="43.66869" lon="3.80942">
        <ele>180.2</ele>
        <time>2017-09-19T10:39:29Z</time>
      </trkpt>
      <trkpt lat="43.66877" lon="3.80932">
        <ele>180</ele>
        <time>2017-09-19T10:39:31Z</time>
      </trkpt>
      <trkpt lat="43.66885" lon="3.80921">
        <ele>179.5</ele>
        <time>2017-09-19T10:39:33Z</time>
      </trkpt>
      <trkpt lat="43.66894" lon="3.80909">
        <ele>179.5</ele>
        <time>2017-09-19T10:39:35Z</time>
      </trkpt>
      <trkpt lat="43.66898" lon="3.80901">
        <ele>179.2</ele>
        <time>2017-09-19T10:39:36Z</time>
      </trkpt>
      <trkpt lat="43.66902" lon="3.80892">
        <ele>179.1</ele>
        <time>2017-09-19T10:39:37Z</time>
      </trkpt>
      <trkpt lat="43.66908" lon="3.80879">
        <ele>179</ele>
        <time>2017-09-19T10:39:39Z</time>
      </trkpt>
      <trkpt lat="43.66912" lon="3.80871">
        <ele>179.2</ele>
        <time>2017-09-19T10:39:40Z</time>
      </trkpt>
      <trkpt lat="43.66915" lon="3.8086">
        <ele>179.3</ele>
        <time>2017-09-19T10:39:42Z</time>
      </trkpt>
      <trkpt lat="43.66918" lon="3.8085">
        <ele>178.8</ele>
        <time>2017-09-19T10:39:44Z</time>
      </trkpt>
      <trkpt lat="43.6692" lon="3.8084">
        <ele>178.7</ele>
        <time>2017-09-19T10:39:46Z</time>
      </trkpt>
      <trkpt lat="43.66921" lon="3.80827">
        <ele>178.5</ele>
        <time>2017-09-19T10:39:49Z</time>
      </trkpt>
      <trkpt lat="43.66924" lon="3.80814">
        <ele>178.5</ele>
        <time>2017-09-19T10:39:52Z</time>
      </trkpt>
      <trkpt lat="43.66926" lon="3.80803">
        <ele>178.6</ele>
        <time>2017-09-19T10:39:54Z</time>
      </trkpt>
      <trkpt lat="43.66929" lon="3.80793">
        <ele>178.6</ele>
        <time>2017-09-19T10:39:56Z</time>
      </trkpt>
      <trkpt lat="43.6693" lon="3.80782">
        <ele>179</ele>
        <time>2017-09-19T10:39:58Z</time>
      </trkpt>
      <trkpt lat="43.66932" lon="3.80767">
        <ele>178.6</ele>
        <time>2017-09-19T10:40:00Z</time>
      </trkpt>
      <trkpt lat="43.66932" lon="3.80757">
        <ele>178.2</ele>
        <time>2017-09-19T10:40:01Z</time>
      </trkpt>
      <trkpt lat="43.66932" lon="3.80739">
        <ele>177.3</ele>
        <time>2017-09-19T10:40:03Z</time>
      </trkpt>
      <trkpt lat="43.66933" lon="3.80729">
        <ele>176.9</ele>
        <time>2017-09-19T10:40:04Z</time>
      </trkpt>
      <trkpt lat="43.66933" lon="3.80713">
        <ele>175.9</ele>
        <time>2017-09-19T10:40:06Z</time>
      </trkpt>
      <trkpt lat="43.66933" lon="3.80697">
        <ele>174.7</ele>
        <time>2017-09-19T10:40:08Z</time>
      </trkpt>
      <trkpt lat="43.66933" lon="3.80678">
        <ele>173</ele>
        <time>2017-09-19T10:40:10Z</time>
      </trkpt>
      <trkpt lat="43.66933" lon="3.80668">
        <ele>172</ele>
        <time>2017-09-19T10:40:11Z</time>
      </trkpt>
      <trkpt lat="43.66933" lon="3.80657">
        <ele>170.7</ele>
        <time>2017-09-19T10:40:12Z</time>
      </trkpt>
      <trkpt lat="43.66934" lon="3.80646">
        <ele>169.7</ele>
        <time>2017-09-19T10:40:13Z</time>
      </trkpt>
      <trkpt lat="43.66935" lon="3.80633">
        <ele>168.7</ele>
        <time>2017-09-19T10:40:14Z</time>
      </trkpt>
      <trkpt lat="43.66936" lon="3.8062">
        <ele>167.7</ele>
        <time>2017-09-19T10:40:15Z</time>
      </trkpt>
      <trkpt lat="43.66936" lon="3.80605">
        <ele>167.1</ele>
        <time>2017-09-19T10:40:16Z</time>
      </trkpt>
      <trkpt lat="43.66937" lon="3.80592">
        <ele>166.7</ele>
        <time>2017-09-19T10:40:17Z</time>
      </trkpt>
      <trkpt lat="43.66938" lon="3.80579">
        <ele>166.3</ele>
        <time>2017-09-19T10:40:18Z</time>
      </trkpt>
      <trkpt lat="43.6694" lon="3.80568">
        <ele>165.8</ele>
        <time>2017-09-19T10:40:19Z</time>
      </trkpt>
      <trkpt lat="43.66942" lon="3.80558">
        <ele>165.5</ele>
        <time>2017-09-19T10:40:20Z</time>
      </trkpt>
      <trkpt lat="43.66946" lon="3.80541">
        <ele>164.8</ele>
        <time>2017-09-19T10:40:22Z</time>
      </trkpt>
      <trkpt lat="43.66947" lon="3.80529">
        <ele>164.2</ele>
        <time>2017-09-19T10:40:24Z</time>
      </trkpt>
      <trkpt lat="43.66942" lon="3.80521">
        <ele>163.8</ele>
        <time>2017-09-19T10:40:26Z</time>
      </trkpt>
      <trkpt lat="43.66935" lon="3.80518">
        <ele>163.5</ele>
        <time>2017-09-19T10:40:28Z</time>
      </trkpt>
      <trkpt lat="43.66927" lon="3.80515">
        <ele>162.8</ele>
        <time>2017-09-19T10:40:30Z</time>
      </trkpt>
      <trkpt lat="43.66927" lon="3.80503">
        <ele>162.7</ele>
        <time>2017-09-19T10:40:34Z</time>
      </trkpt>
      <trkpt lat="43.66932" lon="3.80494">
        <ele>162.7</ele>
        <time>2017-09-19T10:40:36Z</time>
      </trkpt>
      <trkpt lat="43.66937" lon="3.80486">
        <ele>162.7</ele>
        <time>2017-09-19T10:40:38Z</time>
      </trkpt>
      <trkpt lat="43.66942" lon="3.80475">
        <ele>162.6</ele>
        <time>2017-09-19T10:40:40Z</time>
      </trkpt>
      <trkpt lat="43.66946" lon="3.80462">
        <ele>162.4</ele>
        <time>2017-09-19T10:40:43Z</time>
      </trkpt>
      <trkpt lat="43.66942" lon="3.8045">
        <ele>162.3</ele>
        <time>2017-09-19T10:40:46Z</time>
      </trkpt>
      <trkpt lat="43.66936" lon="3.80442">
        <ele>162.2</ele>
        <time>2017-09-19T10:40:49Z</time>
      </trkpt>
      <trkpt lat="43.66929" lon="3.80435">
        <ele>162.1</ele>
        <time>2017-09-19T10:40:52Z</time>
      </trkpt>
      <trkpt lat="43.66924" lon="3.80428">
        <ele>162.1</ele>
        <time>2017-09-19T10:40:56Z</time>
      </trkpt>
      <trkpt lat="43.66924" lon="3.80418">
        <ele>162.2</ele>
        <time>2017-09-19T10:40:58Z</time>
      </trkpt>
      <trkpt lat="43.66924" lon="3.80407">
        <ele>162.2</ele>
        <time>2017-09-19T10:41:00Z</time>
      </trkpt>
      <trkpt lat="43.66925" lon="3.80398">
        <ele>162.3</ele>
        <time>2017-09-19T10:41:02Z</time>
      </trkpt>
      <trkpt lat="43.66926" lon="3.80386">
        <ele>162.3</ele>
        <time>2017-09-19T10:41:04Z</time>
      </trkpt>
      <trkpt lat="43.6693" lon="3.80376">
        <ele>162.4</ele>
        <time>2017-09-19T10:41:06Z</time>
      </trkpt>
      <trkpt lat="43.66937" lon="3.80366">
        <ele>162.6</ele>
        <time>2017-09-19T10:41:08Z</time>
      </trkpt>
      <trkpt lat="43.66943" lon="3.80356">
        <ele>162.7</ele>
        <time>2017-09-19T10:41:10Z</time>
      </trkpt>
      <trkpt lat="43.66951" lon="3.80348">
        <ele>162.8</ele>
        <time>2017-09-19T10:41:12Z</time>
      </trkpt>
      <trkpt lat="43.66957" lon="3.80342">
        <ele>164.5</ele>
        <time>2017-09-19T10:41:14Z</time>
      </trkpt>
      <trkpt lat="43.66963" lon="3.80336">
        <ele>164.6</ele>
        <time>2017-09-19T10:41:16Z</time>
      </trkpt>
      <trkpt lat="43.66969" lon="3.80329">
        <ele>164.7</ele>
        <time>2017-09-19T10:41:18Z</time>
      </trkpt>
      <trkpt lat="43.66972" lon="3.80318">
        <ele>164.7</ele>
        <time>2017-09-19T10:41:22Z</time>
      </trkpt>
      <trkpt lat="43.66969" lon="3.80309">
        <ele>164.7</ele>
        <time>2017-09-19T10:41:26Z</time>
      </trkpt>
      <trkpt lat="43.66964" lon="3.803">
        <ele>164.6</ele>
        <time>2017-09-19T10:41:29Z</time>
      </trkpt>
      <trkpt lat="43.66957" lon="3.80294">
        <ele>164.6</ele>
        <time>2017-09-19T10:41:32Z</time>
      </trkpt>
      <trkpt lat="43.66949" lon="3.80289">
        <ele>164.7</ele>
        <time>2017-09-19T10:41:36Z</time>
      </trkpt>
      <trkpt lat="43.66941" lon="3.80284">
        <ele>164.8</ele>
        <time>2017-09-19T10:41:39Z</time>
      </trkpt>
      <trkpt lat="43.66934" lon="3.80279">
        <ele>165</ele>
        <time>2017-09-19T10:41:42Z</time>
      </trkpt>
      <trkpt lat="43.66926" lon="3.80274">
        <ele>165.2</ele>
        <time>2017-09-19T10:41:45Z</time>
      </trkpt>
      <trkpt lat="43.66919" lon="3.80269">
        <ele>165.4</ele>
        <time>2017-09-19T10:41:48Z</time>
      </trkpt>
      <trkpt lat="43.66912" lon="3.80262">
        <ele>165.6</ele>
        <time>2017-09-19T10:41:51Z</time>
      </trkpt>
      <trkpt lat="43.66905" lon="3.80257">
        <ele>165.8</ele>
        <time>2017-09-19T10:41:53Z</time>
      </trkpt>
      <trkpt lat="43.66897" lon="3.80254">
        <ele>166</ele>
        <time>2017-09-19T10:41:55Z</time>
      </trkpt>
      <trkpt lat="43.66889" lon="3.80251">
        <ele>166.9</ele>
        <time>2017-09-19T10:41:57Z</time>
      </trkpt>
      <trkpt lat="43.66883" lon="3.80246">
        <ele>167.1</ele>
        <time>2017-09-19T10:41:59Z</time>
      </trkpt>
      <trkpt lat="43.66876" lon="3.8024">
        <ele>168.2</ele>
        <time>2017-09-19T10:42:01Z</time>
      </trkpt>
      <trkpt lat="43.66867" lon="3.8024">
        <ele>170</ele>
        <time>2017-09-19T10:42:03Z</time>
      </trkpt>
      <trkpt lat="43.66857" lon="3.80238">
        <ele>171.2</ele>
        <time>2017-09-19T10:42:05Z</time>
      </trkpt>
      <trkpt lat="43.66848" lon="3.80236">
        <ele>172.3</ele>
        <time>2017-09-19T10:42:07Z</time>
      </trkpt>
      <trkpt lat="43.66838" lon="3.80236">
        <ele>173.1</ele>
        <time>2017-09-19T10:42:09Z</time>
      </trkpt>
      <trkpt lat="43.66828" lon="3.80237">
        <ele>173.4</ele>
        <time>2017-09-19T10:42:11Z</time>
      </trkpt>
      <trkpt lat="43.66818" lon="3.8024">
        <ele>173.5</ele>
        <time>2017-09-19T10:42:13Z</time>
      </trkpt>
      <trkpt lat="43.66806" lon="3.80242">
        <ele>173.7</ele>
        <time>2017-09-19T10:42:15Z</time>
      </trkpt>
      <trkpt lat="43.66793" lon="3.8024">
        <ele>173.9</ele>
        <time>2017-09-19T10:42:17Z</time>
      </trkpt>
      <trkpt lat="43.66786" lon="3.80237">
        <ele>173.8</ele>
        <time>2017-09-19T10:42:18Z</time>
      </trkpt>
      <trkpt lat="43.66773" lon="3.80229">
        <ele>173.7</ele>
        <time>2017-09-19T10:42:20Z</time>
      </trkpt>
      <trkpt lat="43.66761" lon="3.8022">
        <ele>173.6</ele>
        <time>2017-09-19T10:42:22Z</time>
      </trkpt>
      <trkpt lat="43.66749" lon="3.80211">
        <ele>173.5</ele>
        <time>2017-09-19T10:42:24Z</time>
      </trkpt>
      <trkpt lat="43.66737" lon="3.80202">
        <ele>172.7</ele>
        <time>2017-09-19T10:42:26Z</time>
      </trkpt>
      <trkpt lat="43.66727" lon="3.80194">
        <ele>172</ele>
        <time>2017-09-19T10:42:28Z</time>
      </trkpt>
      <trkpt lat="43.66716" lon="3.8019">
        <ele>170.8</ele>
        <time>2017-09-19T10:42:30Z</time>
      </trkpt>
      <trkpt lat="43.66704" lon="3.80185">
        <ele>169.5</ele>
        <time>2017-09-19T10:42:32Z</time>
      </trkpt>
      <trkpt lat="43.66693" lon="3.80178">
        <ele>168.3</ele>
        <time>2017-09-19T10:42:34Z</time>
      </trkpt>
      <trkpt lat="43.66684" lon="3.80171">
        <ele>167.1</ele>
        <time>2017-09-19T10:42:36Z</time>
      </trkpt>
      <trkpt lat="43.66675" lon="3.80166">
        <ele>165.6</ele>
        <time>2017-09-19T10:42:38Z</time>
      </trkpt>
      <trkpt lat="43.66666" lon="3.80162">
        <ele>164.4</ele>
        <time>2017-09-19T10:42:40Z</time>
      </trkpt>
      <trkpt lat="43.66656" lon="3.80159">
        <ele>163</ele>
        <time>2017-09-19T10:42:42Z</time>
      </trkpt>
      <trkpt lat="43.66649" lon="3.80156">
        <ele>162.5</ele>
        <time>2017-09-19T10:42:44Z</time>
      </trkpt>
      <trkpt lat="43.66642" lon="3.80157">
        <ele>161.6</ele>
        <time>2017-09-19T10:42:46Z</time>
      </trkpt>
      <trkpt lat="43.66633" lon="3.80157">
        <ele>160.7</ele>
        <time>2017-09-19T10:42:48Z</time>
      </trkpt>
      <trkpt lat="43.66624" lon="3.80152">
        <ele>160.3</ele>
        <time>2017-09-19T10:42:50Z</time>
      </trkpt>
      <trkpt lat="43.66617" lon="3.80145">
        <ele>160.3</ele>
        <time>2017-09-19T10:42:52Z</time>
      </trkpt>
      <trkpt lat="43.66611" lon="3.80138">
        <ele>160.3</ele>
        <time>2017-09-19T10:42:54Z</time>
      </trkpt>
      <trkpt lat="43.66603" lon="3.8013">
        <ele>160.2</ele>
        <time>2017-09-19T10:42:57Z</time>
      </trkpt>
      <trkpt lat="43.66596" lon="3.80122">
        <ele>160</ele>
        <time>2017-09-19T10:43:00Z</time>
      </trkpt>
      <trkpt lat="43.66597" lon="3.80108">
        <ele>159.4</ele>
        <time>2017-09-19T10:43:05Z</time>
      </trkpt>
      <trkpt lat="43.66597" lon="3.80096">
        <ele>159</ele>
        <time>2017-09-19T10:43:07Z</time>
      </trkpt>
      <trkpt lat="43.66594" lon="3.80084">
        <ele>158.5</ele>
        <time>2017-09-19T10:43:10Z</time>
      </trkpt>
      <trkpt lat="43.66591" lon="3.80071">
        <ele>157.8</ele>
        <time>2017-09-19T10:43:14Z</time>
      </trkpt>
      <trkpt lat="43.66583" lon="3.80062">
        <ele>156.7</ele>
        <time>2017-09-19T10:43:19Z</time>
      </trkpt>
      <trkpt lat="43.66577" lon="3.8005">
        <ele>153.6</ele>
        <time>2017-09-19T10:43:21Z</time>
      </trkpt>
      <trkpt lat="43.66573" lon="3.80036">
        <ele>152.1</ele>
        <time>2017-09-19T10:43:23Z</time>
      </trkpt>
      <trkpt lat="43.66564" lon="3.80028">
        <ele>151.1</ele>
        <time>2017-09-19T10:43:25Z</time>
      </trkpt>
      <trkpt lat="43.66554" lon="3.80018">
        <ele>150.5</ele>
        <time>2017-09-19T10:43:27Z</time>
      </trkpt>
      <trkpt lat="43.66543" lon="3.80005">
        <ele>150.3</ele>
        <time>2017-09-19T10:43:29Z</time>
      </trkpt>
      <trkpt lat="43.66533" lon="3.79993">
        <ele>149.4</ele>
        <time>2017-09-19T10:43:31Z</time>
      </trkpt>
      <trkpt lat="43.66527" lon="3.79985">
        <ele>149.3</ele>
        <time>2017-09-19T10:43:33Z</time>
      </trkpt>
      <trkpt lat="43.66523" lon="3.79974">
        <ele>148.8</ele>
        <time>2017-09-19T10:43:39Z</time>
      </trkpt>
      <trkpt lat="43.6652" lon="3.79965">
        <ele>147.7</ele>
        <time>2017-09-19T10:43:44Z</time>
      </trkpt>
      <trkpt lat="43.66514" lon="3.79958">
        <ele>146.8</ele>
        <time>2017-09-19T10:43:47Z</time>
      </trkpt>
      <trkpt lat="43.66507" lon="3.79954">
        <ele>144.1</ele>
        <time>2017-09-19T10:43:49Z</time>
      </trkpt>
      <trkpt lat="43.665" lon="3.7995">
        <ele>143.7</ele>
        <time>2017-09-19T10:43:51Z</time>
      </trkpt>
      <trkpt lat="43.66493" lon="3.79945">
        <ele>140.7</ele>
        <time>2017-09-19T10:43:53Z</time>
      </trkpt>
      <trkpt lat="43.66484" lon="3.7994">
        <ele>139.4</ele>
        <time>2017-09-19T10:43:55Z</time>
      </trkpt>
      <trkpt lat="43.66475" lon="3.79935">
        <ele>138.8</ele>
        <time>2017-09-19T10:43:57Z</time>
      </trkpt>
      <trkpt lat="43.66467" lon="3.79929">
        <ele>138.7</ele>
        <time>2017-09-19T10:43:59Z</time>
      </trkpt>
      <trkpt lat="43.6646" lon="3.79918">
        <ele>137.5</ele>
        <time>2017-09-19T10:44:01Z</time>
      </trkpt>
      <trkpt lat="43.66459" lon="3.79903">
        <ele>136.9</ele>
        <time>2017-09-19T10:44:03Z</time>
      </trkpt>
      <trkpt lat="43.66455" lon="3.79895">
        <ele>136.8</ele>
        <time>2017-09-19T10:44:05Z</time>
      </trkpt>
      <trkpt lat="43.66449" lon="3.79888">
        <ele>136.5</ele>
        <time>2017-09-19T10:44:08Z</time>
      </trkpt>
      <trkpt lat="43.6644" lon="3.79884">
        <ele>136.2</ele>
        <time>2017-09-19T10:44:12Z</time>
      </trkpt>
      <trkpt lat="43.66432" lon="3.79878">
        <ele>136</ele>
        <time>2017-09-19T10:44:15Z</time>
      </trkpt>
      <trkpt lat="43.66426" lon="3.79869">
        <ele>135.9</ele>
        <time>2017-09-19T10:44:18Z</time>
      </trkpt>
      <trkpt lat="43.66418" lon="3.79861">
        <ele>135.8</ele>
        <time>2017-09-19T10:44:21Z</time>
      </trkpt>
      <trkpt lat="43.6641" lon="3.79854">
        <ele>135.9</ele>
        <time>2017-09-19T10:44:24Z</time>
      </trkpt>
      <trkpt lat="43.664" lon="3.79846">
        <ele>136.1</ele>
        <time>2017-09-19T10:44:27Z</time>
      </trkpt>
      <trkpt lat="43.66393" lon="3.79839">
        <ele>136.3</ele>
        <time>2017-09-19T10:44:29Z</time>
      </trkpt>
      <trkpt lat="43.66385" lon="3.7983">
        <ele>137.9</ele>
        <time>2017-09-19T10:44:31Z</time>
      </trkpt>
      <trkpt lat="43.66376" lon="3.79822">
        <ele>138.6</ele>
        <time>2017-09-19T10:44:33Z</time>
      </trkpt>
      <trkpt lat="43.66367" lon="3.79813">
        <ele>138.8</ele>
        <time>2017-09-19T10:44:35Z</time>
      </trkpt>
      <trkpt lat="43.66357" lon="3.79805">
        <ele>138.8</ele>
        <time>2017-09-19T10:44:37Z</time>
      </trkpt>
      <trkpt lat="43.66348" lon="3.79797">
        <ele>138.5</ele>
        <time>2017-09-19T10:44:39Z</time>
      </trkpt>
      <trkpt lat="43.6634" lon="3.79787">
        <ele>138.1</ele>
        <time>2017-09-19T10:44:41Z</time>
      </trkpt>
      <trkpt lat="43.66331" lon="3.7978">
        <ele>137.6</ele>
        <time>2017-09-19T10:44:43Z</time>
      </trkpt>
      <trkpt lat="43.66323" lon="3.79772">
        <ele>137.3</ele>
        <time>2017-09-19T10:44:45Z</time>
      </trkpt>
      <trkpt lat="43.66317" lon="3.79768">
        <ele>137.2</ele>
        <time>2017-09-19T10:44:47Z</time>
      </trkpt>
      <trkpt lat="43.6631" lon="3.79763">
        <ele>137.5</ele>
        <time>2017-09-19T10:44:49Z</time>
      </trkpt>
      <trkpt lat="43.66302" lon="3.7976">
        <ele>138.3</ele>
        <time>2017-09-19T10:44:51Z</time>
      </trkpt>
      <trkpt lat="43.66295" lon="3.79755">
        <ele>139.2</ele>
        <time>2017-09-19T10:44:53Z</time>
      </trkpt>
      <trkpt lat="43.66287" lon="3.79749">
        <ele>139.9</ele>
        <time>2017-09-19T10:44:55Z</time>
      </trkpt>
      <trkpt lat="43.66279" lon="3.79742">
        <ele>140.2</ele>
        <time>2017-09-19T10:44:57Z</time>
      </trkpt>
      <trkpt lat="43.66269" lon="3.79735">
        <ele>140.4</ele>
        <time>2017-09-19T10:44:59Z</time>
      </trkpt>
      <trkpt lat="43.66259" lon="3.79728">
        <ele>140.6</ele>
        <time>2017-09-19T10:45:01Z</time>
      </trkpt>
      <trkpt lat="43.6625" lon="3.79721">
        <ele>140.6</ele>
        <time>2017-09-19T10:45:03Z</time>
      </trkpt>
      <trkpt lat="43.66241" lon="3.79716">
        <ele>140.7</ele>
        <time>2017-09-19T10:45:05Z</time>
      </trkpt>
      <trkpt lat="43.66232" lon="3.79706">
        <ele>140.6</ele>
        <time>2017-09-19T10:45:07Z</time>
      </trkpt>
      <trkpt lat="43.66222" lon="3.79697">
        <ele>140.1</ele>
        <time>2017-09-19T10:45:09Z</time>
      </trkpt>
      <trkpt lat="43.66214" lon="3.79688">
        <ele>139.4</ele>
        <time>2017-09-19T10:45:11Z</time>
      </trkpt>
      <trkpt lat="43.66204" lon="3.7968">
        <ele>138.4</ele>
        <time>2017-09-19T10:45:13Z</time>
      </trkpt>
      <trkpt lat="43.66194" lon="3.79671">
        <ele>137.5</ele>
        <time>2017-09-19T10:45:15Z</time>
      </trkpt>
      <trkpt lat="43.66186" lon="3.79663">
        <ele>137</ele>
        <time>2017-09-19T10:45:17Z</time>
      </trkpt>
      <trkpt lat="43.66176" lon="3.79652">
        <ele>136.4</ele>
        <time>2017-09-19T10:45:19Z</time>
      </trkpt>
      <trkpt lat="43.66166" lon="3.79645">
        <ele>136</ele>
        <time>2017-09-19T10:45:21Z</time>
      </trkpt>
      <trkpt lat="43.66155" lon="3.79637">
        <ele>135.7</ele>
        <time>2017-09-19T10:45:23Z</time>
      </trkpt>
      <trkpt lat="43.66146" lon="3.7963">
        <ele>135.4</ele>
        <time>2017-09-19T10:45:25Z</time>
      </trkpt>
      <trkpt lat="43.66139" lon="3.79619">
        <ele>135</ele>
        <time>2017-09-19T10:45:27Z</time>
      </trkpt>
      <trkpt lat="43.66136" lon="3.79603">
        <ele>134.2</ele>
        <time>2017-09-19T10:45:29Z</time>
      </trkpt>
      <trkpt lat="43.66136" lon="3.79584">
        <ele>132.7</ele>
        <time>2017-09-19T10:45:31Z</time>
      </trkpt>
      <trkpt lat="43.66134" lon="3.79574">
        <ele>131.8</ele>
        <time>2017-09-19T10:45:32Z</time>
      </trkpt>
      <trkpt lat="43.66132" lon="3.79564">
        <ele>131</ele>
        <time>2017-09-19T10:45:33Z</time>
      </trkpt>
      <trkpt lat="43.66129" lon="3.79546">
        <ele>129.1</ele>
        <time>2017-09-19T10:45:35Z</time>
      </trkpt>
      <trkpt lat="43.66123" lon="3.79531">
        <ele>127.4</ele>
        <time>2017-09-19T10:45:37Z</time>
      </trkpt>
      <trkpt lat="43.66117" lon="3.79519">
        <ele>125.9</ele>
        <time>2017-09-19T10:45:39Z</time>
      </trkpt>
      <trkpt lat="43.66109" lon="3.7951">
        <ele>124.9</ele>
        <time>2017-09-19T10:45:41Z</time>
      </trkpt>
      <trkpt lat="43.66102" lon="3.79503">
        <ele>124.3</ele>
        <time>2017-09-19T10:45:43Z</time>
      </trkpt>
      <trkpt lat="43.66095" lon="3.79497">
        <ele>124.1</ele>
        <time>2017-09-19T10:45:45Z</time>
      </trkpt>
      <trkpt lat="43.66088" lon="3.7949">
        <ele>124.4</ele>
        <time>2017-09-19T10:45:47Z</time>
      </trkpt>
      <trkpt lat="43.66081" lon="3.79483">
        <ele>124.4</ele>
        <time>2017-09-19T10:45:49Z</time>
      </trkpt>
      <trkpt lat="43.66075" lon="3.79478">
        <ele>124.8</ele>
        <time>2017-09-19T10:45:51Z</time>
      </trkpt>
      <trkpt lat="43.66067" lon="3.79471">
        <ele>125</ele>
        <time>2017-09-19T10:45:54Z</time>
      </trkpt>
      <trkpt lat="43.66058" lon="3.79465">
        <ele>126</ele>
        <time>2017-09-19T10:45:57Z</time>
      </trkpt>
      <trkpt lat="43.66049" lon="3.79458">
        <ele>126.2</ele>
        <time>2017-09-19T10:46:00Z</time>
      </trkpt>
      <trkpt lat="43.66042" lon="3.79451">
        <ele>126.5</ele>
        <time>2017-09-19T10:46:04Z</time>
      </trkpt>
      <trkpt lat="43.66036" lon="3.79445">
        <ele>126.7</ele>
        <time>2017-09-19T10:46:08Z</time>
      </trkpt>
      <trkpt lat="43.66029" lon="3.79449">
        <ele>127</ele>
        <time>2017-09-19T10:46:15Z</time>
      </trkpt>
      <trkpt lat="43.66027" lon="3.79459">
        <ele>127.1</ele>
        <time>2017-09-19T10:46:20Z</time>
      </trkpt>
      <trkpt lat="43.66026" lon="3.79471">
        <ele>127.2</ele>
        <time>2017-09-19T10:46:25Z</time>
      </trkpt>
      <trkpt lat="43.66022" lon="3.79475">
        <ele>127.2</ele>
        <time>2017-09-19T10:46:32Z</time>
      </trkpt>
      <trkpt lat="43.66013" lon="3.79482">
        <ele>127.4</ele>
        <time>2017-09-19T10:47:07Z</time>
      </trkpt>
      <trkpt lat="43.66005" lon="3.79485">
        <ele>127.7</ele>
        <time>2017-09-19T10:47:11Z</time>
      </trkpt>
      <trkpt lat="43.65997" lon="3.79486">
        <ele>128.2</ele>
        <time>2017-09-19T10:47:16Z</time>
      </trkpt>
      <trkpt lat="43.65989" lon="3.79486">
        <ele>129.2</ele>
        <time>2017-09-19T10:47:22Z</time>
      </trkpt>
      <trkpt lat="43.65981" lon="3.79484">
        <ele>130.3</ele>
        <time>2017-09-19T10:47:27Z</time>
      </trkpt>
      <trkpt lat="43.65974" lon="3.79484">
        <ele>131.6</ele>
        <time>2017-09-19T10:47:32Z</time>
      </trkpt>
      <trkpt lat="43.65966" lon="3.79486">
        <ele>133.4</ele>
        <time>2017-09-19T10:47:38Z</time>
      </trkpt>
      <trkpt lat="43.6596" lon="3.79491">
        <ele>135.4</ele>
        <time>2017-09-19T10:47:45Z</time>
      </trkpt>
      <trkpt lat="43.65956" lon="3.79499">
        <ele>137.1</ele>
        <time>2017-09-19T10:47:52Z</time>
      </trkpt>
      <trkpt lat="43.65954" lon="3.7951">
        <ele>138.2</ele>
        <time>2017-09-19T10:47:58Z</time>
      </trkpt>
      <trkpt lat="43.65952" lon="3.79521">
        <ele>139.2</ele>
        <time>2017-09-19T10:48:04Z</time>
      </trkpt>
      <trkpt lat="43.65952" lon="3.79532">
        <ele>140.1</ele>
        <time>2017-09-19T10:48:10Z</time>
      </trkpt>
      <trkpt lat="43.65953" lon="3.79543">
        <ele>140.8</ele>
        <time>2017-09-19T10:48:15Z</time>
      </trkpt>
      <trkpt lat="43.65952" lon="3.79553">
        <ele>141.5</ele>
        <time>2017-09-19T10:48:20Z</time>
      </trkpt>
      <trkpt lat="43.6595" lon="3.79564">
        <ele>142.1</ele>
        <time>2017-09-19T10:48:24Z</time>
      </trkpt>
      <trkpt lat="43.65945" lon="3.79573">
        <ele>142.9</ele>
        <time>2017-09-19T10:48:29Z</time>
      </trkpt>
      <trkpt lat="43.65941" lon="3.79583">
        <ele>143.8</ele>
        <time>2017-09-19T10:48:34Z</time>
      </trkpt>
      <trkpt lat="43.65937" lon="3.79595">
        <ele>145.2</ele>
        <time>2017-09-19T10:48:40Z</time>
      </trkpt>
      <trkpt lat="43.65936" lon="3.79605">
        <ele>146.8</ele>
        <time>2017-09-19T10:48:46Z</time>
      </trkpt>
      <trkpt lat="43.65932" lon="3.79616">
        <ele>148.6</ele>
        <time>2017-09-19T10:48:52Z</time>
      </trkpt>
      <trkpt lat="43.65928" lon="3.79624">
        <ele>150.5</ele>
        <time>2017-09-19T10:48:58Z</time>
      </trkpt>
      <trkpt lat="43.65924" lon="3.79634">
        <ele>152.7</ele>
        <time>2017-09-19T10:49:05Z</time>
      </trkpt>
      <trkpt lat="43.65922" lon="3.79644">
        <ele>154.7</ele>
        <time>2017-09-19T10:49:11Z</time>
      </trkpt>
      <trkpt lat="43.65919" lon="3.79654">
        <ele>156.9</ele>
        <time>2017-09-19T10:49:18Z</time>
      </trkpt>
      <trkpt lat="43.65919" lon="3.79665">
        <ele>158.9</ele>
        <time>2017-09-19T10:49:24Z</time>
      </trkpt>
      <trkpt lat="43.65917" lon="3.79675">
        <ele>160.8</ele>
        <time>2017-09-19T10:49:30Z</time>
      </trkpt>
      <trkpt lat="43.65914" lon="3.79684">
        <ele>163.1</ele>
        <time>2017-09-19T10:49:37Z</time>
      </trkpt>
      <trkpt lat="43.65909" lon="3.79694">
        <ele>165</ele>
        <time>2017-09-19T10:49:43Z</time>
      </trkpt>
      <trkpt lat="43.65904" lon="3.79702">
        <ele>166.5</ele>
        <time>2017-09-19T10:49:48Z</time>
      </trkpt>
      <trkpt lat="43.65897" lon="3.79708">
        <ele>168</ele>
        <time>2017-09-19T10:49:53Z</time>
      </trkpt>
      <trkpt lat="43.6589" lon="3.79714">
        <ele>169.7</ele>
        <time>2017-09-19T10:49:59Z</time>
      </trkpt>
      <trkpt lat="43.65883" lon="3.79721">
        <ele>171.4</ele>
        <time>2017-09-19T10:50:05Z</time>
      </trkpt>
      <trkpt lat="43.65876" lon="3.79727">
        <ele>173.1</ele>
        <time>2017-09-19T10:50:11Z</time>
      </trkpt>
      <trkpt lat="43.65869" lon="3.79735">
        <ele>174.7</ele>
        <time>2017-09-19T10:50:17Z</time>
      </trkpt>
      <trkpt lat="43.65864" lon="3.79742">
        <ele>176.1</ele>
        <time>2017-09-19T10:50:22Z</time>
      </trkpt>
      <trkpt lat="43.65858" lon="3.79748">
        <ele>177.5</ele>
        <time>2017-09-19T10:50:27Z</time>
      </trkpt>
      <trkpt lat="43.65851" lon="3.79754">
        <ele>178.8</ele>
        <time>2017-09-19T10:50:32Z</time>
      </trkpt>
      <trkpt lat="43.65845" lon="3.79761">
        <ele>179.8</ele>
        <time>2017-09-19T10:50:36Z</time>
      </trkpt>
      <trkpt lat="43.65838" lon="3.79768">
        <ele>180.8</ele>
        <time>2017-09-19T10:50:40Z</time>
      </trkpt>
      <trkpt lat="43.65831" lon="3.79774">
        <ele>182</ele>
        <time>2017-09-19T10:50:45Z</time>
      </trkpt>
      <trkpt lat="43.65823" lon="3.79778">
        <ele>183.2</ele>
        <time>2017-09-19T10:50:50Z</time>
      </trkpt>
      <trkpt lat="43.65816" lon="3.79784">
        <ele>184.1</ele>
        <time>2017-09-19T10:50:54Z</time>
      </trkpt>
      <trkpt lat="43.65809" lon="3.79787">
        <ele>185</ele>
        <time>2017-09-19T10:50:58Z</time>
      </trkpt>
      <trkpt lat="43.658" lon="3.79792">
        <ele>185.8</ele>
        <time>2017-09-19T10:51:02Z</time>
      </trkpt>
      <trkpt lat="43.65794" lon="3.79799">
        <ele>186.6</ele>
        <time>2017-09-19T10:51:06Z</time>
      </trkpt>
      <trkpt lat="43.65788" lon="3.79807">
        <ele>187.1</ele>
        <time>2017-09-19T10:51:09Z</time>
      </trkpt>
      <trkpt lat="43.65783" lon="3.79814">
        <ele>187.7</ele>
        <time>2017-09-19T10:51:13Z</time>
      </trkpt>
      <trkpt lat="43.65778" lon="3.79823">
        <ele>188.2</ele>
        <time>2017-09-19T10:51:17Z</time>
      </trkpt>
      <trkpt lat="43.65774" lon="3.79831">
        <ele>188.7</ele>
        <time>2017-09-19T10:51:21Z</time>
      </trkpt>
      <trkpt lat="43.65767" lon="3.79841">
        <ele>189.2</ele>
        <time>2017-09-19T10:51:25Z</time>
      </trkpt>
      <trkpt lat="43.65761" lon="3.79849">
        <ele>189.8</ele>
        <time>2017-09-19T10:51:29Z</time>
      </trkpt>
      <trkpt lat="43.65755" lon="3.79856">
        <ele>190.4</ele>
        <time>2017-09-19T10:51:33Z</time>
      </trkpt>
      <trkpt lat="43.65747" lon="3.79862">
        <ele>190.9</ele>
        <time>2017-09-19T10:51:37Z</time>
      </trkpt>
      <trkpt lat="43.6574" lon="3.7987">
        <ele>191.8</ele>
        <time>2017-09-19T10:51:43Z</time>
      </trkpt>
      <trkpt lat="43.65741" lon="3.79861">
        <ele>192.4</ele>
        <time>2017-09-19T10:51:50Z</time>
      </trkpt>
      <trkpt lat="43.65736" lon="3.79852">
        <ele>192.6</ele>
        <time>2017-09-19T10:51:54Z</time>
      </trkpt>
      <trkpt lat="43.6573" lon="3.79846">
        <ele>192.5</ele>
        <time>2017-09-19T10:51:57Z</time>
      </trkpt>
      <trkpt lat="43.65723" lon="3.79841">
        <ele>192.5</ele>
        <time>2017-09-19T10:52:01Z</time>
      </trkpt>
      <trkpt lat="43.65715" lon="3.79835">
        <ele>192.4</ele>
        <time>2017-09-19T10:52:05Z</time>
      </trkpt>
      <trkpt lat="43.65707" lon="3.7983">
        <ele>192.8</ele>
        <time>2017-09-19T10:52:08Z</time>
      </trkpt>
      <trkpt lat="43.657" lon="3.79826">
        <ele>192.9</ele>
        <time>2017-09-19T10:52:10Z</time>
      </trkpt>
      <trkpt lat="43.65692" lon="3.79824">
        <ele>192.9</ele>
        <time>2017-09-19T10:52:12Z</time>
      </trkpt>
      <trkpt lat="43.65686" lon="3.79818">
        <ele>193</ele>
        <time>2017-09-19T10:52:14Z</time>
      </trkpt>
      <trkpt lat="43.65679" lon="3.79811">
        <ele>192.9</ele>
        <time>2017-09-19T10:52:16Z</time>
      </trkpt>
      <trkpt lat="43.6567" lon="3.79804">
        <ele>192.9</ele>
        <time>2017-09-19T10:52:19Z</time>
      </trkpt>
      <trkpt lat="43.65661" lon="3.79797">
        <ele>192.8</ele>
        <time>2017-09-19T10:52:22Z</time>
      </trkpt>
      <trkpt lat="43.65654" lon="3.79791">
        <ele>192.2</ele>
        <time>2017-09-19T10:52:24Z</time>
      </trkpt>
      <trkpt lat="43.65647" lon="3.79786">
        <ele>191.9</ele>
        <time>2017-09-19T10:52:26Z</time>
      </trkpt>
      <trkpt lat="43.6564" lon="3.7978">
        <ele>191.7</ele>
        <time>2017-09-19T10:52:28Z</time>
      </trkpt>
      <trkpt lat="43.65634" lon="3.79775">
        <ele>191.1</ele>
        <time>2017-09-19T10:52:30Z</time>
      </trkpt>
      <trkpt lat="43.65627" lon="3.79769">
        <ele>190.4</ele>
        <time>2017-09-19T10:52:32Z</time>
      </trkpt>
      <trkpt lat="43.6562" lon="3.79763">
        <ele>189.6</ele>
        <time>2017-09-19T10:52:34Z</time>
      </trkpt>
      <trkpt lat="43.65612" lon="3.79758">
        <ele>188.8</ele>
        <time>2017-09-19T10:52:36Z</time>
      </trkpt>
      <trkpt lat="43.65605" lon="3.79752">
        <ele>188.1</ele>
        <time>2017-09-19T10:52:38Z</time>
      </trkpt>
      <trkpt lat="43.65595" lon="3.79748">
        <ele>187.2</ele>
        <time>2017-09-19T10:52:40Z</time>
      </trkpt>
      <trkpt lat="43.65586" lon="3.79743">
        <ele>186.8</ele>
        <time>2017-09-19T10:52:42Z</time>
      </trkpt>
      <trkpt lat="43.65576" lon="3.7974">
        <ele>186.2</ele>
        <time>2017-09-19T10:52:44Z</time>
      </trkpt>
      <trkpt lat="43.65568" lon="3.79735">
        <ele>185.8</ele>
        <time>2017-09-19T10:52:46Z</time>
      </trkpt>
      <trkpt lat="43.65559" lon="3.79726">
        <ele>185.1</ele>
        <time>2017-09-19T10:52:48Z</time>
      </trkpt>
      <trkpt lat="43.65551" lon="3.79714">
        <ele>184.3</ele>
        <time>2017-09-19T10:52:50Z</time>
      </trkpt>
      <trkpt lat="43.65545" lon="3.79702">
        <ele>183.6</ele>
        <time>2017-09-19T10:52:52Z</time>
      </trkpt>
      <trkpt lat="43.65542" lon="3.79692">
        <ele>183.4</ele>
        <time>2017-09-19T10:52:54Z</time>
      </trkpt>
      <trkpt lat="43.6554" lon="3.79681">
        <ele>183.3</ele>
        <time>2017-09-19T10:52:56Z</time>
      </trkpt>
      <trkpt lat="43.65538" lon="3.79668">
        <ele>183.2</ele>
        <time>2017-09-19T10:52:59Z</time>
      </trkpt>
      <trkpt lat="43.65535" lon="3.79656">
        <ele>183.1</ele>
        <time>2017-09-19T10:53:02Z</time>
      </trkpt>
      <trkpt lat="43.65532" lon="3.79643">
        <ele>183.1</ele>
        <time>2017-09-19T10:53:05Z</time>
      </trkpt>
      <trkpt lat="43.65529" lon="3.79633">
        <ele>183.1</ele>
        <time>2017-09-19T10:53:08Z</time>
      </trkpt>
      <trkpt lat="43.65527" lon="3.7962">
        <ele>183.2</ele>
        <time>2017-09-19T10:53:11Z</time>
      </trkpt>
      <trkpt lat="43.65522" lon="3.79608">
        <ele>183.2</ele>
        <time>2017-09-19T10:53:14Z</time>
      </trkpt>
      <trkpt lat="43.65516" lon="3.796">
        <ele>183.3</ele>
        <time>2017-09-19T10:53:17Z</time>
      </trkpt>
      <trkpt lat="43.6551" lon="3.79592">
        <ele>183.5</ele>
        <time>2017-09-19T10:53:20Z</time>
      </trkpt>
      <trkpt lat="43.65504" lon="3.79585">
        <ele>183.7</ele>
        <time>2017-09-19T10:53:23Z</time>
      </trkpt>
      <trkpt lat="43.65497" lon="3.79576">
        <ele>184</ele>
        <time>2017-09-19T10:53:26Z</time>
      </trkpt>
      <trkpt lat="43.65491" lon="3.79568">
        <ele>184.3</ele>
        <time>2017-09-19T10:53:29Z</time>
      </trkpt>
      <trkpt lat="43.65484" lon="3.79558">
        <ele>184.7</ele>
        <time>2017-09-19T10:53:32Z</time>
      </trkpt>
      <trkpt lat="43.65479" lon="3.7955">
        <ele>185.1</ele>
        <time>2017-09-19T10:53:35Z</time>
      </trkpt>
      <trkpt lat="43.65473" lon="3.79541">
        <ele>185.6</ele>
        <time>2017-09-19T10:53:38Z</time>
      </trkpt>
      <trkpt lat="43.65465" lon="3.79535">
        <ele>186.1</ele>
        <time>2017-09-19T10:53:41Z</time>
      </trkpt>
      <trkpt lat="43.65457" lon="3.79527">
        <ele>186.6</ele>
        <time>2017-09-19T10:53:44Z</time>
      </trkpt>
      <trkpt lat="43.65448" lon="3.7952">
        <ele>187.1</ele>
        <time>2017-09-19T10:53:47Z</time>
      </trkpt>
      <trkpt lat="43.65441" lon="3.79514">
        <ele>188.8</ele>
        <time>2017-09-19T10:53:49Z</time>
      </trkpt>
      <trkpt lat="43.65434" lon="3.79508">
        <ele>190.9</ele>
        <time>2017-09-19T10:53:51Z</time>
      </trkpt>
      <trkpt lat="43.65427" lon="3.79499">
        <ele>191.9</ele>
        <time>2017-09-19T10:53:53Z</time>
      </trkpt>
      <trkpt lat="43.65418" lon="3.7949">
        <ele>192.3</ele>
        <time>2017-09-19T10:53:55Z</time>
      </trkpt>
      <trkpt lat="43.65406" lon="3.79484">
        <ele>191.8</ele>
        <time>2017-09-19T10:53:57Z</time>
      </trkpt>
      <trkpt lat="43.65398" lon="3.79484">
        <ele>191.4</ele>
        <time>2017-09-19T10:53:58Z</time>
      </trkpt>
      <trkpt lat="43.65388" lon="3.79486">
        <ele>190.8</ele>
        <time>2017-09-19T10:53:59Z</time>
      </trkpt>
      <trkpt lat="43.65378" lon="3.79487">
        <ele>190.4</ele>
        <time>2017-09-19T10:54:00Z</time>
      </trkpt>
      <trkpt lat="43.65368" lon="3.79489">
        <ele>189.7</ele>
        <time>2017-09-19T10:54:01Z</time>
      </trkpt>
      <trkpt lat="43.65358" lon="3.79489">
        <ele>188.9</ele>
        <time>2017-09-19T10:54:02Z</time>
      </trkpt>
      <trkpt lat="43.65349" lon="3.79489">
        <ele>188.4</ele>
        <time>2017-09-19T10:54:03Z</time>
      </trkpt>
      <trkpt lat="43.65339" lon="3.79489">
        <ele>187.9</ele>
        <time>2017-09-19T10:54:04Z</time>
      </trkpt>
      <trkpt lat="43.65329" lon="3.79491">
        <ele>187.2</ele>
        <time>2017-09-19T10:54:05Z</time>
      </trkpt>
      <trkpt lat="43.65318" lon="3.79493">
        <ele>186.5</ele>
        <time>2017-09-19T10:54:06Z</time>
      </trkpt>
      <trkpt lat="43.65308" lon="3.7949">
        <ele>185.9</ele>
        <time>2017-09-19T10:54:07Z</time>
      </trkpt>
      <trkpt lat="43.653" lon="3.79483">
        <ele>185.5</ele>
        <time>2017-09-19T10:54:08Z</time>
      </trkpt>
      <trkpt lat="43.65291" lon="3.79477">
        <ele>184.8</ele>
        <time>2017-09-19T10:54:09Z</time>
      </trkpt>
      <trkpt lat="43.65282" lon="3.79468">
        <ele>184.1</ele>
        <time>2017-09-19T10:54:10Z</time>
      </trkpt>
      <trkpt lat="43.65275" lon="3.79459">
        <ele>183.4</ele>
        <time>2017-09-19T10:54:11Z</time>
      </trkpt>
      <trkpt lat="43.65268" lon="3.7945">
        <ele>182.5</ele>
        <time>2017-09-19T10:54:12Z</time>
      </trkpt>
      <trkpt lat="43.6526" lon="3.79443">
        <ele>181.6</ele>
        <time>2017-09-19T10:54:13Z</time>
      </trkpt>
      <trkpt lat="43.65252" lon="3.79437">
        <ele>180.7</ele>
        <time>2017-09-19T10:54:14Z</time>
      </trkpt>
      <trkpt lat="43.65244" lon="3.79432">
        <ele>179.7</ele>
        <time>2017-09-19T10:54:15Z</time>
      </trkpt>
      <trkpt lat="43.65237" lon="3.79426">
        <ele>179</ele>
        <time>2017-09-19T10:54:16Z</time>
      </trkpt>
      <trkpt lat="43.6523" lon="3.7942">
        <ele>178.2</ele>
        <time>2017-09-19T10:54:17Z</time>
      </trkpt>
      <trkpt lat="43.65225" lon="3.79412">
        <ele>177.2</ele>
        <time>2017-09-19T10:54:18Z</time>
      </trkpt>
      <trkpt lat="43.65219" lon="3.79405">
        <ele>176.5</ele>
        <time>2017-09-19T10:54:19Z</time>
      </trkpt>
      <trkpt lat="43.65209" lon="3.79392">
        <ele>174.8</ele>
        <time>2017-09-19T10:54:21Z</time>
      </trkpt>
      <trkpt lat="43.65202" lon="3.79377">
        <ele>173.1</ele>
        <time>2017-09-19T10:54:23Z</time>
      </trkpt>
      <trkpt lat="43.65193" lon="3.79363">
        <ele>171.7</ele>
        <time>2017-09-19T10:54:25Z</time>
      </trkpt>
      <trkpt lat="43.65184" lon="3.79351">
        <ele>170</ele>
        <time>2017-09-19T10:54:27Z</time>
      </trkpt>
      <trkpt lat="43.65175" lon="3.79337">
        <ele>168.3</ele>
        <time>2017-09-19T10:54:29Z</time>
      </trkpt>
      <trkpt lat="43.6517" lon="3.79322">
        <ele>166.8</ele>
        <time>2017-09-19T10:54:31Z</time>
      </trkpt>
      <trkpt lat="43.65173" lon="3.79311">
        <ele>165.5</ele>
        <time>2017-09-19T10:54:33Z</time>
      </trkpt>
      <trkpt lat="43.65177" lon="3.79298">
        <ele>163.6</ele>
        <time>2017-09-19T10:54:35Z</time>
      </trkpt>
      <trkpt lat="43.65183" lon="3.79283">
        <ele>161.5</ele>
        <time>2017-09-19T10:54:37Z</time>
      </trkpt>
      <trkpt lat="43.65185" lon="3.79273">
        <ele>160.4</ele>
        <time>2017-09-19T10:54:38Z</time>
      </trkpt>
      <trkpt lat="43.65188" lon="3.79262">
        <ele>159.6</ele>
        <time>2017-09-19T10:54:39Z</time>
      </trkpt>
      <trkpt lat="43.65193" lon="3.79254">
        <ele>159.2</ele>
        <time>2017-09-19T10:54:40Z</time>
      </trkpt>
      <trkpt lat="43.65202" lon="3.79242">
        <ele>157.6</ele>
        <time>2017-09-19T10:54:42Z</time>
      </trkpt>
      <trkpt lat="43.65207" lon="3.79231">
        <ele>156.5</ele>
        <time>2017-09-19T10:54:44Z</time>
      </trkpt>
      <trkpt lat="43.65213" lon="3.79219">
        <ele>154.1</ele>
        <time>2017-09-19T10:54:46Z</time>
      </trkpt>
      <trkpt lat="43.65219" lon="3.79206">
        <ele>152.1</ele>
        <time>2017-09-19T10:54:48Z</time>
      </trkpt>
      <trkpt lat="43.65226" lon="3.79197">
        <ele>150.8</ele>
        <time>2017-09-19T10:54:50Z</time>
      </trkpt>
      <trkpt lat="43.65228" lon="3.79187">
        <ele>150.2</ele>
        <time>2017-09-19T10:54:55Z</time>
      </trkpt>
      <trkpt lat="43.65232" lon="3.79178">
        <ele>149.7</ele>
        <time>2017-09-19T10:54:59Z</time>
      </trkpt>
      <trkpt lat="43.65236" lon="3.79167">
        <ele>149.4</ele>
        <time>2017-09-19T10:55:01Z</time>
      </trkpt>
      <trkpt lat="43.65242" lon="3.79157">
        <ele>148.9</ele>
        <time>2017-09-19T10:55:04Z</time>
      </trkpt>
      <trkpt lat="43.65247" lon="3.7915">
        <ele>148.2</ele>
        <time>2017-09-19T10:55:07Z</time>
      </trkpt>
      <trkpt lat="43.65253" lon="3.79139">
        <ele>147.3</ele>
        <time>2017-09-19T10:55:11Z</time>
      </trkpt>
      <trkpt lat="43.65254" lon="3.79125">
        <ele>144.2</ele>
        <time>2017-09-19T10:55:14Z</time>
      </trkpt>
      <trkpt lat="43.65251" lon="3.79112">
        <ele>140.2</ele>
        <time>2017-09-19T10:55:16Z</time>
      </trkpt>
      <trkpt lat="43.65245" lon="3.79099">
        <ele>137</ele>
        <time>2017-09-19T10:55:18Z</time>
      </trkpt>
      <trkpt lat="43.65233" lon="3.79086">
        <ele>134.6</ele>
        <time>2017-09-19T10:55:20Z</time>
      </trkpt>
      <trkpt lat="43.65226" lon="3.79083">
        <ele>133.6</ele>
        <time>2017-09-19T10:55:21Z</time>
      </trkpt>
      <trkpt lat="43.65219" lon="3.7908">
        <ele>132.4</ele>
        <time>2017-09-19T10:55:22Z</time>
      </trkpt>
      <trkpt lat="43.65207" lon="3.79076">
        <ele>129.9</ele>
        <time>2017-09-19T10:55:24Z</time>
      </trkpt>
      <trkpt lat="43.65199" lon="3.79073">
        <ele>127.4</ele>
        <time>2017-09-19T10:55:26Z</time>
      </trkpt>
      <trkpt lat="43.65192" lon="3.79068">
        <ele>127</ele>
        <time>2017-09-19T10:55:30Z</time>
      </trkpt>
      <trkpt lat="43.65184" lon="3.79065">
        <ele>126.6</ele>
        <time>2017-09-19T10:55:34Z</time>
      </trkpt>
      <trkpt lat="43.65174" lon="3.79065">
        <ele>125.5</ele>
        <time>2017-09-19T10:55:38Z</time>
      </trkpt>
      <trkpt lat="43.65167" lon="3.79064">
        <ele>124.3</ele>
        <time>2017-09-19T10:55:40Z</time>
      </trkpt>
      <trkpt lat="43.65159" lon="3.79063">
        <ele>123.5</ele>
        <time>2017-09-19T10:55:42Z</time>
      </trkpt>
      <trkpt lat="43.65151" lon="3.79061">
        <ele>122.6</ele>
        <time>2017-09-19T10:55:44Z</time>
      </trkpt>
      <trkpt lat="43.65143" lon="3.79061">
        <ele>121.8</ele>
        <time>2017-09-19T10:55:46Z</time>
      </trkpt>
      <trkpt lat="43.65135" lon="3.79062">
        <ele>121.2</ele>
        <time>2017-09-19T10:55:48Z</time>
      </trkpt>
      <trkpt lat="43.65124" lon="3.79064">
        <ele>120.5</ele>
        <time>2017-09-19T10:55:51Z</time>
      </trkpt>
      <trkpt lat="43.65116" lon="3.79068">
        <ele>120.5</ele>
        <time>2017-09-19T10:55:53Z</time>
      </trkpt>
      <trkpt lat="43.65109" lon="3.79074">
        <ele>120.5</ele>
        <time>2017-09-19T10:55:55Z</time>
      </trkpt>
      <trkpt lat="43.65101" lon="3.7908">
        <ele>120.5</ele>
        <time>2017-09-19T10:55:57Z</time>
      </trkpt>
      <trkpt lat="43.65094" lon="3.79085">
        <ele>120.5</ele>
        <time>2017-09-19T10:55:59Z</time>
      </trkpt>
      <trkpt lat="43.65086" lon="3.79089">
        <ele>120.4</ele>
        <time>2017-09-19T10:56:01Z</time>
      </trkpt>
      <trkpt lat="43.65077" lon="3.79092">
        <ele>120.4</ele>
        <time>2017-09-19T10:56:04Z</time>
      </trkpt>
      <trkpt lat="43.65069" lon="3.79092">
        <ele>120.4</ele>
        <time>2017-09-19T10:56:07Z</time>
      </trkpt>
      <trkpt lat="43.65071" lon="3.79077">
        <ele>120.3</ele>
        <time>2017-09-19T10:56:11Z</time>
      </trkpt>
      <trkpt lat="43.65078" lon="3.79063">
        <ele>118.7</ele>
        <time>2017-09-19T10:56:13Z</time>
      </trkpt>
      <trkpt lat="43.65086" lon="3.79051">
        <ele>117</ele>
        <time>2017-09-19T10:56:15Z</time>
      </trkpt>
      <trkpt lat="43.65092" lon="3.79038">
        <ele>115.3</ele>
        <time>2017-09-19T10:56:17Z</time>
      </trkpt>
      <trkpt lat="43.65095" lon="3.79025">
        <ele>113.5</ele>
        <time>2017-09-19T10:56:19Z</time>
      </trkpt>
      <trkpt lat="43.65096" lon="3.79012">
        <ele>111.9</ele>
        <time>2017-09-19T10:56:21Z</time>
      </trkpt>
      <trkpt lat="43.65095" lon="3.78998">
        <ele>110.6</ele>
        <time>2017-09-19T10:56:23Z</time>
      </trkpt>
      <trkpt lat="43.65092" lon="3.78982">
        <ele>109.9</ele>
        <time>2017-09-19T10:56:25Z</time>
      </trkpt>
      <trkpt lat="43.65088" lon="3.78969">
        <ele>110.1</ele>
        <time>2017-09-19T10:56:27Z</time>
      </trkpt>
      <trkpt lat="43.65084" lon="3.78958">
        <ele>110.4</ele>
        <time>2017-09-19T10:56:29Z</time>
      </trkpt>
      <trkpt lat="43.6508" lon="3.78946">
        <ele>110.7</ele>
        <time>2017-09-19T10:56:31Z</time>
      </trkpt>
      <trkpt lat="43.65077" lon="3.78935">
        <ele>110.8</ele>
        <time>2017-09-19T10:56:33Z</time>
      </trkpt>
      <trkpt lat="43.65073" lon="3.78925">
        <ele>110.7</ele>
        <time>2017-09-19T10:56:35Z</time>
      </trkpt>
      <trkpt lat="43.65069" lon="3.78915">
        <ele>110.6</ele>
        <time>2017-09-19T10:56:37Z</time>
      </trkpt>
      <trkpt lat="43.65065" lon="3.78902">
        <ele>110.1</ele>
        <time>2017-09-19T10:56:40Z</time>
      </trkpt>
      <trkpt lat="43.65056" lon="3.78914">
        <ele>110.5</ele>
        <time>2017-09-19T10:56:44Z</time>
      </trkpt>
      <trkpt lat="43.65049" lon="3.78924">
        <ele>110.6</ele>
        <time>2017-09-19T10:56:46Z</time>
      </trkpt>
      <trkpt lat="43.65044" lon="3.78931">
        <ele>110.7</ele>
        <time>2017-09-19T10:56:53Z</time>
      </trkpt>
      <trkpt lat="43.65038" lon="3.78942">
        <ele>110.8</ele>
        <time>2017-09-19T10:56:56Z</time>
      </trkpt>
      <trkpt lat="43.65031" lon="3.78948">
        <ele>111</ele>
        <time>2017-09-19T10:56:58Z</time>
      </trkpt>
      <trkpt lat="43.65021" lon="3.78956">
        <ele>110.9</ele>
        <time>2017-09-19T10:57:00Z</time>
      </trkpt>
      <trkpt lat="43.65014" lon="3.78963">
        <ele>110.8</ele>
        <time>2017-09-19T10:57:02Z</time>
      </trkpt>
      <trkpt lat="43.65007" lon="3.7897">
        <ele>110.3</ele>
        <time>2017-09-19T10:57:04Z</time>
      </trkpt>
      <trkpt lat="43.64999" lon="3.78978">
        <ele>109.7</ele>
        <time>2017-09-19T10:57:06Z</time>
      </trkpt>
      <trkpt lat="43.64991" lon="3.78985">
        <ele>108.9</ele>
        <time>2017-09-19T10:57:08Z</time>
      </trkpt>
      <trkpt lat="43.64982" lon="3.78991">
        <ele>108.4</ele>
        <time>2017-09-19T10:57:10Z</time>
      </trkpt>
      <trkpt lat="43.64974" lon="3.78996">
        <ele>107.9</ele>
        <time>2017-09-19T10:57:12Z</time>
      </trkpt>
      <trkpt lat="43.64964" lon="3.79">
        <ele>107.3</ele>
        <time>2017-09-19T10:57:14Z</time>
      </trkpt>
      <trkpt lat="43.64956" lon="3.79007">
        <ele>106.7</ele>
        <time>2017-09-19T10:57:16Z</time>
      </trkpt>
      <trkpt lat="43.64947" lon="3.79015">
        <ele>106.3</ele>
        <time>2017-09-19T10:57:18Z</time>
      </trkpt>
      <trkpt lat="43.64938" lon="3.79022">
        <ele>105.9</ele>
        <time>2017-09-19T10:57:20Z</time>
      </trkpt>
      <trkpt lat="43.64929" lon="3.79029">
        <ele>105.8</ele>
        <time>2017-09-19T10:57:22Z</time>
      </trkpt>
      <trkpt lat="43.64921" lon="3.79034">
        <ele>106</ele>
        <time>2017-09-19T10:57:24Z</time>
      </trkpt>
      <trkpt lat="43.64914" lon="3.79041">
        <ele>106.4</ele>
        <time>2017-09-19T10:57:26Z</time>
      </trkpt>
      <trkpt lat="43.64905" lon="3.79047">
        <ele>106.7</ele>
        <time>2017-09-19T10:57:28Z</time>
      </trkpt>
      <trkpt lat="43.64897" lon="3.79054">
        <ele>107.3</ele>
        <time>2017-09-19T10:57:30Z</time>
      </trkpt>
      <trkpt lat="43.64889" lon="3.79063">
        <ele>107.7</ele>
        <time>2017-09-19T10:57:32Z</time>
      </trkpt>
      <trkpt lat="43.6488" lon="3.79071">
        <ele>108.6</ele>
        <time>2017-09-19T10:57:34Z</time>
      </trkpt>
      <trkpt lat="43.64869" lon="3.79079">
        <ele>109.3</ele>
        <time>2017-09-19T10:57:36Z</time>
      </trkpt>
      <trkpt lat="43.64859" lon="3.79082">
        <ele>109.6</ele>
        <time>2017-09-19T10:57:38Z</time>
      </trkpt>
      <trkpt lat="43.64851" lon="3.79088">
        <ele>110</ele>
        <time>2017-09-19T10:57:40Z</time>
      </trkpt>
      <trkpt lat="43.64843" lon="3.79096">
        <ele>110.3</ele>
        <time>2017-09-19T10:57:43Z</time>
      </trkpt>
      <trkpt lat="43.64838" lon="3.79106">
        <ele>110.6</ele>
        <time>2017-09-19T10:57:45Z</time>
      </trkpt>
      <trkpt lat="43.64833" lon="3.79115">
        <ele>111.2</ele>
        <time>2017-09-19T10:57:47Z</time>
      </trkpt>
      <trkpt lat="43.64827" lon="3.79122">
        <ele>111.3</ele>
        <time>2017-09-19T10:57:49Z</time>
      </trkpt>
      <trkpt lat="43.64817" lon="3.7913">
        <ele>111.3</ele>
        <time>2017-09-19T10:57:52Z</time>
      </trkpt>
      <trkpt lat="43.64808" lon="3.79136">
        <ele>111.4</ele>
        <time>2017-09-19T10:57:55Z</time>
      </trkpt>
      <trkpt lat="43.64801" lon="3.79138">
        <ele>111.5</ele>
        <time>2017-09-19T10:57:58Z</time>
      </trkpt>
      <trkpt lat="43.64794" lon="3.79147">
        <ele>111.7</ele>
        <time>2017-09-19T10:58:03Z</time>
      </trkpt>
      <trkpt lat="43.64786" lon="3.79155">
        <ele>112</ele>
        <time>2017-09-19T10:58:06Z</time>
      </trkpt>
      <trkpt lat="43.64779" lon="3.79154">
        <ele>112.4</ele>
        <time>2017-09-19T10:58:09Z</time>
      </trkpt>
      <trkpt lat="43.64771" lon="3.79162">
        <ele>112.7</ele>
        <time>2017-09-19T10:58:12Z</time>
      </trkpt>
      <trkpt lat="43.64764" lon="3.79169">
        <ele>112.9</ele>
        <time>2017-09-19T10:58:14Z</time>
      </trkpt>
      <trkpt lat="43.64758" lon="3.79176">
        <ele>113.9</ele>
        <time>2017-09-19T10:58:16Z</time>
      </trkpt>
      <trkpt lat="43.64751" lon="3.7918">
        <ele>114.1</ele>
        <time>2017-09-19T10:58:18Z</time>
      </trkpt>
      <trkpt lat="43.64742" lon="3.79189">
        <ele>115.4</ele>
        <time>2017-09-19T10:58:21Z</time>
      </trkpt>
      <trkpt lat="43.64733" lon="3.79193">
        <ele>115.9</ele>
        <time>2017-09-19T10:58:23Z</time>
      </trkpt>
      <trkpt lat="43.64723" lon="3.79198">
        <ele>116.4</ele>
        <time>2017-09-19T10:58:26Z</time>
      </trkpt>
      <trkpt lat="43.64714" lon="3.79201">
        <ele>116.6</ele>
        <time>2017-09-19T10:58:29Z</time>
      </trkpt>
      <trkpt lat="43.64712" lon="3.79215">
        <ele>116.8</ele>
        <time>2017-09-19T10:58:33Z</time>
      </trkpt>
      <trkpt lat="43.64716" lon="3.79231">
        <ele>117</ele>
        <time>2017-09-19T10:58:35Z</time>
      </trkpt>
      <trkpt lat="43.6472" lon="3.79241">
        <ele>117.6</ele>
        <time>2017-09-19T10:58:36Z</time>
      </trkpt>
      <trkpt lat="43.64724" lon="3.79251">
        <ele>118</ele>
        <time>2017-09-19T10:58:37Z</time>
      </trkpt>
      <trkpt lat="43.64724" lon="3.79268">
        <ele>118.1</ele>
        <time>2017-09-19T10:58:39Z</time>
      </trkpt>
      <trkpt lat="43.64719" lon="3.79278">
        <ele>118.1</ele>
        <time>2017-09-19T10:58:41Z</time>
      </trkpt>
      <trkpt lat="43.64711" lon="3.79282">
        <ele>118.2</ele>
        <time>2017-09-19T10:58:43Z</time>
      </trkpt>
      <trkpt lat="43.64702" lon="3.79281">
        <ele>118.2</ele>
        <time>2017-09-19T10:58:45Z</time>
      </trkpt>
      <trkpt lat="43.64693" lon="3.79283">
        <ele>118.3</ele>
        <time>2017-09-19T10:58:48Z</time>
      </trkpt>
      <trkpt lat="43.64687" lon="3.79291">
        <ele>118.3</ele>
        <time>2017-09-19T10:58:51Z</time>
      </trkpt>
      <trkpt lat="43.64683" lon="3.793">
        <ele>118.2</ele>
        <time>2017-09-19T10:58:54Z</time>
      </trkpt>
      <trkpt lat="43.64681" lon="3.79314">
        <ele>118</ele>
        <time>2017-09-19T10:58:57Z</time>
      </trkpt>
      <trkpt lat="43.64677" lon="3.79325">
        <ele>117.7</ele>
        <time>2017-09-19T10:58:59Z</time>
      </trkpt>
      <trkpt lat="43.64676" lon="3.79336">
        <ele>117.4</ele>
        <time>2017-09-19T10:59:01Z</time>
      </trkpt>
      <trkpt lat="43.64675" lon="3.79347">
        <ele>117.2</ele>
        <time>2017-09-19T10:59:03Z</time>
      </trkpt>
      <trkpt lat="43.64672" lon="3.79358">
        <ele>116.7</ele>
        <time>2017-09-19T10:59:05Z</time>
      </trkpt>
      <trkpt lat="43.64668" lon="3.79372">
        <ele>116.6</ele>
        <time>2017-09-19T10:59:07Z</time>
      </trkpt>
      <trkpt lat="43.6466" lon="3.79386">
        <ele>117.7</ele>
        <time>2017-09-19T10:59:09Z</time>
      </trkpt>
      <trkpt lat="43.64651" lon="3.79396">
        <ele>118.8</ele>
        <time>2017-09-19T10:59:11Z</time>
      </trkpt>
      <trkpt lat="43.64643" lon="3.79409">
        <ele>120</ele>
        <time>2017-09-19T10:59:13Z</time>
      </trkpt>
      <trkpt lat="43.64636" lon="3.79421">
        <ele>120.5</ele>
        <time>2017-09-19T10:59:15Z</time>
      </trkpt>
      <trkpt lat="43.64629" lon="3.79433">
        <ele>121.1</ele>
        <time>2017-09-19T10:59:17Z</time>
      </trkpt>
      <trkpt lat="43.64623" lon="3.79443">
        <ele>121.1</ele>
        <time>2017-09-19T10:59:19Z</time>
      </trkpt>
      <trkpt lat="43.64616" lon="3.79448">
        <ele>121</ele>
        <time>2017-09-19T10:59:22Z</time>
      </trkpt>
      <trkpt lat="43.64614" lon="3.79461">
        <ele>120.1</ele>
        <time>2017-09-19T10:59:28Z</time>
      </trkpt>
      <trkpt lat="43.64614" lon="3.79471">
        <ele>119.7</ele>
        <time>2017-09-19T10:59:30Z</time>
      </trkpt>
      <trkpt lat="43.64613" lon="3.79482">
        <ele>119.3</ele>
        <time>2017-09-19T10:59:32Z</time>
      </trkpt>
      <trkpt lat="43.64607" lon="3.79492">
        <ele>117.2</ele>
        <time>2017-09-19T10:59:34Z</time>
      </trkpt>
      <trkpt lat="43.64601" lon="3.79503">
        <ele>113.8</ele>
        <time>2017-09-19T10:59:36Z</time>
      </trkpt>
      <trkpt lat="43.64598" lon="3.79515">
        <ele>111.1</ele>
        <time>2017-09-19T10:59:38Z</time>
      </trkpt>
      <trkpt lat="43.64595" lon="3.79528">
        <ele>109.1</ele>
        <time>2017-09-19T10:59:40Z</time>
      </trkpt>
      <trkpt lat="43.64593" lon="3.79538">
        <ele>108.9</ele>
        <time>2017-09-19T10:59:42Z</time>
      </trkpt>
      <trkpt lat="43.64591" lon="3.7955">
        <ele>107.2</ele>
        <time>2017-09-19T10:59:44Z</time>
      </trkpt>
      <trkpt lat="43.64589" lon="3.79566">
        <ele>106</ele>
        <time>2017-09-19T10:59:46Z</time>
      </trkpt>
      <trkpt lat="43.64586" lon="3.79582">
        <ele>105.4</ele>
        <time>2017-09-19T10:59:48Z</time>
      </trkpt>
      <trkpt lat="43.64582" lon="3.79594">
        <ele>105.4</ele>
        <time>2017-09-19T10:59:50Z</time>
      </trkpt>
      <trkpt lat="43.64577" lon="3.79607">
        <ele>105.9</ele>
        <time>2017-09-19T10:59:52Z</time>
      </trkpt>
      <trkpt lat="43.6457" lon="3.79618">
        <ele>106.6</ele>
        <time>2017-09-19T10:59:54Z</time>
      </trkpt>
      <trkpt lat="43.64567" lon="3.7963">
        <ele>107.2</ele>
        <time>2017-09-19T10:59:56Z</time>
      </trkpt>
      <trkpt lat="43.64562" lon="3.79641">
        <ele>107.9</ele>
        <time>2017-09-19T10:59:58Z</time>
      </trkpt>
      <trkpt lat="43.64558" lon="3.79654">
        <ele>108.1</ele>
        <time>2017-09-19T11:00:00Z</time>
      </trkpt>
      <trkpt lat="43.64555" lon="3.79665">
        <ele>108.2</ele>
        <time>2017-09-19T11:00:02Z</time>
      </trkpt>
      <trkpt lat="43.64548" lon="3.79672">
        <ele>108.3</ele>
        <time>2017-09-19T11:00:04Z</time>
      </trkpt>
      <trkpt lat="43.6454" lon="3.79683">
        <ele>108.2</ele>
        <time>2017-09-19T11:00:06Z</time>
      </trkpt>
      <trkpt lat="43.64535" lon="3.79695">
        <ele>108.1</ele>
        <time>2017-09-19T11:00:08Z</time>
      </trkpt>
      <trkpt lat="43.64527" lon="3.79707">
        <ele>107.9</ele>
        <time>2017-09-19T11:00:10Z</time>
      </trkpt>
      <trkpt lat="43.64521" lon="3.79718">
        <ele>107.7</ele>
        <time>2017-09-19T11:00:12Z</time>
      </trkpt>
      <trkpt lat="43.64516" lon="3.79732">
        <ele>108.1</ele>
        <time>2017-09-19T11:00:14Z</time>
      </trkpt>
      <trkpt lat="43.64508" lon="3.79742">
        <ele>109</ele>
        <time>2017-09-19T11:00:16Z</time>
      </trkpt>
      <trkpt lat="43.645" lon="3.79751">
        <ele>109.8</ele>
        <time>2017-09-19T11:00:18Z</time>
      </trkpt>
      <trkpt lat="43.64494" lon="3.79758">
        <ele>109.9</ele>
        <time>2017-09-19T11:00:20Z</time>
      </trkpt>
      <trkpt lat="43.64485" lon="3.79767">
        <ele>109.9</ele>
        <time>2017-09-19T11:00:23Z</time>
      </trkpt>
      <trkpt lat="43.64478" lon="3.79772">
        <ele>110</ele>
        <time>2017-09-19T11:00:25Z</time>
      </trkpt>
      <trkpt lat="43.64472" lon="3.7978">
        <ele>110</ele>
        <time>2017-09-19T11:00:27Z</time>
      </trkpt>
      <trkpt lat="43.64464" lon="3.79783">
        <ele>109.9</ele>
        <time>2017-09-19T11:00:29Z</time>
      </trkpt>
      <trkpt lat="43.64456" lon="3.79786">
        <ele>110.5</ele>
        <time>2017-09-19T11:00:31Z</time>
      </trkpt>
      <trkpt lat="43.64446" lon="3.79792">
        <ele>111.2</ele>
        <time>2017-09-19T11:00:33Z</time>
      </trkpt>
      <trkpt lat="43.64435" lon="3.79796">
        <ele>111.6</ele>
        <time>2017-09-19T11:00:35Z</time>
      </trkpt>
      <trkpt lat="43.64422" lon="3.79794">
        <ele>111.6</ele>
        <time>2017-09-19T11:00:37Z</time>
      </trkpt>
      <trkpt lat="43.64411" lon="3.79789">
        <ele>111.2</ele>
        <time>2017-09-19T11:00:39Z</time>
      </trkpt>
      <trkpt lat="43.64402" lon="3.79786">
        <ele>110.7</ele>
        <time>2017-09-19T11:00:41Z</time>
      </trkpt>
      <trkpt lat="43.64392" lon="3.79786">
        <ele>110.3</ele>
        <time>2017-09-19T11:00:43Z</time>
      </trkpt>
      <trkpt lat="43.64381" lon="3.7979">
        <ele>110</ele>
        <time>2017-09-19T11:00:45Z</time>
      </trkpt>
      <trkpt lat="43.64372" lon="3.79795">
        <ele>109.4</ele>
        <time>2017-09-19T11:00:47Z</time>
      </trkpt>
      <trkpt lat="43.64362" lon="3.79799">
        <ele>109</ele>
        <time>2017-09-19T11:00:49Z</time>
      </trkpt>
      <trkpt lat="43.64353" lon="3.79802">
        <ele>108.7</ele>
        <time>2017-09-19T11:00:51Z</time>
      </trkpt>
      <trkpt lat="43.64344" lon="3.79806">
        <ele>108.5</ele>
        <time>2017-09-19T11:00:53Z</time>
      </trkpt>
      <trkpt lat="43.64334" lon="3.79811">
        <ele>108.2</ele>
        <time>2017-09-19T11:00:56Z</time>
      </trkpt>
      <trkpt lat="43.64326" lon="3.79816">
        <ele>108.2</ele>
        <time>2017-09-19T11:00:58Z</time>
      </trkpt>
      <trkpt lat="43.64319" lon="3.79822">
        <ele>108.4</ele>
        <time>2017-09-19T11:01:00Z</time>
      </trkpt>
      <trkpt lat="43.64311" lon="3.79826">
        <ele>108.4</ele>
        <time>2017-09-19T11:01:02Z</time>
      </trkpt>
      <trkpt lat="43.64302" lon="3.79828">
        <ele>108.4</ele>
        <time>2017-09-19T11:01:04Z</time>
      </trkpt>
      <trkpt lat="43.64293" lon="3.79831">
        <ele>108.6</ele>
        <time>2017-09-19T11:01:06Z</time>
      </trkpt>
      <trkpt lat="43.64284" lon="3.79834">
        <ele>108.7</ele>
        <time>2017-09-19T11:01:08Z</time>
      </trkpt>
      <trkpt lat="43.64276" lon="3.79841">
        <ele>109</ele>
        <time>2017-09-19T11:01:10Z</time>
      </trkpt>
      <trkpt lat="43.64267" lon="3.79846">
        <ele>109.3</ele>
        <time>2017-09-19T11:01:12Z</time>
      </trkpt>
      <trkpt lat="43.64259" lon="3.79851">
        <ele>109.7</ele>
        <time>2017-09-19T11:01:14Z</time>
      </trkpt>
      <trkpt lat="43.6425" lon="3.79855">
        <ele>110.1</ele>
        <time>2017-09-19T11:01:16Z</time>
      </trkpt>
      <trkpt lat="43.64241" lon="3.7986">
        <ele>110.4</ele>
        <time>2017-09-19T11:01:18Z</time>
      </trkpt>
      <trkpt lat="43.64233" lon="3.79867">
        <ele>110.6</ele>
        <time>2017-09-19T11:01:20Z</time>
      </trkpt>
      <trkpt lat="43.64228" lon="3.79876">
        <ele>110.1</ele>
        <time>2017-09-19T11:01:22Z</time>
      </trkpt>
      <trkpt lat="43.64227" lon="3.79892">
        <ele>109.4</ele>
        <time>2017-09-19T11:01:24Z</time>
      </trkpt>
      <trkpt lat="43.6422" lon="3.799">
        <ele>108.9</ele>
        <time>2017-09-19T11:01:26Z</time>
      </trkpt>
      <trkpt lat="43.64211" lon="3.79895">
        <ele>108.2</ele>
        <time>2017-09-19T11:01:28Z</time>
      </trkpt>
      <trkpt lat="43.64202" lon="3.79894">
        <ele>107.8</ele>
        <time>2017-09-19T11:01:30Z</time>
      </trkpt>
      <trkpt lat="43.64193" lon="3.799">
        <ele>106.9</ele>
        <time>2017-09-19T11:01:32Z</time>
      </trkpt>
      <trkpt lat="43.64183" lon="3.79907">
        <ele>106.2</ele>
        <time>2017-09-19T11:01:34Z</time>
      </trkpt>
      <trkpt lat="43.64174" lon="3.79914">
        <ele>105.5</ele>
        <time>2017-09-19T11:01:36Z</time>
      </trkpt>
      <trkpt lat="43.64166" lon="3.79919">
        <ele>104.6</ele>
        <time>2017-09-19T11:01:38Z</time>
      </trkpt>
      <trkpt lat="43.64157" lon="3.79926">
        <ele>103.6</ele>
        <time>2017-09-19T11:01:40Z</time>
      </trkpt>
      <trkpt lat="43.64151" lon="3.79931">
        <ele>103</ele>
        <time>2017-09-19T11:01:42Z</time>
      </trkpt>
      <trkpt lat="43.64143" lon="3.79939">
        <ele>102.1</ele>
        <time>2017-09-19T11:01:44Z</time>
      </trkpt>
      <trkpt lat="43.64134" lon="3.79944">
        <ele>101.2</ele>
        <time>2017-09-19T11:01:46Z</time>
      </trkpt>
      <trkpt lat="43.64125" lon="3.79949">
        <ele>100.5</ele>
        <time>2017-09-19T11:01:48Z</time>
      </trkpt>
      <trkpt lat="43.64119" lon="3.79954">
        <ele>100.3</ele>
        <time>2017-09-19T11:01:50Z</time>
      </trkpt>
      <trkpt lat="43.64111" lon="3.79962">
        <ele>99.8</ele>
        <time>2017-09-19T11:01:52Z</time>
      </trkpt>
      <trkpt lat="43.64103" lon="3.79969">
        <ele>99.5</ele>
        <time>2017-09-19T11:01:54Z</time>
      </trkpt>
      <trkpt lat="43.64095" lon="3.79976">
        <ele>99.3</ele>
        <time>2017-09-19T11:01:56Z</time>
      </trkpt>
      <trkpt lat="43.64086" lon="3.7998">
        <ele>98.9</ele>
        <time>2017-09-19T11:01:58Z</time>
      </trkpt>
      <trkpt lat="43.64076" lon="3.79986">
        <ele>98.4</ele>
        <time>2017-09-19T11:02:00Z</time>
      </trkpt>
      <trkpt lat="43.64067" lon="3.79993">
        <ele>97.6</ele>
        <time>2017-09-19T11:02:02Z</time>
      </trkpt>
      <trkpt lat="43.64059" lon="3.79997">
        <ele>97.1</ele>
        <time>2017-09-19T11:02:04Z</time>
      </trkpt>
      <trkpt lat="43.64052" lon="3.80002">
        <ele>96.5</ele>
        <time>2017-09-19T11:02:06Z</time>
      </trkpt>
      <trkpt lat="43.64045" lon="3.80007">
        <ele>96.3</ele>
        <time>2017-09-19T11:02:08Z</time>
      </trkpt>
      <trkpt lat="43.64037" lon="3.80013">
        <ele>96.1</ele>
        <time>2017-09-19T11:02:10Z</time>
      </trkpt>
      <trkpt lat="43.6403" lon="3.80019">
        <ele>96</ele>
        <time>2017-09-19T11:02:12Z</time>
      </trkpt>
      <trkpt lat="43.64023" lon="3.80026">
        <ele>96</ele>
        <time>2017-09-19T11:02:14Z</time>
      </trkpt>
      <trkpt lat="43.64015" lon="3.80033">
        <ele>96.1</ele>
        <time>2017-09-19T11:02:16Z</time>
      </trkpt>
      <trkpt lat="43.64009" lon="3.80039">
        <ele>96.1</ele>
        <time>2017-09-19T11:02:18Z</time>
      </trkpt>
      <trkpt lat="43.64002" lon="3.80045">
        <ele>96.7</ele>
        <time>2017-09-19T11:02:20Z</time>
      </trkpt>
      <trkpt lat="43.63994" lon="3.80051">
        <ele>97.2</ele>
        <time>2017-09-19T11:02:22Z</time>
      </trkpt>
      <trkpt lat="43.63987" lon="3.80057">
        <ele>97.3</ele>
        <time>2017-09-19T11:02:24Z</time>
      </trkpt>
      <trkpt lat="43.6398" lon="3.80062">
        <ele>98.5</ele>
        <time>2017-09-19T11:02:26Z</time>
      </trkpt>
      <trkpt lat="43.63972" lon="3.80068">
        <ele>99.7</ele>
        <time>2017-09-19T11:02:28Z</time>
      </trkpt>
      <trkpt lat="43.63964" lon="3.80073">
        <ele>100.7</ele>
        <time>2017-09-19T11:02:30Z</time>
      </trkpt>
      <trkpt lat="43.63956" lon="3.80076">
        <ele>101.3</ele>
        <time>2017-09-19T11:02:32Z</time>
      </trkpt>
      <trkpt lat="43.63948" lon="3.8008">
        <ele>101.6</ele>
        <time>2017-09-19T11:02:34Z</time>
      </trkpt>
      <trkpt lat="43.6394" lon="3.80085">
        <ele>102.1</ele>
        <time>2017-09-19T11:02:36Z</time>
      </trkpt>
      <trkpt lat="43.63932" lon="3.80088">
        <ele>101.9</ele>
        <time>2017-09-19T11:02:38Z</time>
      </trkpt>
      <trkpt lat="43.63925" lon="3.80092">
        <ele>101.9</ele>
        <time>2017-09-19T11:02:40Z</time>
      </trkpt>
      <trkpt lat="43.63917" lon="3.80094">
        <ele>101.9</ele>
        <time>2017-09-19T11:02:42Z</time>
      </trkpt>
      <trkpt lat="43.6391" lon="3.80097">
        <ele>102</ele>
        <time>2017-09-19T11:02:44Z</time>
      </trkpt>
      <trkpt lat="43.63902" lon="3.80102">
        <ele>101.8</ele>
        <time>2017-09-19T11:02:46Z</time>
      </trkpt>
      <trkpt lat="43.63894" lon="3.80105">
        <ele>101.8</ele>
        <time>2017-09-19T11:02:48Z</time>
      </trkpt>
      <trkpt lat="43.63887" lon="3.8011">
        <ele>101.4</ele>
        <time>2017-09-19T11:02:50Z</time>
      </trkpt>
      <trkpt lat="43.63879" lon="3.80115">
        <ele>101.2</ele>
        <time>2017-09-19T11:02:52Z</time>
      </trkpt>
      <trkpt lat="43.63874" lon="3.80122">
        <ele>101.3</ele>
        <time>2017-09-19T11:02:54Z</time>
      </trkpt>
      <trkpt lat="43.6387" lon="3.80132">
        <ele>101.6</ele>
        <time>2017-09-19T11:02:57Z</time>
      </trkpt>
      <trkpt lat="43.63864" lon="3.80141">
        <ele>101.6</ele>
        <time>2017-09-19T11:02:59Z</time>
      </trkpt>
      <trkpt lat="43.63857" lon="3.80146">
        <ele>101.4</ele>
        <time>2017-09-19T11:03:02Z</time>
      </trkpt>
      <trkpt lat="43.63849" lon="3.80155">
        <ele>101.3</ele>
        <time>2017-09-19T11:03:05Z</time>
      </trkpt>
      <trkpt lat="43.63842" lon="3.80164">
        <ele>101.3</ele>
        <time>2017-09-19T11:03:08Z</time>
      </trkpt>
      <trkpt lat="43.63835" lon="3.80174">
        <ele>101.2</ele>
        <time>2017-09-19T11:03:11Z</time>
      </trkpt>
      <trkpt lat="43.63832" lon="3.80185">
        <ele>101.1</ele>
        <time>2017-09-19T11:03:14Z</time>
      </trkpt>
      <trkpt lat="43.63832" lon="3.80197">
        <ele>101</ele>
        <time>2017-09-19T11:03:17Z</time>
      </trkpt>
      <trkpt lat="43.63833" lon="3.80209">
        <ele>100.9</ele>
        <time>2017-09-19T11:03:20Z</time>
      </trkpt>
      <trkpt lat="43.63832" lon="3.80224">
        <ele>100.7</ele>
        <time>2017-09-19T11:03:23Z</time>
      </trkpt>
      <trkpt lat="43.63833" lon="3.80234">
        <ele>100.6</ele>
        <time>2017-09-19T11:03:25Z</time>
      </trkpt>
      <trkpt lat="43.63833" lon="3.80249">
        <ele>100.5</ele>
        <time>2017-09-19T11:03:28Z</time>
      </trkpt>
      <trkpt lat="43.63836" lon="3.80263">
        <ele>100.4</ele>
        <time>2017-09-19T11:03:31Z</time>
      </trkpt>
      <trkpt lat="43.6384" lon="3.80275">
        <ele>100.3</ele>
        <time>2017-09-19T11:03:34Z</time>
      </trkpt>
      <trkpt lat="43.63845" lon="3.80287">
        <ele>99.9</ele>
        <time>2017-09-19T11:03:37Z</time>
      </trkpt>
      <trkpt lat="43.63852" lon="3.80294">
        <ele>99.6</ele>
        <time>2017-09-19T11:03:40Z</time>
      </trkpt>
      <trkpt lat="43.63856" lon="3.80306">
        <ele>99.4</ele>
        <time>2017-09-19T11:03:42Z</time>
      </trkpt>
      <trkpt lat="43.63857" lon="3.80318">
        <ele>99.1</ele>
        <time>2017-09-19T11:03:44Z</time>
      </trkpt>
      <trkpt lat="43.63854" lon="3.80332">
        <ele>99</ele>
        <time>2017-09-19T11:03:46Z</time>
      </trkpt>
      <trkpt lat="43.6385" lon="3.80346">
        <ele>98.8</ele>
        <time>2017-09-19T11:03:48Z</time>
      </trkpt>
      <trkpt lat="43.63846" lon="3.80362">
        <ele>98.2</ele>
        <time>2017-09-19T11:03:50Z</time>
      </trkpt>
      <trkpt lat="43.63844" lon="3.80379">
        <ele>97.6</ele>
        <time>2017-09-19T11:03:52Z</time>
      </trkpt>
      <trkpt lat="43.63849" lon="3.80389">
        <ele>97.3</ele>
        <time>2017-09-19T11:03:54Z</time>
      </trkpt>
      <trkpt lat="43.63851" lon="3.8039">
        <ele>97.2</ele>
        <time>2017-09-19T11:04:02Z</time>
      </trkpt>
      <trkpt lat="43.63843" lon="3.80389">
        <ele>97.3</ele>
        <time>2017-09-19T11:04:07Z</time>
      </trkpt>
      <trkpt lat="43.63839" lon="3.80378">
        <ele>97.3</ele>
        <time>2017-09-19T11:04:14Z</time>
      </trkpt>
      <trkpt lat="43.63839" lon="3.80365">
        <ele>97.2</ele>
        <time>2017-09-19T11:04:19Z</time>
      </trkpt>
      <trkpt lat="43.6384" lon="3.80354">
        <ele>97</ele>
        <time>2017-09-19T11:04:23Z</time>
      </trkpt>
      <trkpt lat="43.63842" lon="3.80343">
        <ele>96.8</ele>
        <time>2017-09-19T11:04:26Z</time>
      </trkpt>
      <trkpt lat="43.63845" lon="3.80331">
        <ele>96.7</ele>
        <time>2017-09-19T11:04:29Z</time>
      </trkpt>
      <trkpt lat="43.63846" lon="3.80318">
        <ele>96.6</ele>
        <time>2017-09-19T11:04:32Z</time>
      </trkpt>
      <trkpt lat="43.63845" lon="3.80305">
        <ele>96.6</ele>
        <time>2017-09-19T11:04:35Z</time>
      </trkpt>
      <trkpt lat="43.6384" lon="3.80295">
        <ele>96.8</ele>
        <time>2017-09-19T11:04:38Z</time>
      </trkpt>
      <trkpt lat="43.63839" lon="3.80285">
        <ele>97</ele>
        <time>2017-09-19T11:04:42Z</time>
      </trkpt>
      <trkpt lat="43.63846" lon="3.80278">
        <ele>97.4</ele>
        <time>2017-09-19T11:04:47Z</time>
      </trkpt>
      <trkpt lat="43.63852" lon="3.80289">
        <ele>97.8</ele>
        <time>2017-09-19T11:04:51Z</time>
      </trkpt>
      <trkpt lat="43.63858" lon="3.803">
        <ele>98.2</ele>
        <time>2017-09-19T11:04:54Z</time>
      </trkpt>
      <trkpt lat="43.63863" lon="3.80312">
        <ele>98.6</ele>
        <time>2017-09-19T11:04:57Z</time>
      </trkpt>
      <trkpt lat="43.63867" lon="3.80322">
        <ele>98.8</ele>
        <time>2017-09-19T11:04:59Z</time>
      </trkpt>
      <trkpt lat="43.63871" lon="3.8033">
        <ele>99.1</ele>
        <time>2017-09-19T11:05:01Z</time>
      </trkpt>
      <trkpt lat="43.63875" lon="3.80339">
        <ele>99.3</ele>
        <time>2017-09-19T11:05:03Z</time>
      </trkpt>
      <trkpt lat="43.6388" lon="3.80348">
        <ele>101.2</ele>
        <time>2017-09-19T11:05:05Z</time>
      </trkpt>
      <trkpt lat="43.63886" lon="3.8036">
        <ele>102.4</ele>
        <time>2017-09-19T11:05:07Z</time>
      </trkpt>
      <trkpt lat="43.63891" lon="3.8037">
        <ele>103.3</ele>
        <time>2017-09-19T11:05:09Z</time>
      </trkpt>
      <trkpt lat="43.63896" lon="3.8038">
        <ele>104</ele>
        <time>2017-09-19T11:05:11Z</time>
      </trkpt>
      <trkpt lat="43.639" lon="3.80389">
        <ele>104.4</ele>
        <time>2017-09-19T11:05:13Z</time>
      </trkpt>
      <trkpt lat="43.63904" lon="3.80399">
        <ele>104.9</ele>
        <time>2017-09-19T11:05:15Z</time>
      </trkpt>
      <trkpt lat="43.63908" lon="3.8041">
        <ele>105.5</ele>
        <time>2017-09-19T11:05:17Z</time>
      </trkpt>
      <trkpt lat="43.63913" lon="3.80423">
        <ele>105.9</ele>
        <time>2017-09-19T11:05:19Z</time>
      </trkpt>
      <trkpt lat="43.63918" lon="3.80437">
        <ele>105.9</ele>
        <time>2017-09-19T11:05:21Z</time>
      </trkpt>
      <trkpt lat="43.63921" lon="3.80452">
        <ele>105.5</ele>
        <time>2017-09-19T11:05:23Z</time>
      </trkpt>
      <trkpt lat="43.6392" lon="3.80467">
        <ele>105</ele>
        <time>2017-09-19T11:05:25Z</time>
      </trkpt>
      <trkpt lat="43.63919" lon="3.80485">
        <ele>104.9</ele>
        <time>2017-09-19T11:05:27Z</time>
      </trkpt>
      <trkpt lat="43.63919" lon="3.805">
        <ele>104.8</ele>
        <time>2017-09-19T11:05:29Z</time>
      </trkpt>
      <trkpt lat="43.63918" lon="3.80516">
        <ele>104.1</ele>
        <time>2017-09-19T11:05:31Z</time>
      </trkpt>
      <trkpt lat="43.63917" lon="3.80532">
        <ele>103.3</ele>
        <time>2017-09-19T11:05:33Z</time>
      </trkpt>
      <trkpt lat="43.63917" lon="3.80547">
        <ele>102.5</ele>
        <time>2017-09-19T11:05:35Z</time>
      </trkpt>
      <trkpt lat="43.63917" lon="3.80561">
        <ele>102</ele>
        <time>2017-09-19T11:05:37Z</time>
      </trkpt>
      <trkpt lat="43.63918" lon="3.80577">
        <ele>101.7</ele>
        <time>2017-09-19T11:05:39Z</time>
      </trkpt>
      <trkpt lat="43.63916" lon="3.80592">
        <ele>101.1</ele>
        <time>2017-09-19T11:05:41Z</time>
      </trkpt>
      <trkpt lat="43.63916" lon="3.80606">
        <ele>100.4</ele>
        <time>2017-09-19T11:05:43Z</time>
      </trkpt>
      <trkpt lat="43.63917" lon="3.8062">
        <ele>99.9</ele>
        <time>2017-09-19T11:05:45Z</time>
      </trkpt>
      <trkpt lat="43.63917" lon="3.80633">
        <ele>98.9</ele>
        <time>2017-09-19T11:05:47Z</time>
      </trkpt>
      <trkpt lat="43.63915" lon="3.80644">
        <ele>97.8</ele>
        <time>2017-09-19T11:05:49Z</time>
      </trkpt>
      <trkpt lat="43.63915" lon="3.80657">
        <ele>97.2</ele>
        <time>2017-09-19T11:05:51Z</time>
      </trkpt>
      <trkpt lat="43.63921" lon="3.80663">
        <ele>97.2</ele>
        <time>2017-09-19T11:05:55Z</time>
      </trkpt>
      <trkpt lat="43.63928" lon="3.80659">
        <ele>96.9</ele>
        <time>2017-09-19T11:06:01Z</time>
      </trkpt>
      <trkpt lat="43.63937" lon="3.80657">
        <ele>96.8</ele>
        <time>2017-09-19T11:06:05Z</time>
      </trkpt>
      <trkpt lat="43.63946" lon="3.80655">
        <ele>96.7</ele>
        <time>2017-09-19T11:06:09Z</time>
      </trkpt>
      <trkpt lat="43.63953" lon="3.80651">
        <ele>96.6</ele>
        <time>2017-09-19T11:06:13Z</time>
      </trkpt>
      <trkpt lat="43.63962" lon="3.80649">
        <ele>96.5</ele>
        <time>2017-09-19T11:06:17Z</time>
      </trkpt>
      <trkpt lat="43.63971" lon="3.80648">
        <ele>96.6</ele>
        <time>2017-09-19T11:06:21Z</time>
      </trkpt>
      <trkpt lat="43.63978" lon="3.80645">
        <ele>96.9</ele>
        <time>2017-09-19T11:06:25Z</time>
      </trkpt>
      <trkpt lat="43.63986" lon="3.80644">
        <ele>97.2</ele>
        <time>2017-09-19T11:06:29Z</time>
      </trkpt>
      <trkpt lat="43.63993" lon="3.80637">
        <ele>97.6</ele>
        <time>2017-09-19T11:06:34Z</time>
      </trkpt>
      <trkpt lat="43.64" lon="3.80634">
        <ele>97.9</ele>
        <time>2017-09-19T11:06:37Z</time>
      </trkpt>
      <trkpt lat="43.64007" lon="3.80631">
        <ele>98.4</ele>
        <time>2017-09-19T11:06:41Z</time>
      </trkpt>
      <trkpt lat="43.64014" lon="3.80628">
        <ele>99</ele>
        <time>2017-09-19T11:06:45Z</time>
      </trkpt>
      <trkpt lat="43.64021" lon="3.80623">
        <ele>99.9</ele>
        <time>2017-09-19T11:06:51Z</time>
      </trkpt>
      <trkpt lat="43.64028" lon="3.80618">
        <ele>100.6</ele>
        <time>2017-09-19T11:06:55Z</time>
      </trkpt>
      <trkpt lat="43.64037" lon="3.80615">
        <ele>101.5</ele>
        <time>2017-09-19T11:07:00Z</time>
      </trkpt>
      <trkpt lat="43.64045" lon="3.80617">
        <ele>102.5</ele>
        <time>2017-09-19T11:07:05Z</time>
      </trkpt>
      <trkpt lat="43.64053" lon="3.80617">
        <ele>103.5</ele>
        <time>2017-09-19T11:07:10Z</time>
      </trkpt>
      <trkpt lat="43.64059" lon="3.80625">
        <ele>104.8</ele>
        <time>2017-09-19T11:07:16Z</time>
      </trkpt>
      <trkpt lat="43.64066" lon="3.80632">
        <ele>106.1</ele>
        <time>2017-09-19T11:07:22Z</time>
      </trkpt>
      <trkpt lat="43.6407" lon="3.80624">
        <ele>107.4</ele>
        <time>2017-09-19T11:07:29Z</time>
      </trkpt>
      <trkpt lat="43.64074" lon="3.80615">
        <ele>108.4</ele>
        <time>2017-09-19T11:07:36Z</time>
      </trkpt>
      <trkpt lat="43.64083" lon="3.80609">
        <ele>109.1</ele>
        <time>2017-09-19T11:07:41Z</time>
      </trkpt>
      <trkpt lat="43.6409" lon="3.80606">
        <ele>110.1</ele>
        <time>2017-09-19T11:07:46Z</time>
      </trkpt>
      <trkpt lat="43.64096" lon="3.80599">
        <ele>111.4</ele>
        <time>2017-09-19T11:07:53Z</time>
      </trkpt>
      <trkpt lat="43.64099" lon="3.8059">
        <ele>112.1</ele>
        <time>2017-09-19T11:08:00Z</time>
      </trkpt>
      <trkpt lat="43.64107" lon="3.80585">
        <ele>112.8</ele>
        <time>2017-09-19T11:08:06Z</time>
      </trkpt>
      <trkpt lat="43.64112" lon="3.80594">
        <ele>113.7</ele>
        <time>2017-09-19T11:08:11Z</time>
      </trkpt>
      <trkpt lat="43.64117" lon="3.80603">
        <ele>114.6</ele>
        <time>2017-09-19T11:08:16Z</time>
      </trkpt>
      <trkpt lat="43.64123" lon="3.80607">
        <ele>115.1</ele>
        <time>2017-09-19T11:08:20Z</time>
      </trkpt>
      <trkpt lat="43.64131" lon="3.80611">
        <ele>115.9</ele>
        <time>2017-09-19T11:08:25Z</time>
      </trkpt>
      <trkpt lat="43.64138" lon="3.80612">
        <ele>116.9</ele>
        <time>2017-09-19T11:08:31Z</time>
      </trkpt>
      <trkpt lat="43.64146" lon="3.80618">
        <ele>118.4</ele>
        <time>2017-09-19T11:08:38Z</time>
      </trkpt>
      <trkpt lat="43.64152" lon="3.80627">
        <ele>119.6</ele>
        <time>2017-09-19T11:08:43Z</time>
      </trkpt>
      <trkpt lat="43.64156" lon="3.80637">
        <ele>120.6</ele>
        <time>2017-09-19T11:08:47Z</time>
      </trkpt>
      <trkpt lat="43.6416" lon="3.80646">
        <ele>121.6</ele>
        <time>2017-09-19T11:08:51Z</time>
      </trkpt>
      <trkpt lat="43.64161" lon="3.80658">
        <ele>122.8</ele>
        <time>2017-09-19T11:08:56Z</time>
      </trkpt>
      <trkpt lat="43.64162" lon="3.80668">
        <ele>124.1</ele>
        <time>2017-09-19T11:09:01Z</time>
      </trkpt>
      <trkpt lat="43.64162" lon="3.80682">
        <ele>125.6</ele>
        <time>2017-09-19T11:09:06Z</time>
      </trkpt>
      <trkpt lat="43.64166" lon="3.80694">
        <ele>127</ele>
        <time>2017-09-19T11:09:11Z</time>
      </trkpt>
      <trkpt lat="43.64167" lon="3.80705">
        <ele>128.1</ele>
        <time>2017-09-19T11:09:15Z</time>
      </trkpt>
      <trkpt lat="43.6417" lon="3.80717">
        <ele>129.4</ele>
        <time>2017-09-19T11:09:20Z</time>
      </trkpt>
      <trkpt lat="43.64171" lon="3.8073">
        <ele>130.5</ele>
        <time>2017-09-19T11:09:25Z</time>
      </trkpt>
      <trkpt lat="43.64169" lon="3.80744">
        <ele>131.3</ele>
        <time>2017-09-19T11:09:30Z</time>
      </trkpt>
      <trkpt lat="43.64169" lon="3.80754">
        <ele>131.9</ele>
        <time>2017-09-19T11:09:34Z</time>
      </trkpt>
      <trkpt lat="43.64166" lon="3.80763">
        <ele>132.6</ele>
        <time>2017-09-19T11:09:40Z</time>
      </trkpt>
      <trkpt lat="43.64165" lon="3.80773">
        <ele>133.9</ele>
        <time>2017-09-19T11:09:46Z</time>
      </trkpt>
      <trkpt lat="43.64164" lon="3.80785">
        <ele>134.9</ele>
        <time>2017-09-19T11:09:50Z</time>
      </trkpt>
      <trkpt lat="43.64164" lon="3.80795">
        <ele>135.8</ele>
        <time>2017-09-19T11:09:55Z</time>
      </trkpt>
      <trkpt lat="43.64164" lon="3.80807">
        <ele>136.7</ele>
        <time>2017-09-19T11:10:00Z</time>
      </trkpt>
      <trkpt lat="43.64166" lon="3.80819">
        <ele>137.5</ele>
        <time>2017-09-19T11:10:06Z</time>
      </trkpt>
      <trkpt lat="43.64168" lon="3.8083">
        <ele>138.3</ele>
        <time>2017-09-19T11:10:12Z</time>
      </trkpt>
      <trkpt lat="43.6417" lon="3.8084">
        <ele>139</ele>
        <time>2017-09-19T11:10:16Z</time>
      </trkpt>
      <trkpt lat="43.64173" lon="3.80852">
        <ele>139.6</ele>
        <time>2017-09-19T11:10:19Z</time>
      </trkpt>
      <trkpt lat="43.64174" lon="3.80862">
        <ele>140.2</ele>
        <time>2017-09-19T11:10:22Z</time>
      </trkpt>
      <trkpt lat="43.64176" lon="3.80872">
        <ele>141.1</ele>
        <time>2017-09-19T11:10:27Z</time>
      </trkpt>
      <trkpt lat="43.64181" lon="3.80879">
        <ele>142.6</ele>
        <time>2017-09-19T11:10:33Z</time>
      </trkpt>
      <trkpt lat="43.64186" lon="3.8089">
        <ele>144.5</ele>
        <time>2017-09-19T11:10:39Z</time>
      </trkpt>
      <trkpt lat="43.64187" lon="3.809">
        <ele>145.4</ele>
        <time>2017-09-19T11:10:42Z</time>
      </trkpt>
      <trkpt lat="43.64183" lon="3.80908">
        <ele>146.3</ele>
        <time>2017-09-19T11:10:45Z</time>
      </trkpt>
      <trkpt lat="43.64178" lon="3.80919">
        <ele>147.5</ele>
        <time>2017-09-19T11:10:50Z</time>
      </trkpt>
      <trkpt lat="43.64175" lon="3.80928">
        <ele>148.2</ele>
        <time>2017-09-19T11:10:54Z</time>
      </trkpt>
      <trkpt lat="43.64169" lon="3.80936">
        <ele>149</ele>
        <time>2017-09-19T11:10:59Z</time>
      </trkpt>
      <trkpt lat="43.64162" lon="3.80945">
        <ele>149.5</ele>
        <time>2017-09-19T11:11:02Z</time>
      </trkpt>
      <trkpt lat="43.64157" lon="3.80955">
        <ele>150</ele>
        <time>2017-09-19T11:11:05Z</time>
      </trkpt>
      <trkpt lat="43.64152" lon="3.80963">
        <ele>150.2</ele>
        <time>2017-09-19T11:11:07Z</time>
      </trkpt>
      <trkpt lat="43.64146" lon="3.80979">
        <ele>152.1</ele>
        <time>2017-09-19T11:11:09Z</time>
      </trkpt>
      <trkpt lat="43.64139" lon="3.80992">
        <ele>152.7</ele>
        <time>2017-09-19T11:11:11Z</time>
      </trkpt>
      <trkpt lat="43.64133" lon="3.81">
        <ele>152.8</ele>
        <time>2017-09-19T11:11:14Z</time>
      </trkpt>
      <trkpt lat="43.64124" lon="3.81008">
        <ele>152.9</ele>
        <time>2017-09-19T11:11:17Z</time>
      </trkpt>
      <trkpt lat="43.64118" lon="3.81015">
        <ele>152.9</ele>
        <time>2017-09-19T11:11:22Z</time>
      </trkpt>
      <trkpt lat="43.64115" lon="3.81025">
        <ele>153.2</ele>
        <time>2017-09-19T11:11:26Z</time>
      </trkpt>
      <trkpt lat="43.64114" lon="3.81038">
        <ele>153.3</ele>
        <time>2017-09-19T11:11:30Z</time>
      </trkpt>
      <trkpt lat="43.64113" lon="3.81048">
        <ele>153.4</ele>
        <time>2017-09-19T11:11:34Z</time>
      </trkpt>
      <trkpt lat="43.6411" lon="3.81057">
        <ele>153.9</ele>
        <time>2017-09-19T11:11:38Z</time>
      </trkpt>
      <trkpt lat="43.64106" lon="3.81065">
        <ele>154.3</ele>
        <time>2017-09-19T11:11:42Z</time>
      </trkpt>
      <trkpt lat="43.64097" lon="3.81076">
        <ele>154.9</ele>
        <time>2017-09-19T11:11:46Z</time>
      </trkpt>
      <trkpt lat="43.64089" lon="3.81079">
        <ele>155.3</ele>
        <time>2017-09-19T11:11:49Z</time>
      </trkpt>
      <trkpt lat="43.64086" lon="3.81089">
        <ele>155.9</ele>
        <time>2017-09-19T11:11:53Z</time>
      </trkpt>
      <trkpt lat="43.64085" lon="3.81099">
        <ele>156.9</ele>
        <time>2017-09-19T11:12:00Z</time>
      </trkpt>
      <trkpt lat="43.64092" lon="3.81104">
        <ele>158.1</ele>
        <time>2017-09-19T11:12:05Z</time>
      </trkpt>
      <trkpt lat="43.64099" lon="3.81112">
        <ele>159.2</ele>
        <time>2017-09-19T11:12:09Z</time>
      </trkpt>
      <trkpt lat="43.64105" lon="3.81122">
        <ele>160.4</ele>
        <time>2017-09-19T11:12:13Z</time>
      </trkpt>
      <trkpt lat="43.64113" lon="3.81132">
        <ele>161.5</ele>
        <time>2017-09-19T11:12:17Z</time>
      </trkpt>
      <trkpt lat="43.64119" lon="3.81139">
        <ele>162.3</ele>
        <time>2017-09-19T11:12:20Z</time>
      </trkpt>
      <trkpt lat="43.64126" lon="3.81145">
        <ele>163</ele>
        <time>2017-09-19T11:12:23Z</time>
      </trkpt>
      <trkpt lat="43.64132" lon="3.8115">
        <ele>163.7</ele>
        <time>2017-09-19T11:12:26Z</time>
      </trkpt>
      <trkpt lat="43.64139" lon="3.81154">
        <ele>164.6</ele>
        <time>2017-09-19T11:12:29Z</time>
      </trkpt>
      <trkpt lat="43.64145" lon="3.81162">
        <ele>165.4</ele>
        <time>2017-09-19T11:12:32Z</time>
      </trkpt>
      <trkpt lat="43.64152" lon="3.81171">
        <ele>166</ele>
        <time>2017-09-19T11:12:35Z</time>
      </trkpt>
      <trkpt lat="43.64157" lon="3.8118">
        <ele>166.6</ele>
        <time>2017-09-19T11:12:38Z</time>
      </trkpt>
      <trkpt lat="43.64163" lon="3.81188">
        <ele>167.2</ele>
        <time>2017-09-19T11:12:41Z</time>
      </trkpt>
      <trkpt lat="43.64168" lon="3.81194">
        <ele>167.8</ele>
        <time>2017-09-19T11:12:44Z</time>
      </trkpt>
      <trkpt lat="43.64174" lon="3.81204">
        <ele>168.3</ele>
        <time>2017-09-19T11:12:47Z</time>
      </trkpt>
      <trkpt lat="43.6418" lon="3.81212">
        <ele>168.8</ele>
        <time>2017-09-19T11:12:50Z</time>
      </trkpt>
      <trkpt lat="43.64187" lon="3.81222">
        <ele>169.1</ele>
        <time>2017-09-19T11:12:53Z</time>
      </trkpt>
      <trkpt lat="43.64194" lon="3.81233">
        <ele>169.5</ele>
        <time>2017-09-19T11:12:56Z</time>
      </trkpt>
      <trkpt lat="43.64199" lon="3.81243">
        <ele>169.7</ele>
        <time>2017-09-19T11:12:59Z</time>
      </trkpt>
      <trkpt lat="43.64204" lon="3.8125">
        <ele>169.9</ele>
        <time>2017-09-19T11:13:02Z</time>
      </trkpt>
      <trkpt lat="43.64212" lon="3.81244">
        <ele>169.9</ele>
        <time>2017-09-19T11:13:05Z</time>
      </trkpt>
      <trkpt lat="43.64218" lon="3.81239">
        <ele>169.5</ele>
        <time>2017-09-19T11:13:07Z</time>
      </trkpt>
      <trkpt lat="43.64228" lon="3.81228">
        <ele>168.5</ele>
        <time>2017-09-19T11:13:09Z</time>
      </trkpt>
      <trkpt lat="43.64233" lon="3.81222">
        <ele>168.1</ele>
        <time>2017-09-19T11:13:10Z</time>
      </trkpt>
      <trkpt lat="43.64243" lon="3.81208">
        <ele>166.9</ele>
        <time>2017-09-19T11:13:12Z</time>
      </trkpt>
      <trkpt lat="43.64248" lon="3.81201">
        <ele>166.8</ele>
        <time>2017-09-19T11:13:14Z</time>
      </trkpt>
      <trkpt lat="43.64258" lon="3.81203">
        <ele>166.6</ele>
        <time>2017-09-19T11:13:19Z</time>
      </trkpt>
      <trkpt lat="43.64262" lon="3.81203">
        <ele>166.3</ele>
        <time>2017-09-19T11:13:27Z</time>
      </trkpt>
      <trkpt lat="43.6427" lon="3.81205">
        <ele>165.7</ele>
        <time>2017-09-19T11:13:33Z</time>
      </trkpt>
      <trkpt lat="43.64278" lon="3.81212">
        <ele>165.4</ele>
        <time>2017-09-19T11:13:36Z</time>
      </trkpt>
      <trkpt lat="43.64286" lon="3.81219">
        <ele>165</ele>
        <time>2017-09-19T11:13:39Z</time>
      </trkpt>
      <trkpt lat="43.64297" lon="3.81223">
        <ele>163.6</ele>
        <time>2017-09-19T11:13:42Z</time>
      </trkpt>
      <trkpt lat="43.64305" lon="3.81229">
        <ele>163.3</ele>
        <time>2017-09-19T11:13:45Z</time>
      </trkpt>
      <trkpt lat="43.6431" lon="3.8124">
        <ele>163</ele>
        <time>2017-09-19T11:13:47Z</time>
      </trkpt>
      <trkpt lat="43.64314" lon="3.81251">
        <ele>162.7</ele>
        <time>2017-09-19T11:13:49Z</time>
      </trkpt>
      <trkpt lat="43.64319" lon="3.8126">
        <ele>162.1</ele>
        <time>2017-09-19T11:13:52Z</time>
      </trkpt>
      <trkpt lat="43.64323" lon="3.8127">
        <ele>161.4</ele>
        <time>2017-09-19T11:13:56Z</time>
      </trkpt>
      <trkpt lat="43.64328" lon="3.8128">
        <ele>160.9</ele>
        <time>2017-09-19T11:13:59Z</time>
      </trkpt>
      <trkpt lat="43.64332" lon="3.81289">
        <ele>160.1</ele>
        <time>2017-09-19T11:14:03Z</time>
      </trkpt>
      <trkpt lat="43.64338" lon="3.81296">
        <ele>159.3</ele>
        <time>2017-09-19T11:14:07Z</time>
      </trkpt>
      <trkpt lat="43.64342" lon="3.81305">
        <ele>158.6</ele>
        <time>2017-09-19T11:14:11Z</time>
      </trkpt>
      <trkpt lat="43.64347" lon="3.81315">
        <ele>157.8</ele>
        <time>2017-09-19T11:14:15Z</time>
      </trkpt>
      <trkpt lat="43.64351" lon="3.81327">
        <ele>156.3</ele>
        <time>2017-09-19T11:14:22Z</time>
      </trkpt>
      <trkpt lat="43.64357" lon="3.81335">
        <ele>155.5</ele>
        <time>2017-09-19T11:14:25Z</time>
      </trkpt>
      <trkpt lat="43.64361" lon="3.81346">
        <ele>154.9</ele>
        <time>2017-09-19T11:14:28Z</time>
      </trkpt>
      <trkpt lat="43.64362" lon="3.81356">
        <ele>154.1</ele>
        <time>2017-09-19T11:14:33Z</time>
      </trkpt>
      <trkpt lat="43.64367" lon="3.81363">
        <ele>153.7</ele>
        <time>2017-09-19T11:14:37Z</time>
      </trkpt>
      <trkpt lat="43.64372" lon="3.81372">
        <ele>153.4</ele>
        <time>2017-09-19T11:14:41Z</time>
      </trkpt>
      <trkpt lat="43.64377" lon="3.8138">
        <ele>153</ele>
        <time>2017-09-19T11:14:47Z</time>
      </trkpt>
      <trkpt lat="43.64382" lon="3.81389">
        <ele>152.9</ele>
        <time>2017-09-19T11:14:52Z</time>
      </trkpt>
      <trkpt lat="43.64387" lon="3.81396">
        <ele>153.1</ele>
        <time>2017-09-19T11:14:57Z</time>
      </trkpt>
      <trkpt lat="43.64391" lon="3.81404">
        <ele>153.2</ele>
        <time>2017-09-19T11:14:59Z</time>
      </trkpt>
      <trkpt lat="43.64396" lon="3.81416">
        <ele>153.4</ele>
        <time>2017-09-19T11:15:02Z</time>
      </trkpt>
      <trkpt lat="43.644" lon="3.81422">
        <ele>153.9</ele>
        <time>2017-09-19T11:15:09Z</time>
      </trkpt>
      <trkpt lat="43.64406" lon="3.81429">
        <ele>154.6</ele>
        <time>2017-09-19T11:15:15Z</time>
      </trkpt>
      <trkpt lat="43.6441" lon="3.81437">
        <ele>155.2</ele>
        <time>2017-09-19T11:15:19Z</time>
      </trkpt>
      <trkpt lat="43.64418" lon="3.81446">
        <ele>155.9</ele>
        <time>2017-09-19T11:15:23Z</time>
      </trkpt>
      <trkpt lat="43.64425" lon="3.81454">
        <ele>159.3</ele>
        <time>2017-09-19T11:15:25Z</time>
      </trkpt>
      <trkpt lat="43.64431" lon="3.81467">
        <ele>160.8</ele>
        <time>2017-09-19T11:15:27Z</time>
      </trkpt>
      <trkpt lat="43.64437" lon="3.81478">
        <ele>161.3</ele>
        <time>2017-09-19T11:15:29Z</time>
      </trkpt>
      <trkpt lat="43.64444" lon="3.81488">
        <ele>161.8</ele>
        <time>2017-09-19T11:15:31Z</time>
      </trkpt>
      <trkpt lat="43.64451" lon="3.815">
        <ele>161.8</ele>
        <time>2017-09-19T11:15:33Z</time>
      </trkpt>
      <trkpt lat="43.64458" lon="3.81508">
        <ele>161.8</ele>
        <time>2017-09-19T11:15:34Z</time>
      </trkpt>
      <trkpt lat="43.64464" lon="3.81516">
        <ele>161.8</ele>
        <time>2017-09-19T11:15:35Z</time>
      </trkpt>
      <trkpt lat="43.64469" lon="3.81526">
        <ele>161.4</ele>
        <time>2017-09-19T11:15:36Z</time>
      </trkpt>
      <trkpt lat="43.64473" lon="3.81537">
        <ele>160.8</ele>
        <time>2017-09-19T11:15:37Z</time>
      </trkpt>
      <trkpt lat="43.64477" lon="3.81549">
        <ele>160.2</ele>
        <time>2017-09-19T11:15:38Z</time>
      </trkpt>
      <trkpt lat="43.6448" lon="3.81561">
        <ele>159.4</ele>
        <time>2017-09-19T11:15:39Z</time>
      </trkpt>
      <trkpt lat="43.64482" lon="3.81575">
        <ele>159.1</ele>
        <time>2017-09-19T11:15:41Z</time>
      </trkpt>
      <trkpt lat="43.64485" lon="3.81586">
        <ele>158.8</ele>
        <time>2017-09-19T11:15:44Z</time>
      </trkpt>
      <trkpt lat="43.64487" lon="3.816">
        <ele>158.3</ele>
        <time>2017-09-19T11:15:47Z</time>
      </trkpt>
      <trkpt lat="43.64487" lon="3.8161">
        <ele>157.8</ele>
        <time>2017-09-19T11:15:50Z</time>
      </trkpt>
      <trkpt lat="43.64488" lon="3.81621">
        <ele>157</ele>
        <time>2017-09-19T11:15:54Z</time>
      </trkpt>
      <trkpt lat="43.6449" lon="3.81631">
        <ele>156.3</ele>
        <time>2017-09-19T11:15:57Z</time>
      </trkpt>
      <trkpt lat="43.64491" lon="3.81641">
        <ele>155.5</ele>
        <time>2017-09-19T11:16:01Z</time>
      </trkpt>
      <trkpt lat="43.64493" lon="3.81654">
        <ele>154.5</ele>
        <time>2017-09-19T11:16:06Z</time>
      </trkpt>
      <trkpt lat="43.64495" lon="3.81666">
        <ele>153.5</ele>
        <time>2017-09-19T11:16:11Z</time>
      </trkpt>
      <trkpt lat="43.64497" lon="3.81678">
        <ele>152.8</ele>
        <time>2017-09-19T11:16:15Z</time>
      </trkpt>
      <trkpt lat="43.64499" lon="3.81688">
        <ele>152.5</ele>
        <time>2017-09-19T11:16:18Z</time>
      </trkpt>
      <trkpt lat="43.64501" lon="3.81699">
        <ele>152.2</ele>
        <time>2017-09-19T11:16:21Z</time>
      </trkpt>
      <trkpt lat="43.64502" lon="3.8171">
        <ele>152</ele>
        <time>2017-09-19T11:16:25Z</time>
      </trkpt>
      <trkpt lat="43.64504" lon="3.81723">
        <ele>151.8</ele>
        <time>2017-09-19T11:16:28Z</time>
      </trkpt>
      <trkpt lat="43.64506" lon="3.81736">
        <ele>151.6</ele>
        <time>2017-09-19T11:16:31Z</time>
      </trkpt>
      <trkpt lat="43.64509" lon="3.81748">
        <ele>151.2</ele>
        <time>2017-09-19T11:16:35Z</time>
      </trkpt>
      <trkpt lat="43.64508" lon="3.81759">
        <ele>150.7</ele>
        <time>2017-09-19T11:16:39Z</time>
      </trkpt>
      <trkpt lat="43.64507" lon="3.81769">
        <ele>150.4</ele>
        <time>2017-09-19T11:16:42Z</time>
      </trkpt>
      <trkpt lat="43.64508" lon="3.8178">
        <ele>150.1</ele>
        <time>2017-09-19T11:16:45Z</time>
      </trkpt>
      <trkpt lat="43.64505" lon="3.8179">
        <ele>149.7</ele>
        <time>2017-09-19T11:16:48Z</time>
      </trkpt>
      <trkpt lat="43.64504" lon="3.818">
        <ele>149.3</ele>
        <time>2017-09-19T11:16:51Z</time>
      </trkpt>
      <trkpt lat="43.64502" lon="3.81814">
        <ele>148.7</ele>
        <time>2017-09-19T11:16:55Z</time>
      </trkpt>
      <trkpt lat="43.64498" lon="3.81826">
        <ele>148.3</ele>
        <time>2017-09-19T11:16:58Z</time>
      </trkpt>
      <trkpt lat="43.64496" lon="3.81836">
        <ele>147.9</ele>
        <time>2017-09-19T11:17:00Z</time>
      </trkpt>
      <trkpt lat="43.64492" lon="3.8185">
        <ele>147.3</ele>
        <time>2017-09-19T11:17:03Z</time>
      </trkpt>
      <trkpt lat="43.6449" lon="3.8186">
        <ele>146.5</ele>
        <time>2017-09-19T11:17:06Z</time>
      </trkpt>
      <trkpt lat="43.64488" lon="3.81871">
        <ele>145.9</ele>
        <time>2017-09-19T11:17:09Z</time>
      </trkpt>
      <trkpt lat="43.64486" lon="3.81882">
        <ele>145.3</ele>
        <time>2017-09-19T11:17:12Z</time>
      </trkpt>
      <trkpt lat="43.64483" lon="3.81893">
        <ele>145</ele>
        <time>2017-09-19T11:17:15Z</time>
      </trkpt>
      <trkpt lat="43.64481" lon="3.81906">
        <ele>144.8</ele>
        <time>2017-09-19T11:17:18Z</time>
      </trkpt>
      <trkpt lat="43.64477" lon="3.81917">
        <ele>144.9</ele>
        <time>2017-09-19T11:17:21Z</time>
      </trkpt>
      <trkpt lat="43.64477" lon="3.8193">
        <ele>145.1</ele>
        <time>2017-09-19T11:17:24Z</time>
      </trkpt>
      <trkpt lat="43.64472" lon="3.81939">
        <ele>146</ele>
        <time>2017-09-19T11:17:26Z</time>
      </trkpt>
      <trkpt lat="43.64465" lon="3.81946">
        <ele>146.1</ele>
        <time>2017-09-19T11:17:28Z</time>
      </trkpt>
      <trkpt lat="43.64456" lon="3.81956">
        <ele>146.2</ele>
        <time>2017-09-19T11:17:30Z</time>
      </trkpt>
      <trkpt lat="43.64448" lon="3.81967">
        <ele>146.9</ele>
        <time>2017-09-19T11:17:32Z</time>
      </trkpt>
      <trkpt lat="43.64439" lon="3.81977">
        <ele>147.7</ele>
        <time>2017-09-19T11:17:34Z</time>
      </trkpt>
      <trkpt lat="43.64432" lon="3.81988">
        <ele>148.3</ele>
        <time>2017-09-19T11:17:36Z</time>
      </trkpt>
      <trkpt lat="43.64425" lon="3.81997">
        <ele>148.3</ele>
        <time>2017-09-19T11:17:38Z</time>
      </trkpt>
      <trkpt lat="43.64418" lon="3.82007">
        <ele>148.1</ele>
        <time>2017-09-19T11:17:40Z</time>
      </trkpt>
      <trkpt lat="43.64411" lon="3.82018">
        <ele>147.9</ele>
        <time>2017-09-19T11:17:42Z</time>
      </trkpt>
      <trkpt lat="43.64405" lon="3.82029">
        <ele>147.8</ele>
        <time>2017-09-19T11:17:44Z</time>
      </trkpt>
      <trkpt lat="43.64399" lon="3.82039">
        <ele>147.9</ele>
        <time>2017-09-19T11:17:46Z</time>
      </trkpt>
      <trkpt lat="43.64395" lon="3.8205">
        <ele>147.9</ele>
        <time>2017-09-19T11:17:48Z</time>
      </trkpt>
      <trkpt lat="43.64391" lon="3.8206">
        <ele>148</ele>
        <time>2017-09-19T11:17:50Z</time>
      </trkpt>
      <trkpt lat="43.64386" lon="3.8207">
        <ele>148.4</ele>
        <time>2017-09-19T11:17:52Z</time>
      </trkpt>
      <trkpt lat="43.64379" lon="3.8208">
        <ele>148.4</ele>
        <time>2017-09-19T11:17:54Z</time>
      </trkpt>
      <trkpt lat="43.64375" lon="3.8209">
        <ele>148.7</ele>
        <time>2017-09-19T11:17:56Z</time>
      </trkpt>
      <trkpt lat="43.64368" lon="3.82101">
        <ele>148.6</ele>
        <time>2017-09-19T11:17:58Z</time>
      </trkpt>
      <trkpt lat="43.64367" lon="3.82111">
        <ele>148.5</ele>
        <time>2017-09-19T11:18:00Z</time>
      </trkpt>
      <trkpt lat="43.64359" lon="3.82121">
        <ele>148.5</ele>
        <time>2017-09-19T11:18:03Z</time>
      </trkpt>
      <trkpt lat="43.6435" lon="3.8212">
        <ele>148.6</ele>
        <time>2017-09-19T11:18:06Z</time>
      </trkpt>
      <trkpt lat="43.64347" lon="3.8213">
        <ele>148.7</ele>
        <time>2017-09-19T11:18:10Z</time>
      </trkpt>
      <trkpt lat="43.64344" lon="3.82142">
        <ele>148.8</ele>
        <time>2017-09-19T11:18:14Z</time>
      </trkpt>
      <trkpt lat="43.64344" lon="3.82153">
        <ele>148.8</ele>
        <time>2017-09-19T11:18:18Z</time>
      </trkpt>
      <trkpt lat="43.64347" lon="3.82162">
        <ele>148.9</ele>
        <time>2017-09-19T11:18:22Z</time>
      </trkpt>
      <trkpt lat="43.64343" lon="3.82171">
        <ele>148.9</ele>
        <time>2017-09-19T11:18:27Z</time>
      </trkpt>
      <trkpt lat="43.64339" lon="3.82185">
        <ele>148.9</ele>
        <time>2017-09-19T11:18:33Z</time>
      </trkpt>
      <trkpt lat="43.64343" lon="3.82198">
        <ele>148.8</ele>
        <time>2017-09-19T11:18:36Z</time>
      </trkpt>
      <trkpt lat="43.64347" lon="3.82209">
        <ele>148.2</ele>
        <time>2017-09-19T11:18:38Z</time>
      </trkpt>
      <trkpt lat="43.64351" lon="3.8222">
        <ele>147.6</ele>
        <time>2017-09-19T11:18:40Z</time>
      </trkpt>
      <trkpt lat="43.64356" lon="3.82231">
        <ele>147.1</ele>
        <time>2017-09-19T11:18:42Z</time>
      </trkpt>
      <trkpt lat="43.64361" lon="3.82243">
        <ele>146.7</ele>
        <time>2017-09-19T11:18:44Z</time>
      </trkpt>
      <trkpt lat="43.64367" lon="3.82251">
        <ele>146.4</ele>
        <time>2017-09-19T11:18:46Z</time>
      </trkpt>
      <trkpt lat="43.6437" lon="3.82261">
        <ele>146.4</ele>
        <time>2017-09-19T11:18:48Z</time>
      </trkpt>
      <trkpt lat="43.64364" lon="3.8227">
        <ele>146.4</ele>
        <time>2017-09-19T11:18:51Z</time>
      </trkpt>
      <trkpt lat="43.64358" lon="3.82277">
        <ele>146.4</ele>
        <time>2017-09-19T11:18:53Z</time>
      </trkpt>
      <trkpt lat="43.64353" lon="3.82284">
        <ele>146.4</ele>
        <time>2017-09-19T11:18:55Z</time>
      </trkpt>
      <trkpt lat="43.64342" lon="3.82289">
        <ele>146.3</ele>
        <time>2017-09-19T11:18:57Z</time>
      </trkpt>
      <trkpt lat="43.6433" lon="3.82293">
        <ele>145.3</ele>
        <time>2017-09-19T11:18:59Z</time>
      </trkpt>
      <trkpt lat="43.64319" lon="3.82297">
        <ele>144.3</ele>
        <time>2017-09-19T11:19:01Z</time>
      </trkpt>
      <trkpt lat="43.64309" lon="3.82301">
        <ele>143.7</ele>
        <time>2017-09-19T11:19:03Z</time>
      </trkpt>
      <trkpt lat="43.64299" lon="3.82299">
        <ele>143.4</ele>
        <time>2017-09-19T11:19:05Z</time>
      </trkpt>
      <trkpt lat="43.6429" lon="3.82304">
        <ele>142.7</ele>
        <time>2017-09-19T11:19:08Z</time>
      </trkpt>
      <trkpt lat="43.64281" lon="3.8231">
        <ele>141.9</ele>
        <time>2017-09-19T11:19:10Z</time>
      </trkpt>
      <trkpt lat="43.64271" lon="3.82311">
        <ele>141.1</ele>
        <time>2017-09-19T11:19:12Z</time>
      </trkpt>
      <trkpt lat="43.64263" lon="3.82308">
        <ele>140.8</ele>
        <time>2017-09-19T11:19:14Z</time>
      </trkpt>
      <trkpt lat="43.64254" lon="3.82304">
        <ele>140.7</ele>
        <time>2017-09-19T11:19:17Z</time>
      </trkpt>
      <trkpt lat="43.64246" lon="3.82306">
        <ele>140.7</ele>
        <time>2017-09-19T11:19:19Z</time>
      </trkpt>
      <trkpt lat="43.64237" lon="3.82308">
        <ele>140.8</ele>
        <time>2017-09-19T11:19:22Z</time>
      </trkpt>
      <trkpt lat="43.64228" lon="3.82309">
        <ele>140.9</ele>
        <time>2017-09-19T11:19:25Z</time>
      </trkpt>
      <trkpt lat="43.64219" lon="3.82309">
        <ele>141</ele>
        <time>2017-09-19T11:19:28Z</time>
      </trkpt>
      <trkpt lat="43.6421" lon="3.82314">
        <ele>141.3</ele>
        <time>2017-09-19T11:19:32Z</time>
      </trkpt>
      <trkpt lat="43.64202" lon="3.82321">
        <ele>141.6</ele>
        <time>2017-09-19T11:19:35Z</time>
      </trkpt>
      <trkpt lat="43.64195" lon="3.82328">
        <ele>141.8</ele>
        <time>2017-09-19T11:19:37Z</time>
      </trkpt>
      <trkpt lat="43.64188" lon="3.82336">
        <ele>141.9</ele>
        <time>2017-09-19T11:19:39Z</time>
      </trkpt>
      <trkpt lat="43.64185" lon="3.82346">
        <ele>142</ele>
        <time>2017-09-19T11:19:42Z</time>
      </trkpt>
      <trkpt lat="43.64185" lon="3.82358">
        <ele>142.3</ele>
        <time>2017-09-19T11:19:46Z</time>
      </trkpt>
      <trkpt lat="43.64184" lon="3.82369">
        <ele>142.5</ele>
        <time>2017-09-19T11:19:49Z</time>
      </trkpt>
      <trkpt lat="43.64176" lon="3.82375">
        <ele>142.8</ele>
        <time>2017-09-19T11:19:53Z</time>
      </trkpt>
      <trkpt lat="43.64169" lon="3.82385">
        <ele>142.9</ele>
        <time>2017-09-19T11:19:56Z</time>
      </trkpt>
      <trkpt lat="43.64167" lon="3.82397">
        <ele>143</ele>
        <time>2017-09-19T11:19:59Z</time>
      </trkpt>
      <trkpt lat="43.64162" lon="3.82407">
        <ele>143.2</ele>
        <time>2017-09-19T11:20:01Z</time>
      </trkpt>
      <trkpt lat="43.64157" lon="3.82418">
        <ele>143.2</ele>
        <time>2017-09-19T11:20:03Z</time>
      </trkpt>
      <trkpt lat="43.64154" lon="3.8243">
        <ele>143.3</ele>
        <time>2017-09-19T11:20:06Z</time>
      </trkpt>
      <trkpt lat="43.64151" lon="3.82441">
        <ele>143.4</ele>
        <time>2017-09-19T11:20:09Z</time>
      </trkpt>
      <trkpt lat="43.64154" lon="3.82454">
        <ele>143.9</ele>
        <time>2017-09-19T11:20:12Z</time>
      </trkpt>
      <trkpt lat="43.64149" lon="3.82463">
        <ele>144</ele>
        <time>2017-09-19T11:20:14Z</time>
      </trkpt>
      <trkpt lat="43.64144" lon="3.82474">
        <ele>144.1</ele>
        <time>2017-09-19T11:20:16Z</time>
      </trkpt>
      <trkpt lat="43.64142" lon="3.82487">
        <ele>144.1</ele>
        <time>2017-09-19T11:20:18Z</time>
      </trkpt>
      <trkpt lat="43.64133" lon="3.825">
        <ele>144.1</ele>
        <time>2017-09-19T11:20:20Z</time>
      </trkpt>
      <trkpt lat="43.64125" lon="3.82513">
        <ele>143.3</ele>
        <time>2017-09-19T11:20:22Z</time>
      </trkpt>
      <trkpt lat="43.64121" lon="3.82522">
        <ele>142.9</ele>
        <time>2017-09-19T11:20:23Z</time>
      </trkpt>
      <trkpt lat="43.64117" lon="3.8253">
        <ele>142.6</ele>
        <time>2017-09-19T11:20:24Z</time>
      </trkpt>
      <trkpt lat="43.64114" lon="3.8254">
        <ele>142.2</ele>
        <time>2017-09-19T11:20:25Z</time>
      </trkpt>
      <trkpt lat="43.64112" lon="3.8255">
        <ele>141.9</ele>
        <time>2017-09-19T11:20:26Z</time>
      </trkpt>
      <trkpt lat="43.64107" lon="3.82566">
        <ele>141.4</ele>
        <time>2017-09-19T11:20:28Z</time>
      </trkpt>
      <trkpt lat="43.641" lon="3.82582">
        <ele>140.9</ele>
        <time>2017-09-19T11:20:30Z</time>
      </trkpt>
      <trkpt lat="43.64095" lon="3.826">
        <ele>140.9</ele>
        <time>2017-09-19T11:20:32Z</time>
      </trkpt>
      <trkpt lat="43.64092" lon="3.82609">
        <ele>140.8</ele>
        <time>2017-09-19T11:20:33Z</time>
      </trkpt>
      <trkpt lat="43.64089" lon="3.82621">
        <ele>140.7</ele>
        <time>2017-09-19T11:20:34Z</time>
      </trkpt>
      <trkpt lat="43.64087" lon="3.82632">
        <ele>140.7</ele>
        <time>2017-09-19T11:20:35Z</time>
      </trkpt>
      <trkpt lat="43.64084" lon="3.82643">
        <ele>140.6</ele>
        <time>2017-09-19T11:20:36Z</time>
      </trkpt>
      <trkpt lat="43.6408" lon="3.82653">
        <ele>140.5</ele>
        <time>2017-09-19T11:20:37Z</time>
      </trkpt>
      <trkpt lat="43.64074" lon="3.82662">
        <ele>140.3</ele>
        <time>2017-09-19T11:20:38Z</time>
      </trkpt>
      <trkpt lat="43.64068" lon="3.82671">
        <ele>140</ele>
        <time>2017-09-19T11:20:39Z</time>
      </trkpt>
      <trkpt lat="43.64063" lon="3.82681">
        <ele>139.8</ele>
        <time>2017-09-19T11:20:40Z</time>
      </trkpt>
      <trkpt lat="43.64061" lon="3.82692">
        <ele>139.4</ele>
        <time>2017-09-19T11:20:41Z</time>
      </trkpt>
      <trkpt lat="43.64059" lon="3.82703">
        <ele>139.2</ele>
        <time>2017-09-19T11:20:42Z</time>
      </trkpt>
      <trkpt lat="43.64054" lon="3.82713">
        <ele>139</ele>
        <time>2017-09-19T11:20:43Z</time>
      </trkpt>
      <trkpt lat="43.64049" lon="3.82722">
        <ele>138.8</ele>
        <time>2017-09-19T11:20:44Z</time>
      </trkpt>
      <trkpt lat="43.64044" lon="3.82731">
        <ele>138.5</ele>
        <time>2017-09-19T11:20:45Z</time>
      </trkpt>
      <trkpt lat="43.64038" lon="3.82739">
        <ele>138</ele>
        <time>2017-09-19T11:20:46Z</time>
      </trkpt>
      <trkpt lat="43.64034" lon="3.82748">
        <ele>137.6</ele>
        <time>2017-09-19T11:20:47Z</time>
      </trkpt>
      <trkpt lat="43.64031" lon="3.82758">
        <ele>137.3</ele>
        <time>2017-09-19T11:20:48Z</time>
      </trkpt>
      <trkpt lat="43.64021" lon="3.82771">
        <ele>136.2</ele>
        <time>2017-09-19T11:20:50Z</time>
      </trkpt>
      <trkpt lat="43.64016" lon="3.82787">
        <ele>135.5</ele>
        <time>2017-09-19T11:20:52Z</time>
      </trkpt>
      <trkpt lat="43.64006" lon="3.82794">
        <ele>134.4</ele>
        <time>2017-09-19T11:20:54Z</time>
      </trkpt>
      <trkpt lat="43.63993" lon="3.82795">
        <ele>133</ele>
        <time>2017-09-19T11:20:56Z</time>
      </trkpt>
      <trkpt lat="43.63979" lon="3.82799">
        <ele>131.2</ele>
        <time>2017-09-19T11:20:58Z</time>
      </trkpt>
      <trkpt lat="43.63972" lon="3.82802">
        <ele>130.2</ele>
        <time>2017-09-19T11:20:59Z</time>
      </trkpt>
      <trkpt lat="43.63959" lon="3.82812">
        <ele>128.5</ele>
        <time>2017-09-19T11:21:01Z</time>
      </trkpt>
      <trkpt lat="43.63947" lon="3.8282">
        <ele>127.2</ele>
        <time>2017-09-19T11:21:03Z</time>
      </trkpt>
      <trkpt lat="43.63941" lon="3.82823">
        <ele>126.6</ele>
        <time>2017-09-19T11:21:04Z</time>
      </trkpt>
      <trkpt lat="43.63928" lon="3.82826">
        <ele>125.8</ele>
        <time>2017-09-19T11:21:06Z</time>
      </trkpt>
      <trkpt lat="43.63917" lon="3.82832">
        <ele>125.3</ele>
        <time>2017-09-19T11:21:08Z</time>
      </trkpt>
      <trkpt lat="43.63909" lon="3.8283">
        <ele>125</ele>
        <time>2017-09-19T11:21:10Z</time>
      </trkpt>
      <trkpt lat="43.63905" lon="3.8282">
        <ele>125</ele>
        <time>2017-09-19T11:21:13Z</time>
      </trkpt>
      <trkpt lat="43.63899" lon="3.82811">
        <ele>125</ele>
        <time>2017-09-19T11:21:16Z</time>
      </trkpt>
      <trkpt lat="43.63891" lon="3.82802">
        <ele>125.8</ele>
        <time>2017-09-19T11:21:19Z</time>
      </trkpt>
      <trkpt lat="43.63886" lon="3.8279">
        <ele>126.4</ele>
        <time>2017-09-19T11:21:21Z</time>
      </trkpt>
      <trkpt lat="43.6388" lon="3.8278">
        <ele>126.4</ele>
        <time>2017-09-19T11:21:23Z</time>
      </trkpt>
      <trkpt lat="43.63873" lon="3.82784">
        <ele>126.4</ele>
        <time>2017-09-19T11:21:25Z</time>
      </trkpt>
      <trkpt lat="43.63865" lon="3.82792">
        <ele>126.2</ele>
        <time>2017-09-19T11:21:27Z</time>
      </trkpt>
      <trkpt lat="43.63854" lon="3.828">
        <ele>126.1</ele>
        <time>2017-09-19T11:21:29Z</time>
      </trkpt>
      <trkpt lat="43.63841" lon="3.82803">
        <ele>126</ele>
        <time>2017-09-19T11:21:31Z</time>
      </trkpt>
      <trkpt lat="43.63829" lon="3.82803">
        <ele>125.8</ele>
        <time>2017-09-19T11:21:33Z</time>
      </trkpt>
      <trkpt lat="43.63819" lon="3.82806">
        <ele>125.6</ele>
        <time>2017-09-19T11:21:35Z</time>
      </trkpt>
      <trkpt lat="43.63809" lon="3.82809">
        <ele>125.6</ele>
        <time>2017-09-19T11:21:37Z</time>
      </trkpt>
      <trkpt lat="43.63798" lon="3.82813">
        <ele>125.9</ele>
        <time>2017-09-19T11:21:39Z</time>
      </trkpt>
      <trkpt lat="43.63788" lon="3.82816">
        <ele>126.2</ele>
        <time>2017-09-19T11:21:41Z</time>
      </trkpt>
      <trkpt lat="43.63781" lon="3.82821">
        <ele>126.3</ele>
        <time>2017-09-19T11:21:43Z</time>
      </trkpt>
      <trkpt lat="43.63777" lon="3.82833">
        <ele>126.3</ele>
        <time>2017-09-19T11:21:46Z</time>
      </trkpt>
      <trkpt lat="43.63781" lon="3.82844">
        <ele>126.4</ele>
        <time>2017-09-19T11:21:48Z</time>
      </trkpt>
      <trkpt lat="43.63781" lon="3.82855">
        <ele>126.4</ele>
        <time>2017-09-19T11:21:50Z</time>
      </trkpt>
      <trkpt lat="43.63773" lon="3.82858">
        <ele>126.3</ele>
        <time>2017-09-19T11:21:53Z</time>
      </trkpt>
      <trkpt lat="43.63768" lon="3.82858">
        <ele>126.1</ele>
        <time>2017-09-19T11:22:00Z</time>
      </trkpt>
    </trkseg>
  </trk>
</gpx>